Provisional Data: Sing Sing Creek near Big Flats, NY


Please select a monitoring station.
Please select start date.
Please select start date.

Toggle Unit: C/F Toggle Unit: C/F
Sample Time Temperature (C) Temperature (F) Specific Conductivity (mS/cm) pH   Turbidity (NTU+) DO (mg/L)
8/1/2022 12:00:00 AM 21.31 70.358 0.69 7.72 19.92 7
8/1/2022 12:15:00 AM 21.27 70.286 0.689 7.7 20.32 7.08
8/1/2022 12:30:00 AM 21.22 70.196 0.69 7.7 22.68 6.88
8/1/2022 12:45:00 AM 21.18 70.124 0.688 7.66 21.7 6.91
8/1/2022 1:00:00 AM 21.13 70.034 0.69 7.67 23.14 6.72
8/1/2022 1:15:00 AM 21.09 69.962 0.691 7.67 24.55 6.45
8/1/2022 1:30:00 AM 21.04 69.872 0.692 7.65 24.98 6.59
8/1/2022 1:45:00 AM 20.99 69.782 0.692 7.62 76.8 6.42
8/1/2022 2:00:00 AM 20.94 69.692 0.692 7.63 23.36 6.32
8/1/2022 2:15:00 AM 20.9 69.62 0.692 7.63 23.66 6.17
8/1/2022 2:30:00 AM 20.86 69.548 0.694 7.62 24.63 6.07
8/1/2022 2:45:00 AM 20.82 69.476 0.693 7.6 23.64 5.96
8/1/2022 3:00:00 AM 20.78 69.404 0.693 7.6 23.99 5.79
8/1/2022 3:15:00 AM 20.73 69.314 0.694 7.6 25.51 5.85
8/1/2022 3:30:00 AM 20.69 69.242 0.694 7.58 26.37 5.87
8/1/2022 3:45:00 AM 20.65 69.17 0.696 7.6 66.61 5.61
8/1/2022 4:00:00 AM 20.6 69.08 0.697 7.63 30.93 5.52
8/1/2022 4:15:00 AM 20.55 68.99 0.696 7.63 96.17 5.67
8/1/2022 4:30:00 AM 20.5 68.9 0.696 7.63 98.38 5.51
8/1/2022 4:45:00 AM 20.45 68.81 0.696 7.6 82.6 5.29
8/1/2022 5:00:00 AM 20.4 68.72 0.698 7.63 53.63 5.4
8/1/2022 5:15:00 AM 20.34 68.612 0.697 7.61 56.51 5.42
8/1/2022 5:30:00 AM 20.28 68.504 0.697 7.62 47.22 5.39
8/1/2022 5:45:00 AM 20.21 68.378 0.693 7.63 22.89 5.43
8/1/2022 6:00:00 AM 20.15 68.27 0.694 7.63 23.33 5.69
8/1/2022 6:15:00 AM 20.11 68.198 0.695 7.62 22.96 5.68
8/1/2022 6:30:00 AM 20.06 68.108 0.699 7.62 21.25 5.27
8/1/2022 6:45:00 AM 20.02 68.036 0.698 7.61 21 5.55
8/1/2022 7:00:00 AM 19.97 67.946 0.699 7.62 44.66 5.48
8/1/2022 7:15:00 AM 19.93 67.874 0.699 7.62 19.91 5.4
8/1/2022 7:30:00 AM 19.89 67.802 0.7 7.62 20.21 5.56
8/1/2022 7:45:00 AM 19.85 67.73 0.698 7.62 20.26 5.41
8/1/2022 8:00:00 AM 19.8 67.64 0.699 7.61 21.95 5.42
8/1/2022 8:15:00 AM 19.76 67.568 0.699 7.61 20.9 5.31
8/1/2022 8:30:00 AM 19.71 67.478 0.699 7.61 19.46 5.15
8/1/2022 8:45:00 AM 19.68 67.424 0.698 7.61 19.2 5.29
8/1/2022 9:00:00 AM 19.65 67.37 0.698 7.61 19.45 5.33
8/1/2022 9:15:00 AM 19.63 67.334 0.698 7.61 19.6 5.2
8/1/2022 9:30:00 AM 19.63 67.334 0.699 7.62 21.39 5.34
8/1/2022 9:45:00 AM 19.65 67.37 0.701 7.62 19.41 4.8
8/1/2022 10:00:00 AM 19.68 67.424 0.7 7.61 19.21 5.21
8/1/2022 10:15:00 AM 19.7 67.46 0.701 7.62 19.09 5.27
8/1/2022 10:30:00 AM 19.75 67.55 0.7 7.64 19.7 5.34
8/1/2022 10:45:00 AM 19.8 67.64 0.701 7.64 19.29 5.41
8/1/2022 11:00:00 AM 19.86 67.748 0.7 7.66 19.28 5.5
8/1/2022 11:15:00 AM 19.91 67.838 0.7 7.67 19.38 5.64
8/1/2022 11:30:00 AM 19.96 67.92799 0.706 7.68 19.41 5.61
8/1/2022 11:45:00 AM 20.11 68.198 0.711 7.7 19.44 4.82
8/1/2022 12:00:00 PM 20.32 68.576 0.712 7.72 19.62 5.06
8/1/2022 12:15:00 PM 20.54 68.972 0.709 7.74 19.29 5.75
8/1/2022 12:30:00 PM 20.79 69.422 0.71 7.76 19.36 6.52
8/1/2022 12:45:00 PM 20.96 69.728 0.706 7.78 18.69 6.31
8/1/2022 1:00:00 PM 21.08 69.944 0.709 7.79 20.91 6.69
8/1/2022 1:15:00 PM 21.19 70.142 0.704 7.8 18.64 6.12
8/1/2022 1:30:00 PM 21.33 70.394 0.706 7.81 18.33 7.64
8/1/2022 1:45:00 PM 21.52 70.736 0.702 7.83 18.28 8.19
8/1/2022 2:00:00 PM 21.75 71.15 0.701 7.85 18.27 8.61
8/1/2022 2:15:00 PM 21.99 71.582 0.701 7.86 19.32 8.82
8/1/2022 2:30:00 PM 22.19 71.942 0.7 7.87 18.75 9
8/1/2022 2:45:00 PM 22.36 72.248 0.7 7.89 22.16 9.23
8/1/2022 3:00:00 PM 22.53 72.554 0.698 7.91 18.71 9.55
8/1/2022 3:15:00 PM 22.68 72.824 0.699 7.93 18.54 9.63
8/1/2022 3:30:00 PM 22.83 73.094 0.698 7.94 18.91 9.97
8/1/2022 3:45:00 PM 22.96 73.328 0.698 7.95 19.44 10.08
8/1/2022 4:00:00 PM 23.09 73.562 0.698 7.97 19.11 9.98
8/1/2022 4:15:00 PM 23.19 73.742 0.699 7.97 19.17 9.93
8/1/2022 4:30:00 PM 23.27 73.886 0.698 7.98 20.02 10.2
8/1/2022 4:45:00 PM 23.34 74.012 0.696 7.96 18.95 10
8/1/2022 5:00:00 PM 23.38 74.084 0.699 7.98 42.29 10.25
8/1/2022 5:15:00 PM 23.42 74.156 0.696 7.99 19.24 10.49
8/1/2022 5:30:00 PM 23.54 74.372 0.697 7.98 19.89 10.38
8/1/2022 5:45:00 PM 23.51 74.318 0.699 7.99 21.8 10.67
8/1/2022 6:00:00 PM 23.5 74.3 0.702 7.97 20.33 10.57
8/1/2022 6:15:00 PM 23.47 74.246 0.702 7.95 20.12 10.5
8/1/2022 6:30:00 PM 23.43 74.174 0.696 7.97 110.93 10.11
8/1/2022 6:45:00 PM 23.39 74.102 0.695 7.97 21.97 10.22
8/1/2022 7:00:00 PM 23.35 74.03 0.698 7.96 93.93 10.05
8/1/2022 7:15:00 PM 23.3 73.94 0.698 7.95 19.06 9.96
8/1/2022 7:30:00 PM 23.23 73.814 0.702 7.93 27.54 9.6
8/1/2022 7:45:00 PM 23.16 73.688 0.702 7.92 479.72 9.47
8/1/2022 8:00:00 PM 23.1 73.58 0.705 7.91 112.63 9.32
8/1/2022 8:15:00 PM 23.03 73.454 0.702 7.9 21.53 8.98
8/1/2022 8:30:00 PM 22.97 73.346 0.705 7.88 19.18 8.85
8/1/2022 8:45:00 PM 22.89 73.202 0.7 7.86 19.75 8.69
8/1/2022 9:00:00 PM 22.83 73.094 0.7 7.82 19.53 8.69
8/1/2022 9:15:00 PM 22.76 72.968 0.7 7.81 18.93 8.47
8/1/2022 9:30:00 PM 22.7 72.86 0.698 7.8 18.92 8.3
8/1/2022 9:45:00 PM 22.64 72.752 0.7 7.76 20.61 8.1
8/1/2022 10:00:00 PM 22.58 72.644 0.696 7.75 19.21 7.99
8/1/2022 10:15:00 PM 22.53 72.554 0.71 7.74 18.84 7.75
8/1/2022 10:30:00 PM 22.48 72.464 0.709 7.71 19.12 7.66
8/1/2022 10:45:00 PM 22.43 72.374 0.706 7.69 19.28 7.54
8/1/2022 11:00:00 PM 22.39 72.302 0.7 7.65 17.73 7.25
8/1/2022 11:15:00 PM 22.35 72.23 0.699 7.64 17.73 6.78
8/1/2022 11:30:00 PM 22.31 72.158 0.701 7.64 17.9 6.99
8/1/2022 11:45:00 PM 22.27 72.086 0.706 7.64 17.76 6.57
8/2/2022 12:00:00 AM 22.23 72.014 0.715 7.64 18.69 6.73
8/2/2022 12:15:00 AM 22.2 71.96 0.72 7.63 17.69 6.45
8/2/2022 12:30:00 AM 22.17 71.906 0.732 7.61 17.81 6.44
8/2/2022 12:45:00 AM 22.14 71.852 0.714 7.62 18.35 6.59
8/2/2022 1:00:00 AM 22.11 71.798 0.713 7.65 18.34 6.65
8/2/2022 1:15:00 AM 22.08 71.744 0.723 7.64 18.47 6.57
8/2/2022 1:30:00 AM 22.06 71.708 0.717 7.61 18.12 6.46
8/2/2022 1:45:00 AM 22.03 71.654 0.724 7.67 28.43 6.18
8/2/2022 2:00:00 AM 22.01 71.618 0.719 7.67 17.97 6.45
8/2/2022 2:15:00 AM 21.98 71.564 0.732 7.65 2328.11 6.35
8/2/2022 2:30:00 AM 21.96 71.528 0.728 7.66 18.11 6.27
8/2/2022 2:45:00 AM 21.94 71.492 0.728 7.66 17.78 6.24
8/2/2022 3:00:00 AM 21.92 71.456 0.742 7.61 17.75 6.14
8/2/2022 3:15:00 AM 21.9 71.42 0.725 7.6 17.64 5.97
8/2/2022 3:30:00 AM 21.88 71.384 0.731 7.6 17.98 5.92
8/2/2022 3:45:00 AM 21.85 71.33 0.735 7.6 18.75 5.9
8/2/2022 4:00:00 AM 21.83 71.294 0.729 7.6 17.48 5.79
8/2/2022 4:15:00 AM 21.8 71.24 0.739 7.62 20.45 5.77
8/2/2022 4:30:00 AM 21.78 71.204 0.741 7.62 17.75 5.79
8/2/2022 4:45:00 AM 21.75 71.15 0.739 7.64 17.79 5.75
8/2/2022 5:00:00 AM 21.73 71.114 0.736 7.62 17.8 5.53
8/2/2022 5:15:00 AM 21.71 71.078 0.752 7.61 17.65 5.5
8/2/2022 5:30:00 AM 21.69 71.042 0.752 7.59 17.98 5.35
8/2/2022 5:45:00 AM 21.67 71.006 0.741 7.61 17.82 5.42
8/2/2022 6:00:00 AM 21.65 70.97 0.745 7.56 17.73 5.26
8/2/2022 6:15:00 AM 21.62 70.916 0.74 7.57 18.07 5.16
8/2/2022 6:30:00 AM 21.59 70.862 0.741 7.57 17.93 4.9
8/2/2022 6:45:00 AM 21.56 70.808 0.733 7.55 19.4 4.91
8/2/2022 7:00:00 AM 21.53 70.754 0.744 7.55 18.32 4.98
8/2/2022 7:15:00 AM 21.51 70.718 0.745 7.53 18.16 4.66
8/2/2022 7:30:00 AM 21.47 70.646 0.733 7.58 17.5 4.87
8/2/2022 7:45:00 AM 21.45 70.61 0.73 7.6 3357.92 4.6
8/2/2022 8:00:00 AM 21.42 70.556 0.736 7.59 17.01 4.63
8/2/2022 8:15:00 AM 21.4 70.52 0.739 7.59 19.18 4.83
8/2/2022 8:30:00 AM 21.39 70.502 0.742 7.58 19.24 4.96
8/2/2022 8:45:00 AM 21.38 70.484 0.738 7.59 18.8 4.8
8/2/2022 9:00:00 AM 21.38 70.484 0.741 7.56 46.14 4.19
8/2/2022 9:15:00 AM 21.38 70.484 0.739 7.61 20.93 4.11
8/2/2022 9:30:00 AM 21.41 70.538 0.743 7.61 20.92 3.99
8/2/2022 9:45:00 AM 21.43 70.574 0.748 7.61 20.5 4.49
8/2/2022 10:00:00 AM 21.46 70.628 0.758 7.63 20.54 5
8/2/2022 10:15:00 AM 21.49 70.682 0.753 7.63 20.48 4.32
8/2/2022 10:30:00 AM 21.55 70.79 0.763 7.64 20.57 4.39
8/2/2022 10:45:00 AM 21.62 70.916 0.751 7.65 55 5.15
8/2/2022 11:00:00 AM 21.71 71.078 0.746 7.67 19.87 4.21
8/2/2022 11:15:00 AM 21.83 71.294 0.741 7.68 19.64 4.26
8/2/2022 11:30:00 AM 21.98 71.564 0.73 7.69 19.63 5.43
8/2/2022 11:45:00 AM 22.13 71.834 0.729 7.72 19.35 6.13
8/2/2022 12:00:00 PM 22.3 72.14 0.725 7.73 19.96 6.48
8/2/2022 12:15:00 PM 22.46 72.42799 0.725 7.75 19.86 6.8
8/2/2022 12:30:00 PM 22.61 72.698 0.724 7.76 19.7 7.22
8/2/2022 12:45:00 PM 22.79 73.022 0.721 7.78 20.21 7.75
8/2/2022 1:00:00 PM 22.96 73.328 0.719 7.81 20.21 8.09
8/2/2022 1:15:00 PM 23.14 73.652 0.718 7.81 20.23 8.43
8/2/2022 1:30:00 PM 23.36 74.048 0.717 7.84 19.8 8.63
8/2/2022 1:45:00 PM 23.62 74.516 0.715 7.86 126.8 9.01
8/2/2022 2:00:00 PM 23.89 75.002 0.713 7.88 27.95 9.37
8/2/2022 2:15:00 PM 24.11 75.398 0.715 7.91 18.92 9.75
8/2/2022 2:30:00 PM 24.31 75.758 0.711 7.93 19.07 9.5
8/2/2022 2:45:00 PM 24.51 76.118 0.708 7.95 19.23 9.84
8/2/2022 3:00:00 PM 24.69 76.442 0.71 7.96 18.9 10.06
8/2/2022 3:15:00 PM 24.85 76.73 0.709 7.98 18.99 10.43
8/2/2022 3:30:00 PM 24.98 76.964 0.709 7.99 23.52 10.01
8/2/2022 3:45:00 PM 25.09 77.162 0.71 7.99 40.3 10.32
8/2/2022 4:00:00 PM 25.17 77.306 0.707 8.01 20.61 9.95
8/2/2022 4:15:00 PM 25.25 77.45 0.707 8.01 832.62 10.71
8/2/2022 4:30:00 PM 25.31 77.558 0.705 8.01 21.36 9.48
8/2/2022 4:45:00 PM 25.35 77.63 0.704 8.01 19.25 9.39
8/2/2022 5:00:00 PM 25.37 77.666 0.705 8 18.43 10.45
8/2/2022 5:15:00 PM 25.36 77.648 0.704 8.01 18.63 10.55
8/2/2022 5:30:00 PM 25.33 77.594 0.704 8.01 18.55 10.33
8/2/2022 5:45:00 PM 25.29 77.522 0.706 8 18.92 10.35
8/2/2022 6:00:00 PM 25.23 77.414 0.706 8 18.95 9.93
8/2/2022 6:15:00 PM 25.16 77.288 0.708 8 18.82 9.98
8/2/2022 6:30:00 PM 25.08 77.144 0.705 7.98 171.78 9.78
8/2/2022 6:45:00 PM 24.98 76.964 0.711 7.97 30.94 9.3
8/2/2022 7:00:00 PM 24.87 76.766 0.713 7.94 19 9.51
8/2/2022 7:15:00 PM 24.75 76.55 0.716 7.91 19 9.33
8/2/2022 7:30:00 PM 24.63 76.334 0.713 7.85 18.87 9.08
8/2/2022 7:45:00 PM 24.51 76.118 0.717 7.88 18.37 8.81
8/2/2022 8:00:00 PM 24.4 75.92 0.716 7.84 18.87 8.67
8/2/2022 8:15:00 PM 24.29 75.722 0.719 7.85 18.77 8.51
8/2/2022 8:30:00 PM 24.18 75.524 0.714 7.8 19.73 8.19
8/2/2022 8:45:00 PM 24.07 75.326 0.716 7.79 19.45 8.11
8/2/2022 9:00:00 PM 23.97 75.146 0.714 7.84 21.64 7.73
8/2/2022 9:15:00 PM 23.89 75.002 0.714 7.78 22.72 7.72
8/2/2022 9:30:00 PM 23.79 74.82201 0.718 7.74 21.95 7.52
8/2/2022 9:45:00 PM 23.71 74.67799 0.728 7.78 25.01 7.33
8/2/2022 10:00:00 PM 23.62 74.516 0.73 7.76 22.16 7.21
8/2/2022 10:15:00 PM 23.54 74.372 0.733 7.73 21.99 7.2
8/2/2022 10:30:00 PM 23.46 74.228 0.736 7.72 22.75 7.04
8/2/2022 10:45:00 PM 23.38 74.084 0.736 7.72 21.58 6.89
8/2/2022 11:00:00 PM 23.31 73.958 0.735 7.69 20.99 6.75
8/2/2022 11:15:00 PM 23.24 73.832 0.731 7.62 21.45 6.6
8/2/2022 11:30:00 PM 23.17 73.706 0.735 7.62 21.49 6.73
8/2/2022 11:45:00 PM 23.1 73.58 0.737 7.64 21.55 6.58
8/3/2022 12:00:00 AM 23.02 73.436 0.739 7.64 21.2 6.5
8/3/2022 12:15:00 AM 22.95 73.31 0.742 7.64 20.78 6.47
8/3/2022 12:30:00 AM 22.88 73.184 0.743 7.61 21.56 6.37
8/3/2022 12:45:00 AM 22.82 73.076 0.742 7.62 21.72 6.31
8/3/2022 1:00:00 AM 22.76 72.968 0.742 7.59 20.97 6.17
8/3/2022 1:15:00 AM 22.69 72.842 0.741 7.62 21.83 6.07
8/3/2022 1:30:00 AM 22.63 72.734 0.742 7.62 20.95 6.1
8/3/2022 1:45:00 AM 22.56 72.608 0.743 7.57 21.17 6.01
8/3/2022 2:00:00 AM 22.49 72.482 0.746 7.59 21.31 5.95
8/3/2022 2:15:00 AM 22.42 72.356 0.746 7.62 21.92 5.88
8/3/2022 2:30:00 AM 22.36 72.248 0.746 7.6 21.66 5.81
8/3/2022 2:45:00 AM 22.3 72.14 0.75 7.59 22.55 5.68
8/3/2022 3:00:00 AM 22.23 72.014 0.747 7.57 21.66 5.64
8/3/2022 3:15:00 AM 22.17 71.906 0.749 7.56 21.95 5.64
8/3/2022 3:30:00 AM 22.11 71.798 0.747 7.57 21.97 5.56
8/3/2022 3:45:00 AM 22.04 71.672 0.748 7.58 22.49 5.48
8/3/2022 4:00:00 AM 21.97 71.546 0.75 7.57 22.58 5.42
8/3/2022 4:15:00 AM 21.91 71.438 0.753 7.56 23.4 5.38
8/3/2022 4:30:00 AM 21.84 71.312 0.751 7.6 22.65 5.38
8/3/2022 4:45:00 AM 21.77 71.186 0.758 7.59 22.11 5.28
8/3/2022 5:00:00 AM 21.7 71.06 0.755 7.59 23.03 5.14
8/3/2022 5:15:00 AM 21.64 70.952 0.755 7.56 22.26 5.02
8/3/2022 5:30:00 AM 21.58 70.844 0.756 7.58 36.44 4.93
8/3/2022 5:45:00 AM 21.51 70.718 0.759 7.55 23.8 5.12
8/3/2022 6:00:00 AM 21.44 70.592 0.76 7.58 23.33 5.04
8/3/2022 6:15:00 AM 21.36 70.448 0.757 7.58 32.01 4.73
8/3/2022 6:30:00 AM 21.3 70.34 0.758 7.58 33.34 5.01
8/3/2022 6:45:00 AM 21.23 70.214 0.762 7.59 21.19 4.91
8/3/2022 7:00:00 AM 21.17 70.106 0.759 7.59 27.64 4.93
8/3/2022 7:15:00 AM 21.1 69.98 0.764 7.57 2099.22 4.93
8/3/2022 7:30:00 AM 21.02 69.836 0.765 7.58 22.18 4.76
8/3/2022 7:45:00 AM 20.96 69.728 0.764 7.58 75.73 4.73
8/3/2022 8:00:00 AM 20.9 69.62 0.764 7.58 30.07 4.46
8/3/2022 8:15:00 AM 20.84 69.512 0.764 7.58 21.39 4.67
8/3/2022 8:30:00 AM 20.78 69.404 0.764 7.58 20.96 4.61
8/3/2022 8:45:00 AM 20.72 69.296 0.768 7.57 27.37 4.81
8/3/2022 9:00:00 AM 20.67 69.206 0.763 7.58 311.58 4.81
8/3/2022 9:15:00 AM 20.64 69.152 0.762 7.57 32.32 4.71
8/3/2022 9:30:00 AM 20.62 69.116 0.769 7.57 20.97 4.91
8/3/2022 9:45:00 AM 20.61 69.098 0.764 7.55 20.25 4.84
8/3/2022 10:00:00 AM 20.61 69.098 0.761 7.56 21.03 4.89
8/3/2022 10:15:00 AM 20.62 69.116 0.758 7.56 20.18 4.98
8/3/2022 10:30:00 AM 20.65 69.17 0.761 7.57 20.06 4.32
8/3/2022 10:45:00 AM 20.72 69.296 0.759 7.59 20.28 3.71
8/3/2022 11:00:00 AM 20.8 69.44 0.753 7.61 20.34 3.85
8/3/2022 11:15:00 AM 20.9 69.62 0.75 7.63 20.09 3.36
8/3/2022 11:30:00 AM 21.04 69.872 0.743 7.66 20.39 3.96
8/3/2022 11:45:00 AM 21.22 70.196 0.737 7.68 19.95 4.95
8/3/2022 12:00:00 PM 21.4 70.52 0.737 7.7 20.22 5.44
8/3/2022 12:15:00 PM 21.6 70.88 0.734 7.71 20 6.24
8/3/2022 12:30:00 PM 21.81 71.258 0.726 7.73 19.83 6.4
8/3/2022 12:45:00 PM 22.02 71.636 0.715 7.75 19.54 6.85
8/3/2022 1:00:00 PM 22.24 72.032 0.727 7.77 19.57 7.24
8/3/2022 1:15:00 PM 22.46 72.42799 0.729 7.79 20.89 7.38
8/3/2022 1:30:00 PM 22.7 72.86 0.723 7.81 19.48 7.89
8/3/2022 1:45:00 PM 22.94 73.292 0.72 7.82 19.37 8.11
8/3/2022 2:00:00 PM 23.17 73.706 0.714 7.84 20.25 7.78
8/3/2022 2:15:00 PM 23.4 74.12 0.702 7.86 29.72 7.98
8/3/2022 2:30:00 PM 23.64 74.552 0.694 7.87 19.3 7.79
8/3/2022 2:45:00 PM 23.87 74.966 0.693 7.89 19.42 8.56
8/3/2022 3:00:00 PM 24.1 75.38 0.697 7.91 21.44 8.89
8/3/2022 3:15:00 PM 24.31 75.758 0.694 7.92 19.31 7.33
8/3/2022 3:30:00 PM 24.46 76.028 0.694 7.93 19.44 8.39
8/3/2022 3:45:00 PM 24.61 76.298 0.686 7.94 20.41 9.14
8/3/2022 4:00:00 PM 24.72 76.496 0.684 7.95 20.28 9.58
8/3/2022 4:15:00 PM 24.83 76.694 0.695 7.95 19.6 9.57
8/3/2022 4:30:00 PM 24.91 76.838 0.691 7.97 19.61 10
8/3/2022 4:45:00 PM 24.98 76.964 0.717 7.95 19.84 9.52
8/3/2022 5:00:00 PM 24.99 76.982 0.715 7.96 19.62 9.82
8/3/2022 5:15:00 PM 25 77 0.72 7.96 20.05 9.89
8/3/2022 5:30:00 PM 24.99 76.982 0.731 7.96 20.04 9.03
8/3/2022 5:45:00 PM 24.99 76.982 0.731 7.96 20.03 9.02
8/3/2022 6:00:00 PM 24.98 76.964 0.722 7.96 20.27 10.17
8/3/2022 6:15:00 PM 24.96 76.92799 0.713 7.94 19.92 8.9
8/3/2022 6:30:00 PM 24.93 76.874 0.717 7.94 19.97 9.56
8/3/2022 6:45:00 PM 24.88 76.784 0.724 7.94 20.14 9.55
8/3/2022 7:00:00 PM 24.82 76.676 0.726 7.93 19.93 9.61
8/3/2022 7:15:00 PM 24.76 76.568 0.727 7.92 19.94 9.48
8/3/2022 7:30:00 PM 24.7 76.46 0.726 7.9 19.94 9.44
8/3/2022 7:45:00 PM 24.63 76.334 0.728 7.88 20.07 9.28
8/3/2022 8:00:00 PM 24.57 76.226 0.722 7.87 20 9.06
8/3/2022 8:15:00 PM 24.5 76.1 0.711 7.85 20.2 8.84
8/3/2022 8:30:00 PM 24.42 75.956 0.718 7.82 19.74 8.65
8/3/2022 8:45:00 PM 24.34 75.812 0.735 7.76 19.95 8.4
8/3/2022 9:00:00 PM 24.25 75.65 0.736 7.75 22.95 7.83
8/3/2022 9:15:00 PM 24.17 75.506 0.711 7.78 7065.89 6.99
8/3/2022 9:30:00 PM 24.07 75.326 0.729 7.79 74.73 7.65
8/3/2022 9:45:00 PM 23.99 75.182 0.733 7.78 56.18 7.41
8/3/2022 10:00:00 PM 23.91 75.038 0.726 7.77 20.15 7.55
8/3/2022 10:15:00 PM 23.83 74.894 0.739 7.77 20.84 7.32
8/3/2022 10:30:00 PM 23.77 74.786 0.745 7.68 21.61 7.28
8/3/2022 10:45:00 PM 23.7 74.66 0.746 7.71 20.79 7.2
8/3/2022 11:00:00 PM 23.64 74.552 0.745 7.71 19.87 7
8/3/2022 11:15:00 PM 23.59 74.462 0.75 7.66 23.96 6.91
8/3/2022 11:30:00 PM 23.53 74.354 0.747 7.66 21.6 6.87
8/3/2022 11:45:00 PM 23.47 74.246 0.704 7.61 23.46 6.56
8/4/2022 12:00:00 AM 23.43 74.174 0.71 7.64 45.89 6.25
8/4/2022 12:15:00 AM 23.39 74.102 0.721 7.64 22.23 5.92
8/4/2022 12:30:00 AM 23.35 74.03 0.727 7.64 22.49 5.99
8/4/2022 12:45:00 AM 23.31 73.958 0.736 7.66 42.76 6.05
8/4/2022 1:00:00 AM 23.27 73.886 0.733 7.66 21.45 5.98
8/4/2022 1:15:00 AM 23.23 73.814 0.743 7.64 21.36 6.12
8/4/2022 1:30:00 AM 23.18 73.724 0.747 7.61 22.1 5.84
8/4/2022 1:45:00 AM 23.14 73.652 0.764 7.6 21.86 5.79
8/4/2022 2:00:00 AM 23.1 73.58 0.763 7.61 21.75 5.27
8/4/2022 2:15:00 AM 23.07 73.526 0.761 7.61 21.99 3.88
8/4/2022 2:30:00 AM 23.02 73.436 0.767 7.62 21.5 5.05
8/4/2022 2:45:00 AM 22.99 73.382 0.761 7.61 136.75 1.05
8/4/2022 3:00:00 AM 22.95 73.31 0.761 7.61 21.41 0.85
8/4/2022 3:15:00 AM 22.91 73.238 0.766 7.61 22.42 0.41
8/4/2022 3:30:00 AM 22.87 73.166 0.764 7.62 29.08 0.42
8/4/2022 3:45:00 AM 22.84 73.112 0.771 7.58 21.59 0.37
8/4/2022 4:00:00 AM 22.8 73.04 0.778 7.6 21.43 0.51
8/4/2022 4:15:00 AM 22.75 72.95 0.772 7.61 22.1 0.35
8/4/2022 4:30:00 AM 22.71 72.878 0.78 7.57 21.28 0.57
8/4/2022 4:45:00 AM 22.67 72.806 0.769 7.59 20.85 1.36
8/4/2022 5:00:00 AM 22.63 72.734 0.769 7.59 20.88 0.96
8/4/2022 5:15:00 AM 22.57 72.626 0.768 7.55 21.65 2.34
8/4/2022 5:30:00 AM 22.53 72.554 0.772 7.59 20.98 0.8
8/4/2022 5:45:00 AM 22.47 72.446 0.775 7.59 20.29 2.4
8/4/2022 6:00:00 AM 22.41 72.338 0.774 7.59 20.9 3.99
8/4/2022 6:15:00 AM 22.36 72.248 0.77 7.59 20.7 4.22
8/4/2022 6:30:00 AM 22.31 72.158 0.764 7.58 20.71 4.18
8/4/2022 6:45:00 AM 22.25 72.05 0.762 7.58 20.68 4.29
8/4/2022 7:00:00 AM 22.2 71.96 0.766 7.57 20.6 4.25
8/4/2022 7:15:00 AM 22.15 71.87 0.776 7.57 20.83 3.84
8/4/2022 7:30:00 AM 22.09 71.762 0.763 7.57 20.83 4.13
8/4/2022 7:45:00 AM 22.04 71.672 0.774 7.57 20.84 4.09
8/4/2022 8:00:00 AM 22.01 71.618 0.761 7.57 20.68 4.15
8/4/2022 8:15:00 AM 21.99 71.582 0.756 7.55 21.71 4.15
8/4/2022 8:30:00 AM 21.97 71.546 0.759 7.56 23.1 3.6
8/4/2022 8:45:00 AM 21.95 71.51 0.746 7.55 21.58 3.84
8/4/2022 9:00:00 AM 21.92 71.456 0.751 7.56 21.2 3.29
8/4/2022 9:15:00 AM 21.9 71.42 0.755 7.54 21.22 3.52
8/4/2022 9:30:00 AM 21.89 71.402 0.764 7.52 21.13 4.29
8/4/2022 9:45:00 AM 21.89 71.402 0.76 7.56 21.09 4.7
8/4/2022 10:00:00 AM 21.9 71.42 0.763 7.57 22.45 4.89
8/4/2022 10:15:00 AM 21.92 71.456 0.766 7.56 22.44 4.45
8/4/2022 10:30:00 AM 21.98 71.564 0.757 7.59 20.81 4.69
8/4/2022 10:45:00 AM 22.05 71.69 0.747 7.6 21.41 3.97
8/4/2022 11:00:00 AM 22.15 71.87 0.752 7.61 22.56 4.01
8/4/2022 11:15:00 AM 22.3 72.14 0.743 7.63 22.3 4.48
8/4/2022 11:30:00 AM 22.47 72.446 0.74 7.65 20.59 4.34
8/4/2022 11:45:00 AM 22.67 72.806 0.735 7.67 21.51 5.03
8/4/2022 12:00:00 PM 22.83 73.094 0.73 7.7 21.15 4.95
8/4/2022 12:15:00 PM 22.97 73.346 0.722 7.68 29.55 5.95
8/4/2022 12:30:00 PM 23.13 73.634 0.729 7.71 21.49 6.95
8/4/2022 12:45:00 PM 23.24 73.832 0.731 7.73 21.04 6.2
8/4/2022 1:00:00 PM 23.37 74.066 0.748 7.74 20.89 6.28
8/4/2022 1:15:00 PM 23.5 74.3 0.73 7.76 21.09 6.6
8/4/2022 1:30:00 PM 23.57 74.426 0.734 7.75 22.03 7.55
8/4/2022 1:45:00 PM 23.58 74.444 0.729 7.76 45.54 7.11
8/4/2022 2:00:00 PM 23.53 74.354 0.766 7.72 21.23 7.48
8/4/2022 2:15:00 PM 23.46 74.228 0.742 7.71 20.87 7.45
8/4/2022 2:30:00 PM 23.36 74.048 0.759 7.74 24.74 7.29
8/4/2022 2:45:00 PM 23.27 73.886 0.751 7.68 24.36 7.25
8/4/2022 3:00:00 PM 23.19 73.742 0.775 7.7 22.58 7.19
8/4/2022 3:15:00 PM 23.14 73.652 0.762 7.71 22.33 7.05
8/4/2022 3:30:00 PM 23.1 73.58 0.747 7.68 23.26 6.93
8/4/2022 3:45:00 PM 23.06 73.508 0.741 7.72 23.37 6.85
8/4/2022 4:00:00 PM 23.03 73.454 0.756 7.68 23.37 6.89
8/4/2022 4:15:00 PM 22.99 73.382 0.751 7.67 23.44 6.87
8/4/2022 4:30:00 PM 22.96 73.328 0.749 7.67 22.97 6.88
8/4/2022 4:45:00 PM 22.94 73.292 0.743 7.66 23.11 6.81
8/4/2022 5:00:00 PM 22.93 73.274 0.737 7.68 22.83 6.97
8/4/2022 5:15:00 PM 22.93 73.274 0.741 7.71 22.94 7.01
8/4/2022 5:30:00 PM 22.94 73.292 0.744 7.73 22.85 7.14
8/4/2022 5:45:00 PM 22.96 73.328 0.759 7.74 22.93 7.17
8/4/2022 6:00:00 PM 22.97 73.346 0.751 7.74 23.18 7.3
8/4/2022 6:15:00 PM 22.97 73.346 0.754 7.74 23.13 7.29
8/4/2022 6:30:00 PM 22.97 73.346 0.772 7.74 23.28 7.26
8/4/2022 6:45:00 PM 22.96 73.328 0.775 7.73 23.33 7.22
8/4/2022 7:00:00 PM 22.95 73.31 0.765 7.72 23.11 7.17
8/4/2022 7:15:00 PM 22.94 73.292 0.75 7.72 23.21 7.09
8/4/2022 7:30:00 PM 22.93 73.274 0.779 7.72 23.26 7.02
8/4/2022 7:45:00 PM 22.91 73.238 0.758 7.72 23.18 6.92
8/4/2022 8:00:00 PM 22.9 73.22 0.775 7.71 23.41 6.87
8/4/2022 8:15:00 PM 22.88 73.184 0.755 7.71 23.36 6.77
8/4/2022 8:30:00 PM 22.86 73.148 0.746 7.69 23.65 6.67
8/4/2022 8:45:00 PM 22.83 73.094 0.77 7.64 23.56 6.55
8/4/2022 9:00:00 PM 22.81 73.058 0.768 7.68 23.84 6.3
8/4/2022 9:15:00 PM 22.8 73.04 0.778 7.66 23.41 6.41
8/4/2022 9:30:00 PM 22.79 73.022 0.766 7.64 23.58 6.38
8/4/2022 9:45:00 PM 22.79 73.022 0.783 7.64 23.98 6.35
8/4/2022 10:00:00 PM 22.79 73.022 0.774 7.63 24.09 6.3
8/4/2022 10:15:00 PM 22.79 73.022 0.794 7.64 23.98 6.27
8/4/2022 10:30:00 PM 22.8 73.04 0.788 7.66 23.67 6.23
8/4/2022 10:45:00 PM 22.81 73.058 0.792 7.66 24.18 6.14
8/4/2022 11:00:00 PM 22.81 73.058 0.812 7.66 23.9 6.05
8/4/2022 11:15:00 PM 22.81 73.058 0.813 7.66 23.94 5.9
8/4/2022 11:30:00 PM 22.79 73.022 0.801 7.65 23.98 5.76
8/4/2022 11:45:00 PM 22.76 72.968 0.811 7.63 29.76 5.65
8/5/2022 12:00:00 AM 22.73 72.914 0.814 7.63 24.08 5.17
8/5/2022 12:15:00 AM 22.69 72.842 0.799 7.63 228.26 5.02
8/5/2022 12:30:00 AM 22.65 72.77 0.794 7.61 24.35 5.19
8/5/2022 12:45:00 AM 22.62 72.716 0.804 7.61 26.54 5.33
8/5/2022 1:00:00 AM 22.59 72.662 0.796 7.63 24.85 5.41
8/5/2022 1:15:00 AM 22.55 72.59 0.799 7.64 27.15 5.39
8/5/2022 1:30:00 AM 22.52 72.536 0.804 7.63 26.88 5.38
8/5/2022 1:45:00 AM 22.49 72.482 0.798 7.63 24.92 5.34
8/5/2022 2:00:00 AM 22.46 72.42799 0.792 7.63 25.05 5.36
8/5/2022 2:15:00 AM 22.43 72.374 0.791 7.63 25.97 5.34
8/5/2022 2:30:00 AM 22.4 72.32 0.793 7.63 25.42 5.37
8/5/2022 2:45:00 AM 22.36 72.248 0.797 7.61 26.75 5.34
8/5/2022 3:00:00 AM 22.33 72.194 0.793 7.59 27.16 5.34
8/5/2022 3:15:00 AM 22.3 72.14 0.786 7.61 26.66 5.33
8/5/2022 3:30:00 AM 22.26 72.068 0.787 7.6 28 5.32
8/5/2022 3:45:00 AM 22.23 72.014 0.777 7.62 27.61 5.31
8/5/2022 4:00:00 AM 22.2 71.96 0.779 7.63 26.7 5.28
8/5/2022 4:15:00 AM 22.17 71.906 0.776 7.63 26.02 5.19
8/5/2022 4:30:00 AM 22.14 71.852 0.767 7.64 26.56 5.28
8/5/2022 4:45:00 AM 22.12 71.816 0.764 7.65 28.6 5.24
8/5/2022 5:00:00 AM 22.09 71.762 0.768 7.63 28.46 5.13
8/5/2022 5:15:00 AM 22.06 71.708 0.738 7.61 20.11 4.98
8/5/2022 5:30:00 AM 22.04 71.672 0.761 7.62 18.95 4.98
8/5/2022 5:45:00 AM 22.02 71.636 0.766 7.63 18.81 4.96
8/5/2022 6:00:00 AM 22 71.6 0.769 7.63 18.89 5
8/5/2022 6:15:00 AM 21.98 71.564 0.774 7.62 19.91 4.78
8/5/2022 6:30:00 AM 21.96 71.528 0.771 7.63 19.21 4.91
8/5/2022 6:45:00 AM 21.94 71.492 0.776 7.62 18.65 4.9
8/5/2022 7:00:00 AM 21.92 71.456 0.774 7.61 19.23 4.9
8/5/2022 7:15:00 AM 21.9 71.42 0.746 7.61 17.77 4.94
8/5/2022 7:30:00 AM 21.88 71.384 0.757 7.59 17.94 5.07
8/5/2022 7:45:00 AM 21.86 71.348 0.755 7.59 18.41 5.07
8/5/2022 8:00:00 AM 21.84 71.312 0.758 7.6 19.02 5.08
8/5/2022 8:15:00 AM 21.83 71.294 0.761 7.61 19.49 5.11
8/5/2022 8:30:00 AM 21.83 71.294 0.759 7.62 17.46 5.17
8/5/2022 8:45:00 AM 21.84 71.312 0.757 7.62 17.43 5.25
8/5/2022 9:00:00 AM 21.85 71.33 0.752 7.63 676.1 4.78
8/5/2022 9:15:00 AM 21.86 71.348 0.754 7.6 16.91 5.43
8/5/2022 9:30:00 AM 21.88 71.384 0.755 7.62 16.99 5.54
8/5/2022 9:45:00 AM 21.9 71.42 0.753 7.61 17.11 5.67
8/5/2022 10:00:00 AM 21.92 71.456 0.753 7.61 17.17 5.79
8/5/2022 10:15:00 AM 21.93 71.474 0.752 7.62 16.91 5.87
8/5/2022 10:30:00 AM 21.95 71.51 0.752 7.62 16.82 5.97
8/5/2022 10:45:00 AM 21.98 71.564 0.753 7.65 17.04 6.13
8/5/2022 11:00:00 AM 22.06 71.708 0.748 7.7 16.83 6.36
8/5/2022 11:15:00 AM 22.17 71.906 0.745 7.72 17.38 6.64
8/5/2022 11:30:00 AM 22.28 72.104 0.745 7.73 17.08 6.92
8/5/2022 11:45:00 AM 22.4 72.32 0.748 7.76 16.83 7.22
8/5/2022 12:00:00 PM 22.55 72.59 0.737 7.77 17.01 7.49
8/5/2022 12:15:00 PM 22.72 72.896 0.733 7.79 17.3 7.34
8/5/2022 12:30:00 PM 22.93 73.274 0.732 7.81 16.96 7.8
8/5/2022 12:45:00 PM 23.14 73.652 0.724 7.83 17.13 8.08
8/5/2022 1:00:00 PM 23.34 74.012 0.72 7.85 17.34 8.63
8/5/2022 1:15:00 PM 23.5 74.3 0.724 7.85 1773.39 8.37
8/5/2022 1:30:00 PM 23.64 74.552 0.723 7.85 17.01 8.76
8/5/2022 1:45:00 PM 23.8 74.84 0.72 7.87 17.06 8.53
8/5/2022 2:00:00 PM 23.98 75.164 0.715 7.89 63.21 8.02
8/5/2022 2:15:00 PM 24.12 75.416 0.72 7.88 100.94 8.67
8/5/2022 2:30:00 PM 24.27 75.686 0.72 7.88 16.92 9.5
8/5/2022 2:45:00 PM 24.34 75.812 0.718 7.91 16.89 9.62
8/5/2022 3:00:00 PM 24.38 75.884 0.716 7.91 16.81 9.64
8/5/2022 3:15:00 PM 24.36 75.848 0.717 7.91 19.11 9.46
8/5/2022 3:30:00 PM 24.32 75.776 0.721 7.9 16.65 9.37
8/5/2022 3:45:00 PM 24.29 75.722 0.722 7.87 17.9 9.18
8/5/2022 4:00:00 PM 24.27 75.686 0.717 7.89 16.26 9.29
8/5/2022 4:15:00 PM 24.27 75.686 0.723 7.89 16.18 9.28
8/5/2022 4:30:00 PM 24.28 75.704 0.721 7.88 16.18 9.27
8/5/2022 4:45:00 PM 24.28 75.704 0.719 7.88 19.75 9.16
8/5/2022 5:00:00 PM 24.27 75.686 0.712 7.88 305.22 9.15
8/5/2022 5:15:00 PM 24.26 75.668 0.708 7.9 16.1 9.13
8/5/2022 5:30:00 PM 24.25 75.65 0.709 7.91 16.08 9.08
8/5/2022 5:45:00 PM 24.23 75.614 0.711 7.88 15.95 9.01
8/5/2022 6:00:00 PM 24.21 75.578 0.716 7.88 16.91 8.92
8/5/2022 6:15:00 PM 24.17 75.506 0.718 7.87 15.92 8.8
8/5/2022 6:30:00 PM 24.14 75.452 0.723 7.87 16.13 8.7
8/5/2022 6:45:00 PM 24.11 75.398 0.725 7.86 16.19 8.59
8/5/2022 7:00:00 PM 24.07 75.326 0.727 7.85 16.3 8.48
8/5/2022 7:15:00 PM 24.03 75.254 0.726 7.84 16.24 8.34
8/5/2022 7:30:00 PM 23.99 75.182 0.721 7.84 16.52 8.22
8/5/2022 7:45:00 PM 23.95 75.11 0.722 7.84 16.75 8.1
8/5/2022 8:00:00 PM 23.91 75.038 0.724 7.82 16.48 7.94
8/5/2022 8:15:00 PM 23.86 74.948 0.725 7.81 16.51 7.76
8/5/2022 8:30:00 PM 23.81 74.858 0.723 7.79 16.59 7.7
8/5/2022 8:45:00 PM 23.77 74.786 0.705 7.75 16.69 7.57
8/5/2022 9:00:00 PM 23.72 74.696 0.721 7.72 17.68 7.45
8/5/2022 9:15:00 PM 23.68 74.624 0.72 7.74 16.87 7.33
8/5/2022 9:30:00 PM 23.63 74.534 0.722 7.67 17.13 7.19
8/5/2022 9:45:00 PM 23.59 74.462 0.72 7.68 16.69 7.12
8/5/2022 10:00:00 PM 23.55 74.39 0.717 7.69 16.67 7.02
8/5/2022 10:15:00 PM 23.51 74.318 0.73 7.69 16.99 6.74
8/5/2022 10:30:00 PM 23.47 74.246 0.735 7.69 17.33 6.73
8/5/2022 10:45:00 PM 23.43 74.174 0.737 7.58 18.26 6.62
8/5/2022 11:00:00 PM 23.4 74.12 0.734 7.7 19.53 6.63
8/5/2022 11:15:00 PM 23.37 74.066 0.739 7.69 19.45 6.32
8/5/2022 11:30:00 PM 23.34 74.012 0.742 7.64 19.87 6.2
8/5/2022 11:45:00 PM 23.31 73.958 0.748 7.68 19 6.35
8/6/2022 12:00:00 AM 23.28 73.904 0.745 7.67 19.08 5.68
8/6/2022 12:15:00 AM 23.25 73.85 0.744 7.64 19.62 5.65
8/6/2022 12:30:00 AM 23.22 73.796 0.749 7.62 46.28 5.58
8/6/2022 12:45:00 AM 23.19 73.742 0.756 7.62 19.93 5.56
8/6/2022 1:00:00 AM 23.16 73.688 0.759 7.62 19.73 5.15
8/6/2022 1:15:00 AM 23.12 73.616 0.758 7.61 20.85 5.71
8/6/2022 1:30:00 AM 23.09 73.562 0.756 7.58 20.74 5.7
8/6/2022 1:45:00 AM 23.05 73.49 0.753 7.56 20.26 5.13
8/6/2022 2:00:00 AM 23.01 73.418 0.755 7.62 26.38 5.16
8/6/2022 2:15:00 AM 22.97 73.346 0.752 7.62 19.41 5.08
8/6/2022 2:30:00 AM 22.93 73.274 0.746 7.6 19.59 5.06
8/6/2022 2:45:00 AM 22.89 73.202 0.741 7.62 20.18 5.12
8/6/2022 3:00:00 AM 22.84 73.112 0.748 7.63 19.61 5.14
8/6/2022 3:15:00 AM 22.79 73.022 0.755 7.61 19.42 4.79
8/6/2022 3:30:00 AM 22.74 72.932 0.757 7.58 21.55 4.92
8/6/2022 3:45:00 AM 22.69 72.842 0.759 7.58 19.84 4.82
8/6/2022 4:00:00 AM 22.63 72.734 0.76 7.58 24.47 4.85
8/6/2022 4:15:00 AM 22.57 72.626 0.758 7.59 19.95 4.86
8/6/2022 4:30:00 AM 22.51 72.518 0.759 7.59 19.45 4.84
8/6/2022 4:45:00 AM 22.45 72.41 0.758 7.58 19.96 4.77
8/6/2022 5:00:00 AM 22.39 72.302 0.757 7.59 20.32 4.7
8/6/2022 5:15:00 AM 22.33 72.194 0.749 7.59 19.72 4.55
8/6/2022 5:30:00 AM 22.28 72.104 0.752 7.59 1498.99 4.63
8/6/2022 5:45:00 AM 22.22 71.996 0.746 7.59 19.76 4.57
8/6/2022 6:00:00 AM 22.17 71.906 0.73 7.57 21.39 4.55
8/6/2022 6:15:00 AM 22.12 71.816 0.752 7.58 20.06 4.46
8/6/2022 6:30:00 AM 22.07 71.726 0.756 7.57 19.81 4.54
8/6/2022 6:45:00 AM 22.03 71.654 0.76 7.57 19.94 4.54
8/6/2022 7:00:00 AM 21.99 71.582 0.759 7.58 19.43 4.48
8/6/2022 7:15:00 AM 21.96 71.528 0.758 7.58 19.69 4.5
8/6/2022 7:30:00 AM 21.93 71.474 0.756 7.58 19.2 4.45
8/6/2022 7:45:00 AM 21.9 71.42 0.754 7.58 19.04 4.44
8/6/2022 8:00:00 AM 21.88 71.384 0.755 7.58 19.34 4.57
8/6/2022 8:15:00 AM 21.86 71.348 0.754 7.58 21.26 4.54
8/6/2022 8:30:00 AM 21.85 71.33 0.756 7.58 19.48 4.69
8/6/2022 8:45:00 AM 21.83 71.294 0.758 7.59 19.06 4.84
8/6/2022 9:00:00 AM 21.81 71.258 0.755 7.59 19.63 4.83
8/6/2022 9:15:00 AM 21.8 71.24 0.754 7.59 19.32 4.86
8/6/2022 9:30:00 AM 21.79 71.222 0.754 7.59 19.32 4.89
8/6/2022 9:45:00 AM 21.79 71.222 0.752 7.59 19.2 4.87
8/6/2022 10:00:00 AM 21.8 71.24 0.756 7.58 19.11 4.74
8/6/2022 10:15:00 AM 21.81 71.258 0.746 7.58 19.2 5.04
8/6/2022 10:30:00 AM 21.87 71.366 0.747 7.61 19.21 4.4
8/6/2022 10:45:00 AM 21.95 71.51 0.75 7.62 19.22 4.5
8/6/2022 11:00:00 AM 22.06 71.708 0.729 7.63 19.18 4.63
8/6/2022 11:15:00 AM 22.19 71.942 0.728 7.65 20.71 5.5
8/6/2022 11:30:00 AM 22.35 72.23 0.738 7.67 19.34 5.06
8/6/2022 11:45:00 AM 22.52 72.536 0.741 7.68 19.02 5.19
8/6/2022 12:00:00 PM 22.72 72.896 0.743 7.7 18.62 5.33
8/6/2022 12:15:00 PM 22.93 73.274 0.742 7.72 18.97 5.76
8/6/2022 12:30:00 PM 23.15 73.67 0.74 7.74 19.13 5.81
8/6/2022 12:45:00 PM 23.38 74.084 0.738 7.76 19.53 6.23
8/6/2022 1:00:00 PM 23.63 74.534 0.733 7.78 19.16 6.65
8/6/2022 1:15:00 PM 23.87 74.966 0.726 7.8 19.35 7.1
8/6/2022 1:30:00 PM 24.09 75.362 0.725 7.82 19.58 7.19
8/6/2022 1:45:00 PM 24.29 75.722 0.723 7.83 19.45 7.1
8/6/2022 2:00:00 PM 24.47 76.046 0.72 7.84 19.98 8.79
8/6/2022 2:15:00 PM 24.56 76.208 0.72 7.83 23.39 8.96
8/6/2022 2:30:00 PM 24.58 76.244 0.721 7.84 19.71 8.92
8/6/2022 2:45:00 PM 24.64 76.352 0.727 7.83 20.02 8.31
8/6/2022 3:00:00 PM 24.77 76.586 0.724 7.85 19.57 8.34
8/6/2022 3:15:00 PM 24.99 76.982 0.725 7.87 19.55 8.54
8/6/2022 3:30:00 PM 25.25 77.45 0.719 7.9 19.44 9.13
8/6/2022 3:45:00 PM 25.46 77.828 0.715 7.92 19.36 9.06
8/6/2022 4:00:00 PM 25.65 78.17 0.71 7.93 19.62 9.26
8/6/2022 4:15:00 PM 25.78 78.404 0.708 7.94 19.48 9.46
8/6/2022 4:30:00 PM 25.9 78.62 0.706 7.95 19.55 9.47
8/6/2022 4:45:00 PM 25.98 78.764 0.703 7.94 19.58 9.37
8/6/2022 5:00:00 PM 26.05 78.89 0.707 7.95 20.42 9.58
8/6/2022 5:15:00 PM 26.09 78.962 0.708 7.95 20.09 9.7
8/6/2022 5:30:00 PM 26.11 78.998 0.712 7.95 20.43 9.73
8/6/2022 5:45:00 PM 26.11 78.998 0.714 7.95 20.5 9.72
8/6/2022 6:00:00 PM 26.1 78.98 0.715 7.93 20.48 9.4
8/6/2022 6:15:00 PM 26.07 78.926 0.717 7.92 20.43 9.54
8/6/2022 6:30:00 PM 26.04 78.872 0.718 7.91 20.43 9.36
8/6/2022 6:45:00 PM 25.99 78.782 0.718 7.91 21.19 9.23
8/6/2022 7:00:00 PM 25.93 78.674 0.72 7.87 21.36 8.95
8/6/2022 7:15:00 PM 25.86 78.548 0.722 7.87 21.49 8.18
8/6/2022 7:30:00 PM 25.8 78.44 0.728 7.85 21 8.18
8/6/2022 7:45:00 PM 25.74 78.332 0.725 7.8 21.44 7.76
8/6/2022 8:00:00 PM 25.68 78.224 0.726 7.77 21.07 7.23
8/6/2022 8:15:00 PM 25.61 78.098 0.728 7.77 21.14 7.58
8/6/2022 8:30:00 PM 25.55 77.99 0.726 7.75 21.49 6.85
8/6/2022 8:45:00 PM 25.49 77.882 0.733 7.74 21.56 6.33
8/6/2022 9:00:00 PM 25.43 77.774 0.731 7.76 21.44 7.07
8/6/2022 9:15:00 PM 25.38 77.684 0.728 7.75 20.3 6.67
8/6/2022 9:30:00 PM 25.33 77.594 0.728 7.69 20.33 6.71
8/6/2022 9:45:00 PM 25.28 77.504 0.73 7.68 20.17 6.52
8/6/2022 10:00:00 PM 25.23 77.414 0.729 7.64 20.24 6.1
8/6/2022 10:15:00 PM 25.19 77.342 0.725 7.62 25.19 6.51
8/6/2022 10:30:00 PM 25.14 77.252 0.73 7.62 33.49 5.94
8/6/2022 10:45:00 PM 25.1 77.18 0.732 7.65 20.44 5.56
8/6/2022 11:00:00 PM 25.06 77.108 0.732 7.64 20.71 5.92
8/6/2022 11:15:00 PM 25.03 77.054 0.73 7.62 20.54 5.35
8/6/2022 11:30:00 PM 24.99 76.982 0.736 7.61 20.63 5.51
8/6/2022 11:45:00 PM 24.96 76.92799 0.733 7.58 20.36 5.71
8/7/2022 12:00:00 AM 24.93 76.874 0.734 7.55 21.07 5.14
8/7/2022 12:15:00 AM 24.9 76.82 0.725 7.58 20.61 5.67
8/7/2022 12:30:00 AM 24.87 76.766 0.732 7.56 21.77 5.43
8/7/2022 12:45:00 AM 24.84 76.712 0.733 7.55 22.4 5.29
8/7/2022 1:00:00 AM 24.81 76.658 0.729 7.52 22.51 5.55
8/7/2022 1:15:00 AM 24.78 76.604 0.726 7.52 21.11 5.52
8/7/2022 1:30:00 AM 24.74 76.532 0.72 7.54 21.84 5.34
8/7/2022 1:45:00 AM 24.71 76.478 0.728 7.55 21.56 5.27
8/7/2022 2:00:00 AM 24.66 76.388 0.734 7.57 21.88 4.9
8/7/2022 2:15:00 AM 24.62 76.316 0.734 7.58 21.72 4.9
8/7/2022 2:30:00 AM 24.57 76.226 0.734 7.57 22.15 5.09
8/7/2022 2:45:00 AM 24.52 76.136 0.734 7.56 25.49 4.95
8/7/2022 3:00:00 AM 24.46 76.028 0.734 7.55 21.87 4.89
8/7/2022 3:15:00 AM 24.41 75.938 0.745 7.53 22.28 4.73
8/7/2022 3:30:00 AM 24.36 75.848 0.747 7.55 22.86 4.74
8/7/2022 3:45:00 AM 24.3 75.74 0.749 7.55 22.07 4.67
8/7/2022 4:00:00 AM 24.24 75.632 0.749 7.54 23.01 4.57
8/7/2022 4:15:00 AM 24.19 75.542 0.748 7.53 23.05 4.36
8/7/2022 4:30:00 AM 24.13 75.434 0.747 7.53 21.51 4.43
8/7/2022 4:45:00 AM 24.08 75.344 0.746 7.52 23.06 4.38
8/7/2022 5:00:00 AM 24.02 75.236 0.752 7.52 22.31 4.14
8/7/2022 5:15:00 AM 23.96 75.128 0.752 7.51 25.45 3.75
8/7/2022 5:30:00 AM 23.9 75.02 0.75 7.51 22.53 3.9
8/7/2022 5:45:00 AM 23.84 74.912 0.752 7.5 22.19 3.96
8/7/2022 6:00:00 AM 23.78 74.804 0.752 7.5 22.37 3.94
8/7/2022 6:15:00 AM 23.73 74.714 0.749 7.5 23.01 3.73
8/7/2022 6:30:00 AM 23.67 74.606 0.748 7.5 22.89 3.85
8/7/2022 6:45:00 AM 23.63 74.534 0.747 7.49 22.73 3.85
8/7/2022 7:00:00 AM 23.58 74.444 0.745 7.49 22.26 3.78
8/7/2022 7:15:00 AM 23.53 74.354 0.744 7.49 22.42 3.82
8/7/2022 7:30:00 AM 23.49 74.282 0.745 7.49 22.68 3.81
8/7/2022 7:45:00 AM 23.44 74.192 0.746 7.46 22.26 3.8
8/7/2022 8:00:00 AM 23.39 74.102 0.745 7.45 22.1 3.73
8/7/2022 8:15:00 AM 23.35 74.03 0.743 7.45 22.3 3.77
8/7/2022 8:30:00 AM 23.32 73.976 0.745 7.45 22.33 3.78
8/7/2022 8:45:00 AM 23.29 73.922 0.746 7.42 22.08 3.89
8/7/2022 9:00:00 AM 23.27 73.886 0.746 7.43 21.93 3.89
8/7/2022 9:15:00 AM 23.26 73.868 0.745 7.44 22 3.96
8/7/2022 9:30:00 AM 23.26 73.868 0.742 7.44 25.87 4.18
8/7/2022 9:45:00 AM 23.27 73.886 0.74 7.44 21.84 4.25
8/7/2022 10:00:00 AM 23.29 73.922 0.739 7.44 22.57 4.47
8/7/2022 10:15:00 AM 23.31 73.958 0.736 7.51 21.55 4.29
8/7/2022 10:30:00 AM 23.35 74.03 0.732 7.52 23.19 4.46
8/7/2022 10:45:00 AM 23.4 74.12 0.729 7.54 20.65 4.48
8/7/2022 11:00:00 AM 23.47 74.246 0.728 7.57 21.27 4.7
8/7/2022 11:15:00 AM 23.58 74.444 0.726 7.59 20.24 5.07
8/7/2022 11:30:00 AM 23.7 74.66 0.723 7.61 20.29 5.15
8/7/2022 11:45:00 AM 23.82 74.876 0.719 7.63 20.55 5.59
8/7/2022 12:00:00 PM 23.94 75.092 0.716 7.64 20.23 5.88
8/7/2022 12:15:00 PM 24.09 75.362 0.713 7.67 20.35 5.96
8/7/2022 12:30:00 PM 24.24 75.632 0.708 7.69 20.16 6.64
8/7/2022 12:45:00 PM 24.36 75.848 0.708 7.7 20.22 6.73
8/7/2022 1:00:00 PM 24.5 76.1 0.705 7.71 19.99 6.84
8/7/2022 1:15:00 PM 24.66 76.388 0.706 7.73 20.16 7.06
8/7/2022 1:30:00 PM 24.85 76.73 0.704 7.75 20.35 7.13
8/7/2022 1:45:00 PM 25.03 77.054 0.704 7.77 20.46 7.46
8/7/2022 2:00:00 PM 25.23 77.414 0.701 7.79 21.03 7.65
8/7/2022 2:15:00 PM 25.41 77.738 0.699 7.81 20.74 7.72
8/7/2022 2:30:00 PM 25.57 78.026 0.698 7.82 20.82 7.99
8/7/2022 2:45:00 PM 25.67 78.206 0.699 7.83 20.96 8.22
8/7/2022 3:00:00 PM 25.79 78.422 0.699 7.84 21.23 8.17
8/7/2022 3:15:00 PM 25.92 78.656 0.697 7.85 20.98 8.08
8/7/2022 3:30:00 PM 26.08 78.944 0.694 7.84 21.06 8.38
8/7/2022 3:45:00 PM 26.24 79.232 0.691 7.87 21.71 8.66
8/7/2022 4:00:00 PM 26.36 79.448 0.689 7.87 22.25 8.78
8/7/2022 4:15:00 PM 26.45 79.61 0.691 7.87 22.25 8.9
8/7/2022 4:30:00 PM 26.5 79.7 0.693 7.88 22.33 9.08
8/7/2022 4:45:00 PM 26.54 79.772 0.692 7.88 22.13 9.1
8/7/2022 5:00:00 PM 26.56 79.808 0.693 7.87 22.47 9.26
8/7/2022 5:15:00 PM 26.59 79.862 0.693 7.88 22.84 9.04
8/7/2022 5:30:00 PM 26.61 79.898 0.692 7.88 23.51 9.32
8/7/2022 5:45:00 PM 26.62 79.916 0.692 7.87 23.77 9.5
8/7/2022 6:00:00 PM 26.62 79.916 0.691 7.88 23.96 9.41
8/7/2022 6:15:00 PM 26.6 79.88 0.69 7.9 23.75 9.38
8/7/2022 6:30:00 PM 26.56 79.808 0.69 7.9 23.71 9.3
8/7/2022 6:45:00 PM 26.5 79.7 0.691 7.88 24.35 9.12
8/7/2022 7:00:00 PM 26.46 79.628 0.691 7.87 24.74 8.89
8/7/2022 7:15:00 PM 26.4 79.52 0.693 7.83 24.79 8.5
8/7/2022 7:30:00 PM 26.34 79.412 0.692 7.83 24.98 8.49
8/7/2022 7:45:00 PM 26.28 79.304 0.691 7.8 26.17 8.25
8/7/2022 8:00:00 PM 26.22 79.196 0.691 7.75 26.19 8.04
8/7/2022 8:15:00 PM 26.15 79.07 0.688 7.73 26.47 7.57
8/7/2022 8:30:00 PM 26.08 78.944 0.687 7.75 26.46 7.37
8/7/2022 8:45:00 PM 26.01 78.818 0.692 7.73 48.41 7.03
8/7/2022 9:00:00 PM 25.95 78.71 0.691 7.69 25.67 7.21
8/7/2022 9:15:00 PM 25.89 78.602 0.696 7.7 24.74 6.94
8/7/2022 9:30:00 PM 25.83 78.494 0.717 7.69 27.45 6.87
8/7/2022 9:45:00 PM 25.78 78.404 0.711 7.69 27.02 6.88
8/7/2022 10:00:00 PM 25.73 78.314 0.713 7.63 29.12 6.42
8/7/2022 10:15:00 PM 25.68 78.224 0.702 7.64 36.17 6.39
8/7/2022 10:30:00 PM 25.63 78.134 0.7 7.62 33.19 6.15
8/7/2022 10:45:00 PM 25.58 78.044 0.705 7.58 32.23 6.09
8/7/2022 11:00:00 PM 25.54 77.972 0.699 7.64 31.46 6.05
8/7/2022 11:15:00 PM 25.5 77.9 0.706 7.62 32.42 5.85
8/7/2022 11:30:00 PM 25.45 77.81 0.7 7.59 33.21 5.86
8/7/2022 11:45:00 PM 25.41 77.738 0.688 7.54 34.09 5.79
8/8/2022 12:00:00 AM 25.37 77.666 0.701 7.56 34.7 5.03
8/8/2022 12:15:00 AM 25.32 77.576 0.703 7.58 33.18 5.12
8/8/2022 12:30:00 AM 25.28 77.504 0.7 7.57 33.5 5.69
8/8/2022 12:45:00 AM 25.23 77.414 0.699 7.52 33.37 5.55
8/8/2022 1:00:00 AM 25.19 77.342 0.705 7.44 32.87 5.44
8/8/2022 1:15:00 AM 25.14 77.252 0.703 7.52 32.33 5.32
8/8/2022 1:30:00 AM 25.1 77.18 0.697 7.57 33.35 5.15
8/8/2022 1:45:00 AM 25.05 77.09 0.695 7.56 32.91 5.14
8/8/2022 2:00:00 AM 25.01 77.018 0.703 7.51 32.84 5.09
8/8/2022 2:15:00 AM 24.96 76.92799 0.698 7.53 30.83 4.88
8/8/2022 2:30:00 AM 24.91 76.838 0.664 7.56 31.02 4.88
8/8/2022 2:45:00 AM 24.87 76.766 0.708 7.55 30.77 4.59
8/8/2022 3:00:00 AM 24.82 76.676 0.707 7.56 30.66 4.59
8/8/2022 3:15:00 AM 24.78 76.604 0.705 7.56 186.15 4.11
8/8/2022 3:30:00 AM 24.74 76.532 0.701 7.55 30.18 4.41
8/8/2022 3:45:00 AM 24.69 76.442 0.709 7.55 30.85 4.34
8/8/2022 4:00:00 AM 24.64 76.352 0.705 7.54 30.55 4.31
8/8/2022 4:15:00 AM 24.59 76.262 0.701 7.54 30.62 4.39
8/8/2022 4:30:00 AM 24.54 76.172 0.7 7.54 29.65 4.19
8/8/2022 4:45:00 AM 24.49 76.082 0.668 7.53 31.19 3.61
8/8/2022 5:00:00 AM 24.43 75.974 0.704 7.53 31.75 3.81
8/8/2022 5:15:00 AM 24.37 75.866 0.706 7.53 30.81 3.46
8/8/2022 5:30:00 AM 24.31 75.758 0.697 7.53 30.82 3.1
8/8/2022 5:45:00 AM 24.25 75.65 0.688 7.51 946.14 1.95
8/8/2022 6:00:00 AM 24.19 75.542 0.702 7.52 31.67 3.1
8/8/2022 6:15:00 AM 24.13 75.434 0.712 7.51 32.04 2.92
8/8/2022 6:30:00 AM 24.07 75.326 0.705 7.51 30.92 3.04
8/8/2022 6:45:00 AM 24 75.2 0.713 7.5 30.26 1.63
8/8/2022 7:00:00 AM 23.94 75.092 0.716 7.49 29.78 1.62
8/8/2022 7:15:00 AM 23.89 75.002 0.719 7.49 30.13 1.92
8/8/2022 7:30:00 AM 23.83 74.894 0.714 7.48 28.8 1.61
8/8/2022 7:45:00 AM 23.78 74.804 0.717 7.49 29.44 1.89
8/8/2022 8:00:00 AM 23.72 74.696 0.721 7.49 29.07 3.16
8/8/2022 8:15:00 AM 23.67 74.606 0.72 7.51 28.68 3.26
8/8/2022 8:30:00 AM 23.62 74.516 0.717 7.51 29.28 3.48
8/8/2022 8:45:00 AM 23.58 74.444 0.717 7.51 29.21 2.73
8/8/2022 9:00:00 AM 23.55 74.39 0.713 7.51 28.98 2.1
8/8/2022 9:15:00 AM 23.52 74.336 0.709 7.51 29.27 2.45
8/8/2022 9:30:00 AM 23.51 74.318 0.705 7.48 35.91 2.99
8/8/2022 9:45:00 AM 23.5 74.3 0.697 7.48 43.26 3.11
8/8/2022 10:00:00 AM 23.5 74.3 0.695 7.5 29.38 4.13
8/8/2022 10:15:00 AM 23.52 74.336 0.699 7.48 34.12 4.03
8/8/2022 10:30:00 AM 23.55 74.39 0.704 7.51 31.3 3.34
8/8/2022 10:45:00 AM 23.61 74.498 0.703 7.55 29.06 3.97
8/8/2022 11:00:00 AM 23.67 74.606 0.697 7.58 28.96 3.7
8/8/2022 11:15:00 AM 23.75 74.75 0.691 7.59 30.81 3.76
8/8/2022 11:30:00 AM 23.85 74.93 0.69 7.62 28.7 3.7
8/8/2022 11:45:00 AM 24 75.2 0.686 7.64 28.89 4.39
8/8/2022 12:00:00 PM 24.15 75.47 0.684 7.66 28.99 4.49
8/8/2022 12:15:00 PM 24.31 75.758 0.689 7.68 29.18 4.85
8/8/2022 12:30:00 PM 24.51 76.118 0.681 7.7 27.94 5.23
8/8/2022 12:45:00 PM 24.7 76.46 0.684 7.71 28.13 5.48
8/8/2022 1:00:00 PM 24.86 76.748 0.68 7.74 28.33 5.58
8/8/2022 1:15:00 PM 25.02 77.036 0.681 7.75 28.19 5.86
8/8/2022 1:30:00 PM 25.17 77.306 0.676 7.76 28.1 6.2
8/8/2022 1:45:00 PM 25.37 77.666 0.675 7.78 28.06 6.43
8/8/2022 2:00:00 PM 25.55 77.99 0.636 7.79 35.91 7.2
8/8/2022 2:15:00 PM 25.72 78.296 0.671 7.82 28.31 7.88
8/8/2022 2:30:00 PM 25.8 78.44 0.67 7.82 26.99 8.55
8/8/2022 2:45:00 PM 25.84 78.512 0.669 7.82 25.83 8.44
8/8/2022 3:00:00 PM 25.84 78.512 0.643 7.82 25.78 8.77
8/8/2022 3:15:00 PM 25.82 78.476 0.671 7.84 25.62 8.73
8/8/2022 3:30:00 PM 25.79 78.422 0.672 7.81 26.02 8.73
8/8/2022 3:45:00 PM 25.78 78.404 0.681 7.8 30.45 8.66
8/8/2022 4:00:00 PM 25.77 78.386 0.677 7.81 25.95 8.81
8/8/2022 4:15:00 PM 25.77 78.386 0.68 7.81 25.35 8.86
8/8/2022 4:30:00 PM 25.78 78.404 0.676 7.84 25.78 8.9
8/8/2022 4:45:00 PM 25.8 78.44 0.681 7.85 25.69 8.96
8/8/2022 5:00:00 PM 25.83 78.494 0.677 7.85 25.27 8.7
8/8/2022 5:15:00 PM 25.85 78.53 0.684 7.88 25.39 9.04
8/8/2022 5:30:00 PM 25.87 78.566 0.686 7.87 25.56 9.17
8/8/2022 5:45:00 PM 25.9 78.62 0.685 7.87 25.54 9.14
8/8/2022 6:00:00 PM 25.92 78.656 0.683 7.87 25.67 9.11
8/8/2022 6:15:00 PM 25.93 78.674 0.681 7.88 25.47 9.15
8/8/2022 6:30:00 PM 25.93 78.674 0.678 7.88 25.29 9
8/8/2022 6:45:00 PM 25.92 78.656 0.678 7.87 24.97 9.02
8/8/2022 7:00:00 PM 25.9 78.62 0.679 7.86 25.02 8.86
8/8/2022 7:15:00 PM 25.87 78.566 0.679 7.85 27.12 8.57
8/8/2022 7:30:00 PM 25.84 78.512 0.676 7.86 24.7 7.02
8/8/2022 7:45:00 PM 25.8 78.44 0.675 7.86 25.41 7.26
8/8/2022 8:00:00 PM 25.76 78.368 0.674 7.84 25.89 8
8/8/2022 8:15:00 PM 25.7 78.26 0.673 7.84 25.58 7.9
8/8/2022 8:30:00 PM 25.64 78.152 0.673 7.81 26.33 7.53
8/8/2022 8:45:00 PM 25.57 78.026 0.673 7.8 27.6 7.43
8/8/2022 9:00:00 PM 25.52 77.936 0.667 7.79 42.49 7.23
8/8/2022 9:15:00 PM 25.46 77.828 0.671 7.79 29.89 7.13
8/8/2022 9:30:00 PM 25.4 77.72 0.669 7.77 27.43 7.07
8/8/2022 9:45:00 PM 25.35 77.63 0.672 7.76 28.3 6.87
8/8/2022 10:00:00 PM 25.29 77.522 0.672 7.75 28.07 6.81
8/8/2022 10:15:00 PM 25.24 77.432 0.678 7.74 27.68 6.42
8/8/2022 10:30:00 PM 25.19 77.342 0.681 7.73 27.74 6.48
8/8/2022 10:45:00 PM 25.14 77.252 0.676 7.72 28.05 6.48
8/8/2022 11:00:00 PM 25.1 77.18 0.673 7.72 28.64 6.4
8/8/2022 11:15:00 PM 25.06 77.108 0.673 7.69 28.23 6.25
8/8/2022 11:30:00 PM 25.02 77.036 0.674 7.67 31.78 5.95
8/8/2022 11:45:00 PM 24.99 76.982 0.68 7.68 28.51 5.71
8/9/2022 12:00:00 AM 24.96 76.92799 0.683 7.66 28.13 5.64
8/9/2022 12:15:00 AM 24.93 76.874 0.691 7.64 34.47 4.91
8/9/2022 12:30:00 AM 24.9 76.82 0.688 7.64 31.56 5.54
8/9/2022 12:45:00 AM 24.88 76.784 0.681 7.65 34.12 5.33
8/9/2022 1:00:00 AM 24.86 76.748 0.677 7.64 30.93 5.09
8/9/2022 1:15:00 AM 24.83 76.694 0.675 7.55 30.54 4.89
8/9/2022 1:30:00 AM 24.81 76.658 0.677 7.62 32.16 4.92
8/9/2022 1:45:00 AM 24.79 76.622 0.677 7.59 31.02 5.37
8/9/2022 2:00:00 AM 24.76 76.568 0.678 7.54 30.96 5.29
8/9/2022 2:15:00 AM 24.74 76.532 0.681 7.51 33.29 4.86
8/9/2022 2:30:00 AM 24.72 76.496 0.68 7.53 36.55 4.72
8/9/2022 2:45:00 AM 24.69 76.442 0.682 7.58 34.32 4.71
8/9/2022 3:00:00 AM 24.66 76.388 0.683 7.59 33.44 4.92
8/9/2022 3:15:00 AM 24.63 76.334 0.681 7.58 33.02 4.78
8/9/2022 3:30:00 AM 24.6 76.28 0.681 7.58 32.91 3.94
8/9/2022 3:45:00 AM 24.56 76.208 0.68 7.56 33.11 3.75
8/9/2022 4:00:00 AM 24.52 76.136 0.681 7.56 32.14 3.74
8/9/2022 4:15:00 AM 24.48 76.064 0.684 7.58 32.53 3.93
8/9/2022 4:30:00 AM 24.43 75.974 0.686 7.54 32.21 3.56
8/9/2022 4:45:00 AM 24.39 75.902 0.688 7.53 32.16 3.31
8/9/2022 5:00:00 AM 24.35 75.83 0.689 7.55 32.26 2.91
8/9/2022 5:15:00 AM 24.31 75.758 0.694 7.53 33.07 2.95
8/9/2022 5:30:00 AM 24.26 75.668 0.694 7.55 32.78 3.76
8/9/2022 5:45:00 AM 24.22 75.596 0.695 7.55 32.55 3.69
8/9/2022 6:00:00 AM 24.17 75.506 0.694 7.55 33.39 3.16
8/9/2022 6:15:00 AM 24.13 75.434 0.695 7.55 35.31 3.08
8/9/2022 6:30:00 AM 24.08 75.344 0.696 7.54 34.58 2.61
8/9/2022 6:45:00 AM 24.04 75.272 0.695 7.54 35.05 3.17
8/9/2022 7:00:00 AM 24 75.2 0.694 7.55 35.12 3.15
8/9/2022 7:15:00 AM 23.96 75.128 0.696 7.54 35.14 3.03
8/9/2022 7:30:00 AM 23.92 75.056 0.695 7.55 35.08 2.89
8/9/2022 7:45:00 AM 23.89 75.002 0.696 7.53 35.43 2.95
8/9/2022 8:00:00 AM 23.86 74.948 0.694 7.52 34.67 2.61
8/9/2022 8:15:00 AM 23.83 74.894 0.698 7.5 35.82 3.2
8/9/2022 8:30:00 AM 23.82 74.876 0.697 7.5 37.54 3.08
8/9/2022 8:45:00 AM 23.81 74.858 0.696 7.49 35.59 3.75
8/9/2022 9:00:00 AM 23.79 74.82201 0.694 7.54 35.54 3.92
8/9/2022 9:15:00 AM 23.76 74.768 0.695 7.56 36.5 3.99
8/9/2022 9:30:00 AM 23.74 74.732 0.693 7.56 35.04 4.09
8/9/2022 9:45:00 AM 23.72 74.696 0.69 7.56 38.72 4.09
8/9/2022 10:00:00 AM 23.7 74.66 0.692 7.51 36.57 4.28
8/9/2022 10:15:00 AM 23.69 74.642 0.69 7.55 34.86 4.24
8/9/2022 10:30:00 AM 23.68 74.624 0.692 7.56 34.79 4.6
8/9/2022 10:45:00 AM 23.67 74.606 0.69 7.55 34.93 4.77
8/9/2022 11:00:00 AM 23.69 74.642 0.688 7.57 34.63 4.19
8/9/2022 11:15:00 AM 23.74 74.732 0.686 7.62 34.25 3.97
8/9/2022 11:30:00 AM 23.81 74.858 0.684 7.62 36.14 4.84
8/9/2022 11:45:00 AM 23.87 74.966 0.683 7.65 35.86 4.82
8/9/2022 12:00:00 PM 23.94 75.092 0.683 7.66 35.88 5.7
8/9/2022 12:15:00 PM 23.98 75.164 0.682 7.66 35.64 4.99
8/9/2022 12:30:00 PM 24.06 75.308 0.68 7.7 36.92 5.24
8/9/2022 12:45:00 PM 24.13 75.434 0.679 7.69 35.59 5.97
8/9/2022 1:00:00 PM 24.2 75.56 0.676 7.72 35.74 5.69
8/9/2022 1:15:00 PM 24.29 75.722 0.674 7.72 35.46 5.69
8/9/2022 1:30:00 PM 24.43 75.974 0.671 7.76 35.14 5.19
8/9/2022 1:45:00 PM 24.61 76.298 0.683 7.79 35.17 6.32
8/9/2022 2:00:00 PM 24.79 76.622 0.671 7.82 35.04 6.08
8/9/2022 2:15:00 PM 25.02 77.036 0.672 7.84 35.06 6.72
8/9/2022 2:30:00 PM 25.26 77.468 0.678 7.86 34.8 6.93
8/9/2022 2:45:00 PM 25.5 77.9 0.681 7.86 34.46 7.64
8/9/2022 3:00:00 PM 25.71 78.278 0.68 7.88 35.54 7.5
8/9/2022 3:15:00 PM 25.89 78.602 0.678 7.88 34.5 8.23
8/9/2022 3:30:00 PM 26.02 78.836 0.685 7.87 35.31 8.19
8/9/2022 3:45:00 PM 26.14 79.052 0.681 7.87 35.23 8.23
8/9/2022 4:00:00 PM 26.24 79.232 0.686 7.9 33.38 8.36
8/9/2022 4:15:00 PM 26.33 79.394 0.688 7.92 35.57 8.82
8/9/2022 4:30:00 PM 26.39 79.502 0.695 7.91 35.26 8.98
8/9/2022 4:45:00 PM 26.42 79.556 0.694 7.93 35.81 9.56
8/9/2022 5:00:00 PM 26.41 79.538 0.702 7.94 36.09 9.63
8/9/2022 5:15:00 PM 26.38 79.484 0.689 7.93 35.42 9.52
8/9/2022 5:30:00 PM 26.37 79.466 0.681 7.93 35.33 9.55
8/9/2022 5:45:00 PM 26.34 79.412 0.68 7.93 35.29 9.52
8/9/2022 6:00:00 PM 26.29 79.32201 0.681 7.93 34.92 9.42
8/9/2022 6:15:00 PM 26.22 79.196 0.693 7.92 34.9 9.3
8/9/2022 6:30:00 PM 26.14 79.052 0.697 7.81 34.91 9.15
8/9/2022 6:45:00 PM 26.05 78.89 0.701 7.91 35.2 9
8/9/2022 7:00:00 PM 25.96 78.728 0.702 7.92 34.81 8.83
8/9/2022 7:15:00 PM 25.86 78.548 0.706 7.9 34.57 8.66
8/9/2022 7:30:00 PM 25.77 78.386 0.702 7.9 34.53 8.49
8/9/2022 7:45:00 PM 25.69 78.242 0.697 7.89 34.34 8.37
8/9/2022 8:00:00 PM 25.6 78.08 0.695 7.87 34.45 8.18
8/9/2022 8:15:00 PM 25.5 77.9 0.691 7.81 34.31 8.03
8/9/2022 8:30:00 PM 25.41 77.738 0.69 7.83 34.32 7.8
8/9/2022 8:45:00 PM 25.32 77.576 0.689 7.81 34.29 7.27
8/9/2022 9:00:00 PM 25.23 77.414 0.688 7.76 36.49 7.01
8/9/2022 9:15:00 PM 25.15 77.27 0.688 7.76 36.41 6.38
8/9/2022 9:30:00 PM 25.08 77.144 0.686 7.76 36.67 6.8
8/9/2022 9:45:00 PM 25.01 77.018 0.686 7.76 35.95 6.54
8/9/2022 10:00:00 PM 24.94 76.892 0.684 7.72 41.75 6.28
8/9/2022 10:15:00 PM 24.88 76.784 0.682 7.75 37.75 6.37
8/9/2022 10:30:00 PM 24.81 76.658 0.681 7.76 38.35 6.52
8/9/2022 10:45:00 PM 24.75 76.55 0.681 7.68 38.83 6.31
8/9/2022 11:00:00 PM 24.69 76.442 0.682 7.67 39.68 5.93
8/9/2022 11:15:00 PM 24.63 76.334 0.683 7.67 39.9 6.1
8/9/2022 11:30:00 PM 24.57 76.226 0.683 7.68 40.32 6.13
8/9/2022 11:45:00 PM 24.51 76.118 0.683 7.68 39.37 5.47
8/10/2022 12:00:00 AM 24.45 76.01 0.681 7.67 39.15 5.53
8/10/2022 12:15:00 AM 24.39 75.902 0.68 7.69 39.58 5.32
8/10/2022 12:30:00 AM 24.33 75.794 0.679 7.66 38.89 4.43
8/10/2022 12:45:00 AM 24.27 75.686 0.678 7.67 41.08 5.34
8/10/2022 1:00:00 AM 24.21 75.578 0.677 7.67 39.33 5.61
8/10/2022 1:15:00 AM 24.16 75.488 0.677 7.67 39.46 5.55
8/10/2022 1:30:00 AM 24.1 75.38 0.678 7.66 39.33 5.43
8/10/2022 1:45:00 AM 24.05 75.29 0.677 7.66 39.47 5.4
8/10/2022 2:00:00 AM 23.99 75.182 0.676 7.65 38.85 5.22
8/10/2022 2:15:00 AM 23.94 75.092 0.675 7.65 39.19 5.03
8/10/2022 2:30:00 AM 23.89 75.002 0.679 7.64 39.18 5.28
8/10/2022 2:45:00 AM 23.84 74.912 0.683 7.63 38.95 5.21
8/10/2022 3:00:00 AM 23.79 74.82201 0.684 7.61 39.06 5.06
8/10/2022 3:15:00 AM 23.73 74.714 0.688 7.62 39.62 4.99
8/10/2022 3:30:00 AM 23.68 74.624 0.688 7.6 39.38 4.62
8/10/2022 3:45:00 AM 23.64 74.552 0.686 7.6 39.52 4.42
8/10/2022 4:00:00 AM 23.58 74.444 0.684 7.61 39.99 3.73
8/10/2022 4:15:00 AM 23.53 74.354 0.683 7.61 45.01 3.05
8/10/2022 4:30:00 AM 23.47 74.246 0.682 7.6 39.98 3.64
8/10/2022 4:45:00 AM 23.41 74.138 0.682 7.59 41.52 3.18
8/10/2022 5:00:00 AM 23.34 74.012 0.681 7.58 42.72 3.5
8/10/2022 5:15:00 AM 23.27 73.886 0.679 7.57 40.34 3.96
8/10/2022 5:30:00 AM 23.21 73.778 0.678 7.56 39.42 4.16
8/10/2022 5:45:00 AM 23.14 73.652 0.677 7.57 42.85 3.89
8/10/2022 6:00:00 AM 23.07 73.526 0.68 7.57 40.51 3.43
8/10/2022 6:15:00 AM 23 73.4 0.679 7.56 38.11 4.06
8/10/2022 6:30:00 AM 22.94 73.292 0.678 7.55 40.14 3.83
8/10/2022 6:45:00 AM 22.86 73.148 0.679 7.55 39.86 3.19
8/10/2022 7:00:00 AM 22.79 73.022 0.679 7.56 42.65 3.34
8/10/2022 7:15:00 AM 22.72 72.896 0.679 7.5 40.28 3.84
8/10/2022 7:30:00 AM 22.65 72.77 0.679 7.45 40.15 3.94
8/10/2022 7:45:00 AM 22.57 72.626 0.683 7.39 39.81 3.82
8/10/2022 8:00:00 AM 22.51 72.518 0.688 7.49 39.72 3.97
8/10/2022 8:15:00 AM 22.47 72.446 0.687 7.46 39.67 4.1
8/10/2022 8:30:00 AM 22.43 72.374 0.688 7.42 39.34 4.29
8/10/2022 8:45:00 AM 22.4 72.32 0.688 7.4 39.28 4.3
8/10/2022 9:00:00 AM 22.37 72.266 0.689 7.5 39.89 4.56
8/10/2022 9:15:00 AM 22.35 72.23 0.69 7.56 39.23 4.61
8/10/2022 9:30:00 AM 22.33 72.194 0.691 7.56 39.28 4.55
8/10/2022 9:45:00 AM 22.33 72.194 0.691 7.55 39.41 4.89
8/10/2022 10:00:00 AM 22.3 72.14 0.693 7.57 39.9 4.91
8/10/2022 10:15:00 AM 22.28 72.104 0.692 7.56 40.42 4.9
8/10/2022 10:30:00 AM 22.28 72.104 0.693 7.54 39.89 5.18
8/10/2022 10:45:00 AM 22.28 72.104 0.693 7.51 39.51 5.09
8/10/2022 11:00:00 AM 22.3 72.14 0.692 7.52 41.42 5.27
8/10/2022 11:15:00 AM 22.33 72.194 0.693 7.48 40.89 5.32
8/10/2022 11:30:00 AM 22.35 72.23 0.693 7.49 40.83 5.82
8/10/2022 11:45:00 AM 22.38 72.284 0.693 7.5 39.22 5.03
8/10/2022 12:00:00 PM 22.42 72.356 0.691 7.55 39.24 6.07
8/10/2022 12:15:00 PM 22.47 72.446 0.69 7.57 51.4 6.22
8/10/2022 12:30:00 PM 22.51 72.518 0.689 7.59 40.15 6.56
8/10/2022 12:45:00 PM 22.55 72.59 0.69 7.6 38.85 6.77
8/10/2022 1:00:00 PM 22.59 72.662 0.689 7.63 40.78 6.39
8/10/2022 1:15:00 PM 22.64 72.752 0.69 7.66 40.26 7.23
8/10/2022 1:30:00 PM 22.7 72.86 0.69 7.7 39.08 6.07
8/10/2022 1:45:00 PM 22.79 73.022 0.689 7.74 39.2 5.55
8/10/2022 2:00:00 PM 22.88 73.184 0.687 7.77 38.39 5.73
8/10/2022 2:15:00 PM 23 73.4 0.686 7.8 38.23 5.54
8/10/2022 2:30:00 PM 23.13 73.634 0.684 7.81 39.56 5.95
8/10/2022 2:45:00 PM 23.25 73.85 0.683 7.82 38.64 6.65
8/10/2022 3:00:00 PM 23.39 74.102 0.683 7.85 37.85 6.19
8/10/2022 3:15:00 PM 23.52 74.336 0.685 7.87 38.17 6.58
8/10/2022 3:30:00 PM 23.66 74.588 0.684 7.87 37.95 6.41
8/10/2022 3:45:00 PM 23.79 74.82201 0.683 7.87 37.87 7.4
8/10/2022 4:00:00 PM 23.91 75.038 0.683 7.87 38.39 7.95
8/10/2022 4:15:00 PM 24.02 75.236 0.68 7.88 37.77 8.32
8/10/2022 4:30:00 PM 24.12 75.416 0.677 7.89 38.08 8.6
8/10/2022 4:45:00 PM 24.19 75.542 0.679 7.91 37.79 8.77
8/10/2022 5:00:00 PM 24.23 75.614 0.68 7.89 37.4 9.88
8/10/2022 5:15:00 PM 24.26 75.668 0.679 7.9 38.21 9.93
8/10/2022 5:30:00 PM 24.27 75.686 0.678 7.9 38.37 9.88
8/10/2022 5:45:00 PM 24.26 75.668 0.678 7.9 37.41 9.8
8/10/2022 6:00:00 PM 24.25 75.65 0.678 7.9 37.82 9.59
8/10/2022 6:15:00 PM 24.22 75.596 0.677 7.88 38.62 9.47
8/10/2022 6:30:00 PM 24.18 75.524 0.678 7.84 39.32 9.36
8/10/2022 6:45:00 PM 24.15 75.47 0.679 7.78 38.53 9.19
8/10/2022 7:00:00 PM 24.1 75.38 0.678 7.85 37.95 9.04
8/10/2022 7:15:00 PM 24.05 75.29 0.676 7.82 38.16 8.88
8/10/2022 7:30:00 PM 24.01 75.218 0.675 7.78 37.95 8.83
8/10/2022 7:45:00 PM 23.95 75.11 0.675 7.75 38.12 8.65
8/10/2022 8:00:00 PM 23.89 75.002 0.674 7.8 38.45 8.6
8/10/2022 8:15:00 PM 23.83 74.894 0.675 7.78 38.78 8.35
8/10/2022 8:30:00 PM 23.75 74.75 0.675 7.58 38.65 8.14
8/10/2022 8:45:00 PM 23.68 74.624 0.675 7.68 38.64 7.31
8/10/2022 9:00:00 PM 23.6 74.48 0.676 7.76 38.5 7.57
8/10/2022 9:15:00 PM 23.53 74.354 0.677 7.79 45.01 7.66
8/10/2022 9:30:00 PM 23.46 74.228 0.677 7.76 37.71 7.25
8/10/2022 9:45:00 PM 23.39 74.102 0.677 7.74 38.44 7.27
8/10/2022 10:00:00 PM 23.33 73.994 0.678 7.74 40.39 7.15
8/10/2022 10:15:00 PM 23.27 73.886 0.678 7.74 38.22 6.81
8/10/2022 10:30:00 PM 23.2 73.76 0.679 7.74 41.35 6.86
8/10/2022 10:45:00 PM 23.14 73.652 0.678 7.74 39.31 6.95
8/10/2022 11:00:00 PM 23.08 73.544 0.678 7.72 39.56 6.88
8/10/2022 11:15:00 PM 23.03 73.454 0.679 7.74 39.85 6.91
8/10/2022 11:30:00 PM 22.97 73.346 0.68 7.71 41.65 6.6
8/10/2022 11:45:00 PM 22.92 73.256 0.68 7.71 39.82 6.76
8/11/2022 12:00:00 AM 22.86 73.148 0.68 7.7 40.28 6.66
8/11/2022 12:15:00 AM 22.81 73.058 0.68 7.71 40.34 6.56
8/11/2022 12:30:00 AM 22.76 72.968 0.68 7.71 40.56 6.44
8/11/2022 12:45:00 AM 22.7 72.86 0.681 7.71 40.66 6.3
8/11/2022 1:00:00 AM 22.64 72.752 0.682 7.71 40.69 6.25
8/11/2022 1:15:00 AM 22.58 72.644 0.681 7.7 41.02 6.34
8/11/2022 1:30:00 AM 22.52 72.536 0.683 7.7 41.61 6.33
8/11/2022 1:45:00 AM 22.46 72.42799 0.679 7.69 41.51 6.25
8/11/2022 2:00:00 AM 22.4 72.32 0.684 7.69 41.88 5.64
8/11/2022 2:15:00 AM 22.33 72.194 0.684 7.69 42.18 5.61
8/11/2022 2:30:00 AM 22.27 72.086 0.683 7.68 38.97 5.51
8/11/2022 2:45:00 AM 22.21 71.978 0.684 7.67 42.13 5.47
8/11/2022 3:00:00 AM 22.14 71.852 0.686 7.65 42.18 5.6
8/11/2022 3:15:00 AM 22.07 71.726 0.686 7.63 46.98 5.4
8/11/2022 3:30:00 AM 22.01 71.618 0.686 7.63 43.42 5.28
8/11/2022 3:45:00 AM 21.94 71.492 0.685 7.64 43.35 5.24
8/11/2022 4:00:00 AM 21.86 71.348 0.686 7.63 43.2 5.01
8/11/2022 4:15:00 AM 21.79 71.222 0.685 7.63 42.87 4.96
8/11/2022 4:30:00 AM 21.71 71.078 0.686 7.62 42.97 5.23
8/11/2022 4:45:00 AM 21.64 70.952 0.686 7.63 43.27 5.11
8/11/2022 5:00:00 AM 21.57 70.826 0.687 7.62 43.68 4.95
8/11/2022 5:15:00 AM 21.49 70.682 0.688 7.62 47.02 4.77
8/11/2022 5:30:00 AM 21.41 70.538 0.689 7.6 43.12 4.05
8/11/2022 5:45:00 AM 21.33 70.394 0.688 7.61 45.48 4.59
8/11/2022 6:00:00 AM 21.24 70.232 0.689 7.61 47.03 4.64
8/11/2022 6:15:00 AM 21.16 70.088 0.689 7.61 42.66 4.24
8/11/2022 6:30:00 AM 21.09 69.962 0.688 7.61 42.68 3.9
8/11/2022 6:45:00 AM 21.01 69.818 0.688 7.6 42.47 4.27
8/11/2022 7:00:00 AM 20.94 69.692 0.688 7.6 42.56 4.4
8/11/2022 7:15:00 AM 20.87 69.566 0.688 7.6 42.5 4.63
8/11/2022 7:30:00 AM 20.8 69.44 0.686 7.6 42.28 4.55
8/11/2022 7:45:00 AM 20.74 69.332 0.686 7.6 42.04 4.35
8/11/2022 8:00:00 AM 20.67 69.206 0.686 7.58 42.05 4.45
8/11/2022 8:15:00 AM 20.62 69.116 0.686 7.59 42.63 4.47
8/11/2022 8:30:00 AM 20.56 69.008 0.686 7.59 42.04 4.48
8/11/2022 8:45:00 AM 20.51 68.918 0.687 7.59 42.76 4.33
8/11/2022 9:00:00 AM 20.46 68.828 0.689 7.6 51.8 3.51
8/11/2022 9:15:00 AM 20.43 68.774 0.69 7.6 42.4 3.48
8/11/2022 9:30:00 AM 20.41 68.738 0.69 7.6 41.44 4.01
8/11/2022 9:45:00 AM 20.39 68.702 0.692 7.6 41.23 4.52
8/11/2022 10:00:00 AM 20.38 68.684 0.691 7.61 41.1 4.46
8/11/2022 10:15:00 AM 20.38 68.684 0.691 7.58 41.02 4.16
8/11/2022 10:30:00 AM 20.41 68.738 0.69 7.5 40.72 4.42
8/11/2022 10:45:00 AM 20.45 68.81 0.688 7.49 41.09 5.03
8/11/2022 11:00:00 AM 20.49 68.882 0.686 7.5 41.78 5
8/11/2022 11:15:00 AM 20.57 69.026 0.684 7.61 41.16 3.94
8/11/2022 11:30:00 AM 20.69 69.242 0.683 7.66 41.22 2.45
8/11/2022 11:45:00 AM 20.82 69.476 0.681 7.69 41.19 3.85
8/11/2022 12:00:00 PM 20.96 69.728 0.68 7.71 40.88 4.89
8/11/2022 12:15:00 PM 21.11 69.998 0.68 7.73 41.08 3.78
8/11/2022 12:30:00 PM 21.27 70.286 0.677 7.74 41.18 3.23
8/11/2022 12:45:00 PM 21.45 70.61 0.676 7.76 41.21 4.68
8/11/2022 1:00:00 PM 21.62 70.916 0.675 7.78 41.15 5.16
8/11/2022 1:15:00 PM 21.8 71.24 0.673 7.8 41.32 5.53
8/11/2022 1:30:00 PM 22.01 71.618 0.671 7.82 41.31 5.02
8/11/2022 1:45:00 PM 22.23 72.014 0.676 7.84 41.16 6.11
8/11/2022 2:00:00 PM 22.46 72.42799 0.675 7.86 41.15 6.54
8/11/2022 2:15:00 PM 22.67 72.806 0.67 7.88 41.3 6.61
8/11/2022 2:30:00 PM 22.89 73.202 0.667 7.9 41.38 6.97
8/11/2022 2:45:00 PM 23.11 73.598 0.664 7.91 41.19 7.3
8/11/2022 3:00:00 PM 23.31 73.958 0.661 7.93 41.19 7.5
8/11/2022 3:15:00 PM 23.49 74.282 0.663 7.94 41.62 8.27
8/11/2022 3:30:00 PM 23.64 74.552 0.658 7.95 41.19 8.7
8/11/2022 3:45:00 PM 23.75 74.75 0.654 7.95 40.94 8.81
8/11/2022 4:00:00 PM 23.84 74.912 0.652 7.95 41.07 9.01
8/11/2022 4:15:00 PM 23.92 75.056 0.652 7.96 41.15 9.08
8/11/2022 4:30:00 PM 23.98 75.164 0.648 7.97 41.21 9.36
8/11/2022 4:45:00 PM 23.99 75.182 0.649 7.98 41.54 10.14
8/11/2022 5:00:00 PM 23.97 75.146 0.651 7.99 41.35 10.23
8/11/2022 5:15:00 PM 23.93 75.074 0.65 7.98 41.43 10.15
8/11/2022 5:30:00 PM 23.88 74.984 0.65 7.98 41.4 10.07
8/11/2022 5:45:00 PM 23.84 74.912 0.651 7.95 41.8 9.96
8/11/2022 6:00:00 PM 23.8 74.84 0.652 7.95 41.75 9.84
8/11/2022 6:15:00 PM 23.75 74.75 0.653 7.94 42.01 9.71
8/11/2022 6:30:00 PM 23.7 74.66 0.653 7.99 42.03 9.74
8/11/2022 6:45:00 PM 23.63 74.534 0.657 7.99 42.73 9.66
8/11/2022 7:00:00 PM 23.55 74.39 0.657 7.98 42.7 9.47
8/11/2022 7:15:00 PM 23.46 74.228 0.658 7.97 42.1 8.98
8/11/2022 7:30:00 PM 23.37 74.066 0.659 7.96 41.93 8.95
8/11/2022 7:45:00 PM 23.27 73.886 0.66 7.95 42.62 6.6
8/11/2022 8:00:00 PM 23.19 73.742 0.662 7.93 42.23 8.07
8/11/2022 8:15:00 PM 23.1 73.58 0.664 7.92 42.38 7.6
8/11/2022 8:30:00 PM 23.02 73.436 0.665 7.9 42.09 7.94
8/11/2022 8:45:00 PM 22.93 73.274 0.666 7.9 42.44 8.29
8/11/2022 9:00:00 PM 22.85 73.13 0.668 7.89 56.11 8.17
8/11/2022 9:15:00 PM 22.77 72.986 0.669 7.87 60.16 7.07
8/11/2022 9:30:00 PM 22.69 72.842 0.669 7.85 58 6.61
8/11/2022 9:45:00 PM 22.6 72.68 0.669 7.85 55.06 6.34
8/11/2022 10:00:00 PM 22.52 72.536 0.669 7.85 54.92 6.38
8/11/2022 10:15:00 PM 22.45 72.41 0.67 7.82 54.71 5.57
8/11/2022 10:30:00 PM 22.37 72.266 0.671 7.79 54.3 7.1
8/11/2022 10:45:00 PM 22.29 72.122 0.671 7.79 53.85 5.49
8/11/2022 11:00:00 PM 22.21 71.978 0.672 7.78 54.24 6.37
8/11/2022 11:15:00 PM 22.14 71.852 0.672 7.78 54.66 5.93
8/11/2022 11:30:00 PM 22.06 71.708 0.672 7.77 57.38 5.74
8/11/2022 11:45:00 PM 22 71.6 0.671 7.76 56.35 4.96
8/12/2022 12:00:00 AM 21.92 71.456 0.67 7.76 56.56 5.17
8/12/2022 12:15:00 AM 21.85 71.33 0.67 7.74 56.5 5.76
8/12/2022 12:30:00 AM 21.78 71.204 0.67 7.75 58.54 6.06
8/12/2022 12:45:00 AM 21.71 71.078 0.67 7.75 54.06 4.82
8/12/2022 1:00:00 AM 21.65 70.97 0.67 7.74 54.08 5.21
8/12/2022 1:15:00 AM 21.59 70.862 0.669 7.75 62 5.08
8/12/2022 1:30:00 AM 21.52 70.736 0.671 7.75 63 4.15
8/12/2022 1:45:00 AM 21.46 70.628 0.671 7.75 60.05 3.66
8/12/2022 2:00:00 AM 21.39 70.502 0.672 7.74 60.51 4.34
8/12/2022 2:15:00 AM 21.33 70.394 0.673 7.73 59.21 4.11
8/12/2022 2:30:00 AM 21.27 70.286 0.673 7.73 60.32 3.73
8/12/2022 2:45:00 AM 21.21 70.17799 0.674 7.71 60.25 3.8
8/12/2022 3:00:00 AM 21.15 70.07 0.673 7.7 59.22 3.94
8/12/2022 3:15:00 AM 21.08 69.944 0.673 7.7 59.01 2.79
8/12/2022 3:30:00 AM 21.03 69.854 0.674 7.68 59.88 3.27
8/12/2022 3:45:00 AM 20.96 69.728 0.68 7.69 61.12 4.08
8/12/2022 4:00:00 AM 20.9 69.62 0.675 7.7 62.82 3.04
8/12/2022 4:15:00 AM 20.84 69.512 0.675 7.69 64.08 3.61
8/12/2022 4:30:00 AM 20.78 69.404 0.675 7.68 58.95 3.57
8/12/2022 4:45:00 AM 20.71 69.278 0.675 7.69 58.43 3.84
8/12/2022 5:00:00 AM 20.64 69.152 0.675 7.67 57.59 3.95
8/12/2022 5:15:00 AM 20.58 69.044 0.675 7.68 57.66 3.32
8/12/2022 5:30:00 AM 20.51 68.918 0.676 7.67 57.76 4.8
8/12/2022 5:45:00 AM 20.44 68.792 0.676 7.67 56.89 4.17
8/12/2022 6:00:00 AM 20.36 68.648 0.677 7.67 56.63 3.95
8/12/2022 6:15:00 AM 20.29 68.522 0.678 7.63 56.67 4.55
8/12/2022 6:30:00 AM 20.21 68.378 0.679 7.57 56.91 4.56
8/12/2022 6:45:00 AM 20.13 68.234 0.68 7.6 56.52 4.71
8/12/2022 7:00:00 AM 20.05 68.09 0.681 7.53 58.05 4.09
8/12/2022 7:15:00 AM 19.97 67.946 0.683 7.6 56.48 2.11
8/12/2022 7:30:00 AM 19.9 67.82 0.685 7.55 57.42 3.8
8/12/2022 7:45:00 AM 19.83 67.694 0.687 7.58 58.29 4.69
8/12/2022 8:00:00 AM 19.75 67.55 0.688 7.56 57.21 4.73
8/12/2022 8:15:00 AM 19.68 67.424 0.687 7.51 58.01 4.88
8/12/2022 8:30:00 AM 19.62 67.316 0.686 7.55 58.72 4.83
8/12/2022 8:45:00 AM 19.55 67.19 0.685 7.61 61.18 4.73
8/12/2022 9:00:00 AM 19.49 67.082 0.685 7.62 59.85 4.75
8/12/2022 9:15:00 AM 19.44 66.992 0.684 7.61 61.86 4.67
8/12/2022 9:30:00 AM 19.42 66.956 0.681 7.55 61.6 4.67
8/12/2022 9:45:00 AM 19.4 66.92 0.68 7.53 60.96 3.55
8/12/2022 10:00:00 AM 19.38 66.884 0.679 7.57 61.14 4.81
8/12/2022 10:15:00 AM 19.36 66.848 0.676 7.54 61.6 3.33
8/12/2022 10:30:00 AM 19.37 66.866 0.679 7.53 61.41 3.85
8/12/2022 10:45:00 AM 19.4 66.92 0.68 7.55 60.75 3.08
8/12/2022 11:00:00 AM 19.44 66.992 0.681 7.58 60.88 3.13
8/12/2022 11:15:00 AM 19.51 67.118 0.682 7.61 60.56 3.67
8/12/2022 11:30:00 AM 19.61 67.298 0.682 7.63 60.33 3.46
8/12/2022 11:45:00 AM 19.73 67.514 0.684 7.66 59.91 3.29
8/12/2022 12:00:00 PM 19.88 67.784 0.685 7.68 59.94 3.29
8/12/2022 12:15:00 PM 20.04 68.07201 0.685 7.71 60.15 3.02
8/12/2022 12:30:00 PM 20.21 68.378 0.684 7.73 59.93 3.1
8/12/2022 12:45:00 PM 20.39 68.702 0.684 7.75 59.7 2.78
8/12/2022 1:00:00 PM 20.57 69.026 0.684 7.79 59.63 3.29
8/12/2022 1:15:00 PM 20.75 69.35 0.683 7.8 60.76 4.68
8/12/2022 1:30:00 PM 20.95 69.71 0.681 7.83 60.45 4.98
8/12/2022 1:45:00 PM 21.16 70.088 0.677 7.85 60.52 5.02
8/12/2022 2:00:00 PM 21.37 70.466 0.674 7.87 62.31 5.84
8/12/2022 2:15:00 PM 21.58 70.844 0.672 7.88 61.19 5.37
8/12/2022 2:30:00 PM 21.79 71.222 0.669 7.89 62.15 4.47
8/12/2022 2:45:00 PM 22.02 71.636 0.667 7.91 60.72 4.76
8/12/2022 3:00:00 PM 22.22 71.996 0.667 7.9 60.73 5.03
8/12/2022 3:15:00 PM 22.4 72.32 0.667 7.93 60.51 5.4
8/12/2022 3:30:00 PM 22.54 72.57201 0.664 7.92 60.89 6.51
8/12/2022 3:45:00 PM 22.61 72.698 0.663 7.91 60.36 6.17
8/12/2022 4:00:00 PM 22.68 72.824 0.662 7.91 61.87 6.37
8/12/2022 4:15:00 PM 22.73 72.914 0.661 7.92 60.59 6.55
8/12/2022 4:30:00 PM 22.78 73.004 0.661 7.93 60.27 6.17
8/12/2022 4:45:00 PM 22.81 73.058 0.66 7.94 60.28 5.23
8/12/2022 5:00:00 PM 22.83 73.094 0.659 7.96 59.96 8.02
8/12/2022 5:15:00 PM 22.82 73.076 0.658 7.95 60.05 8.93
8/12/2022 5:30:00 PM 22.81 73.058 0.658 7.95 59.8 9.15
8/12/2022 5:45:00 PM 22.78 73.004 0.658 7.97 59.41 7
8/12/2022 6:00:00 PM 22.74 72.932 0.66 7.98 59.63 4.55
8/12/2022 6:15:00 PM 22.69 72.842 0.661 7.92 62.78 6.59
8/12/2022 6:30:00 PM 22.63 72.734 0.661 7.87 63.32 5.01
8/12/2022 6:45:00 PM 22.55 72.59 0.66 7.91 60.94 4.36
8/12/2022 7:00:00 PM 22.46 72.42799 0.663 7.95 60.19 4.04
8/12/2022 7:15:00 PM 22.36 72.248 0.663 7.96 59.7 3.24
8/12/2022 7:30:00 PM 22.25 72.05 0.663 7.99 59.45 3.19
8/12/2022 7:45:00 PM 22.14 71.852 0.663 7.94 58.5 4.35
8/12/2022 8:00:00 PM 22.03 71.654 0.663 7.95 57.95 4.3
8/12/2022 8:15:00 PM 21.92 71.456 0.663 7.91 58.62 6.66
8/12/2022 8:30:00 PM 21.81 71.258 0.664 7.93 56.81 6.03
8/12/2022 8:45:00 PM 21.7 71.06 0.665 7.92 56.61 6.9
8/12/2022 9:00:00 PM 21.6 70.88 0.666 7.91 56.48 6.81
8/12/2022 9:15:00 PM 21.5 70.7 0.666 7.82 56.38 6.26
8/12/2022 9:30:00 PM 21.4 70.52 0.666 7.79 56.66 1.72
8/12/2022 9:45:00 PM 21.3 70.34 0.666 7.84 56.95 4.77
8/12/2022 10:00:00 PM 21.22 70.196 0.667 7.86 56.78 5.92
8/12/2022 10:15:00 PM 21.13 70.034 0.665 7.85 56.67 2.67
8/12/2022 10:30:00 PM 21.05 69.89 0.66 7.74 56.26 0.97
8/12/2022 10:45:00 PM 20.96 69.728 0.658 7.82 55.3 1.29
8/12/2022 11:00:00 PM 20.88 69.584 0.659 7.8 54.47 1.23
8/12/2022 11:15:00 PM 20.8 69.44 0.659 7.79 54.3 1.12
8/12/2022 11:30:00 PM 20.72 69.296 0.659 7.8 53.11 0.8
8/12/2022 11:45:00 PM 20.64 69.152 0.659 7.79 52.43 0.82
8/13/2022 12:00:00 AM 20.56 69.008 0.659 7.75 51.93 1.15
8/13/2022 12:15:00 AM 20.5 68.9 0.657 7.73 52.05 0.49
8/13/2022 12:30:00 AM 20.42 68.756 0.656 7.73 51.79 0.53
8/13/2022 12:45:00 AM 20.34 68.612 0.655 7.73 51.86 0.35
8/13/2022 1:00:00 AM 20.26 68.468 0.656 7.69 53.09 0.4
8/13/2022 1:15:00 AM 20.18 68.324 0.656 7.71 53.02 1.25
8/13/2022 1:30:00 AM 20.09 68.162 0.657 7.7 52.97 1.08
8/13/2022 1:45:00 AM 20.01 68.018 0.658 7.71 53.49 1.3
8/13/2022 2:00:00 AM 19.93 67.874 0.66 7.71 53.1 2.69
8/13/2022 2:15:00 AM 19.87 67.766 0.658 7.68 52.41 0.6
8/13/2022 2:30:00 AM 19.78 67.604 0.658 7.69 52.03 0.67
8/13/2022 2:45:00 AM 19.72 67.496 0.657 7.65 51.76 0.47
8/13/2022 3:00:00 AM 19.65 67.37 0.658 7.64 51.86 0.37
8/13/2022 3:15:00 AM 19.58 67.244 0.659 7.62 52.51 0.54
8/13/2022 3:30:00 AM 19.51 67.118 0.661 7.64 52.82 0.58
8/13/2022 3:45:00 AM 19.43 66.974 0.662 7.64 50.73 0.97
8/13/2022 4:00:00 AM 19.38 66.884 0.661 7.61 52.05 0.8
8/13/2022 4:15:00 AM 19.3 66.74 0.661 7.65 50.77 0.69
8/13/2022 4:30:00 AM 19.23 66.614 0.663 7.65 51.59 0.89
8/13/2022 4:45:00 AM 19.17 66.506 0.665 7.65 51.54 1.13
8/13/2022 5:00:00 AM 19.1 66.38 0.665 7.64 51.4 1.15
8/13/2022 5:15:00 AM 19.04 66.272 0.667 7.63 51.76 0.8
8/13/2022 5:30:00 AM 18.97 66.146 0.668 7.64 51.18 0.93
8/13/2022 5:45:00 AM 18.9 66.02 0.669 7.61 52.04 1.04
8/13/2022 6:00:00 AM 18.83 65.894 0.671 7.64 50.02 1.98
8/13/2022 6:15:00 AM 18.75 65.75 0.672 7.66 49.77 1.12
8/13/2022 6:30:00 AM 18.68 65.624 0.672 7.63 49.99 1.64
8/13/2022 6:45:00 AM 18.6 65.48 0.673 7.62 50.15 1.03
8/13/2022 7:00:00 AM 18.52 65.336 0.673 7.61 49.82 0.92
8/13/2022 7:15:00 AM 18.44 65.192 0.674 7.6 50.11 1.11
8/13/2022 7:30:00 AM 18.37 65.066 0.674 7.6 50.04 0.83
8/13/2022 7:45:00 AM 18.3 64.94 0.674 7.62 49.82 0.67
8/13/2022 8:00:00 AM 18.21 64.778 0.674 7.64 49.8 0.71
8/13/2022 8:15:00 AM 18.15 64.67 0.674 7.61 49.78 0.81
8/13/2022 8:30:00 AM 18.08 64.544 0.674 7.61 49.7 0.47
8/13/2022 8:45:00 AM 18.01 64.418 0.674 7.6 49.55 0.64
8/13/2022 9:00:00 AM 17.96 64.328 0.675 7.6 49.71 0.42
8/13/2022 9:15:00 AM 17.91 64.238 0.676 7.61 49.86 0.39
8/13/2022 9:30:00 AM 17.87 64.166 0.676 7.61 50.06 0.34
8/13/2022 9:45:00 AM 17.84 64.112 0.677 7.6 50.52 0.33
8/13/2022 10:00:00 AM 17.82 64.076 0.676 7.59 50.02 0.33
8/13/2022 10:15:00 AM 17.81 64.058 0.676 7.59 50.19 0.33
8/13/2022 10:30:00 AM 17.8 64.04 0.676 7.57 52.28 0.33
8/13/2022 10:45:00 AM 17.82 64.076 0.676 7.54 52.72 0.33
8/13/2022 11:00:00 AM 17.87 64.166 0.675 7.54 52.12 0.35
8/13/2022 11:15:00 AM 17.95 64.31 0.674 7.57 52.41 0.91
8/13/2022 11:30:00 AM 18.07 64.526 0.674 7.6 52.47 1.51
8/13/2022 11:45:00 AM 18.21 64.778 0.674 7.63 52.73 1.75
8/13/2022 12:00:00 PM 18.38 65.084 0.675 7.66 53.01 2.16
8/13/2022 12:15:00 PM 18.56 65.408 0.676 7.69 53.15 2.57
8/13/2022 12:30:00 PM 18.75 65.75 0.677 7.71 53.33 2.73
8/13/2022 12:45:00 PM 18.94 66.092 0.678 7.73 53.41 2.99
8/13/2022 1:00:00 PM 19.15 66.47 0.678 7.76 52.96 3.43
8/13/2022 1:15:00 PM 19.36 66.848 0.678 7.78 53.15 3.74
8/13/2022 1:30:00 PM 19.59 67.262 0.678 7.8 53.53 4.35
8/13/2022 1:45:00 PM 19.83 67.694 0.677 7.82 53.36 4.48
8/13/2022 2:00:00 PM 20.07 68.126 0.677 7.84 53.81 4.6
8/13/2022 2:15:00 PM 20.3 68.54 0.679 7.85 53.99 4.77
8/13/2022 2:30:00 PM 20.54 68.972 0.679 7.87 54.18 4.69
8/13/2022 2:45:00 PM 20.77 69.386 0.678 7.89 54.33 4.92
8/13/2022 3:00:00 PM 20.98 69.764 0.668 7.8 108.25 4.73
8/13/2022 3:15:00 PM 21.15 70.07 0.668 7.82 100.38 4.34
8/13/2022 3:30:00 PM 21.31 70.358 0.667 7.86 96.75 4.64
8/13/2022 3:45:00 PM 21.43 70.574 0.667 7.88 95.6 4.19
8/13/2022 4:00:00 PM 21.54 70.772 0.667 7.9 94.72 3.88
8/13/2022 4:15:00 PM 21.64 70.952 0.666 7.91 94.04 3.49
8/13/2022 4:30:00 PM 21.73 71.114 0.666 7.9 97.45 3.11
8/13/2022 4:45:00 PM 21.8 71.24 0.665 7.9 95.04 2.54
8/13/2022 5:00:00 PM 21.84 71.312 0.665 7.91 94.38 1.69
8/13/2022 5:15:00 PM 21.86 71.348 0.664 7.91 93.66 1.04
8/13/2022 5:30:00 PM 21.88 71.384 0.664 7.9 93.69 2.18
8/13/2022 5:45:00 PM 21.89 71.402 0.664 7.89 84.17 3.83
8/13/2022 6:00:00 PM 21.89 71.402 0.664 7.87 82.83 4.22
8/13/2022 6:15:00 PM 21.88 71.384 0.665 7.81 81.84 5.12
8/13/2022 6:30:00 PM 21.86 71.348 0.665 7.82 83.05 6.99
8/13/2022 6:45:00 PM 21.83 71.294 0.665 7.77 81.67 6.96
8/13/2022 7:00:00 PM 21.78 71.204 0.665 7.83 80.39 7.95
8/13/2022 7:15:00 PM 21.72 71.096 0.665 7.86 80.32 8.5
8/13/2022 7:30:00 PM 21.65 70.97 0.665 7.82 80.4 7.89
8/13/2022 7:45:00 PM 21.58 70.844 0.665 7.85 80.12 7.04
8/13/2022 8:00:00 PM 21.5 70.7 0.665 7.87 80.15 7.76
8/13/2022 8:15:00 PM 21.41 70.538 0.665 7.85 79.84 7.58
8/13/2022 8:30:00 PM 21.32 70.376 0.665 7.89 77.82 7.06
8/13/2022 8:45:00 PM 21.24 70.232 0.665 7.87 76.38 6.67
8/13/2022 9:00:00 PM 21.15 70.07 0.665 7.79 89.89 5.9
8/13/2022 9:15:00 PM 21.06 69.908 0.664 7.79 87.34 6.17
8/13/2022 9:30:00 PM 20.98 69.764 0.664 7.75 83.57 5.82
8/13/2022 9:45:00 PM 20.9 69.62 0.664 7.77 81.78 5.27
8/13/2022 10:00:00 PM 20.82 69.476 0.665 7.76 79.78 5.02
8/13/2022 10:15:00 PM 20.75 69.35 0.666 7.77 77.76 5.97
8/13/2022 10:30:00 PM 20.67 69.206 0.666 7.73 78.45 5.37
8/13/2022 10:45:00 PM 20.6 69.08 0.667 7.69 79.82 5.24
8/13/2022 11:00:00 PM 20.53 68.954 0.667 7.65 78.16 3.86
8/13/2022 11:15:00 PM 20.47 68.846 0.667 7.64 76.89 6.37
8/13/2022 11:30:00 PM 20.4 68.72 0.668 7.64 77.27 6.62
8/13/2022 11:45:00 PM 20.34 68.612 0.669 7.68 76.23 6.29
8/14/2022 12:00:00 AM 20.27 68.486 0.669 7.67 76.37 5.03
8/14/2022 12:15:00 AM 20.21 68.378 0.669 7.68 76.09 4.37
8/14/2022 12:30:00 AM 20.14 68.252 0.669 7.7 75.84 4.17
8/14/2022 12:45:00 AM 20.08 68.144 0.669 7.71 75 4
8/14/2022 1:00:00 AM 20.02 68.036 0.669 7.67 75.55 4.5
8/14/2022 1:15:00 AM 19.96 67.92799 0.669 7.65 75.61 3.71
8/14/2022 1:30:00 AM 19.91 67.838 0.669 7.65 74.32 3.77
8/14/2022 1:45:00 AM 19.85 67.73 0.669 7.63 73.15 3.33
8/14/2022 2:00:00 AM 19.79 67.622 0.669 7.63 73.48 2.24
8/14/2022 2:15:00 AM 19.74 67.532 0.669 7.66 72.86 3.88
8/14/2022 2:30:00 AM 19.69 67.442 0.669 7.66 73.04 3.31
8/14/2022 2:45:00 AM 19.63 67.334 0.669 7.67 72.44 3.19
8/14/2022 3:00:00 AM 19.58 67.244 0.67 7.66 72.51 2.98
8/14/2022 3:15:00 AM 19.52 67.136 0.67 7.65 71.94 2.55
8/14/2022 3:30:00 AM 19.47 67.046 0.669 7.64 71.3 1.7
8/14/2022 3:45:00 AM 19.41 66.938 0.669 7.62 71.5 2.3
8/14/2022 4:00:00 AM 19.35 66.83 0.67 7.63 79.05 3.95
8/14/2022 4:15:00 AM 19.29 66.722 0.669 7.6 71.24 5.1
8/14/2022 4:30:00 AM 19.23 66.614 0.669 7.6 71.48 5.01
8/14/2022 4:45:00 AM 19.17 66.506 0.67 7.6 71.17 5.06
8/14/2022 5:00:00 AM 19.11 66.398 0.67 7.6 71.11 4.67
8/14/2022 5:15:00 AM 19.05 66.29 0.67 7.61 71.33 1.47
8/14/2022 5:30:00 AM 18.98 66.164 0.67 7.6 70.69 1.17
8/14/2022 5:45:00 AM 18.92 66.056 0.669 7.57 69.58 1.1
8/14/2022 6:00:00 AM 18.86 65.948 0.668 7.56 68.55 1
8/14/2022 6:15:00 AM 18.79 65.82201 0.668 7.61 66.91 1.66
8/14/2022 6:30:00 AM 18.72 65.696 0.668 7.6 67.21 0.58
8/14/2022 6:45:00 AM 18.65 65.57 0.667 7.6 66.45 3.18
8/14/2022 7:00:00 AM 18.58 65.444 0.666 7.6 65.86 3.55
8/14/2022 7:15:00 AM 18.51 65.318 0.664 7.59 64.82 2.16
8/14/2022 7:30:00 AM 18.43 65.174 0.664 7.61 64.55 3.89
8/14/2022 7:45:00 AM 18.36 65.048 0.663 7.61 65.42 2.93
8/14/2022 8:00:00 AM 18.28 64.904 0.663 7.61 64.96 3.58
8/14/2022 8:15:00 AM 18.21 64.778 0.662 7.59 64.97 3.41
8/14/2022 8:30:00 AM 18.14 64.652 0.662 7.58 65.74 3.65
8/14/2022 8:45:00 AM 18.08 64.544 0.662 7.58 65.64 3.93
8/14/2022 9:00:00 AM 18.01 64.418 0.662 7.54 66.24 3.97
8/14/2022 9:15:00 AM 17.96 64.328 0.662 7.56 66.46 3.82
8/14/2022 9:30:00 AM 17.92 64.256 0.662 7.55 66.82 3.29
8/14/2022 9:45:00 AM 17.9 64.22 0.662 7.57 66.52 1.17
8/14/2022 10:00:00 AM 17.87 64.166 0.663 7.56 66.9 0.51
8/14/2022 10:15:00 AM 17.85 64.13 0.663 7.56 66.61 1.27
8/14/2022 10:30:00 AM 17.85 64.13 0.663 7.57 66.95 0.88
8/14/2022 10:45:00 AM 17.88 64.184 0.663 7.62 72.1 0.58
8/14/2022 11:00:00 AM 17.93 64.274 0.664 7.58 67.24 0.37
8/14/2022 11:15:00 AM 18.01 64.418 0.664 7.61 67.25 0.36
8/14/2022 11:30:00 AM 18.13 64.634 0.664 7.64 67.5 0.35
8/14/2022 11:45:00 AM 18.27 64.886 0.665 7.67 82.16 0.35
8/14/2022 12:00:00 PM 18.43 65.174 0.664 7.67 86.81 0.34
8/14/2022 12:15:00 PM 18.6 65.48 0.664 7.66 86.35 0.34
8/14/2022 12:30:00 PM 18.78 65.804 0.663 7.69 85.66 0.34
8/14/2022 12:45:00 PM 18.95 66.11 0.662 7.72 87.11 0.33
8/14/2022 1:00:00 PM 19.13 66.434 0.662 7.74 87.89 0.33
8/14/2022 1:15:00 PM 19.3 66.74 0.661 7.77 87.52 0.33
8/14/2022 1:30:00 PM 19.47 67.046 0.661 7.79 86.53 0.33
8/14/2022 1:45:00 PM 19.65 67.37 0.661 7.82 85.85 0.32
8/14/2022 2:00:00 PM 19.83 67.694 0.66 7.76 88.94 0.41
8/14/2022 2:15:00 PM 20 68 0.66 7.73 88.32 0.69
8/14/2022 2:30:00 PM 20.16 68.288 0.66 7.78 92.49 0.83
8/14/2022 2:45:00 PM 20.29 68.522 0.66 7.81 92.31 0.68
8/14/2022 3:00:00 PM 20.42 68.756 0.659 7.7 91.42 0.77
8/14/2022 3:15:00 PM 20.57 69.026 0.659 7.74 91.31 0.8
8/14/2022 3:30:00 PM 20.7 69.26 0.659 7.8 90.48 0.86
8/14/2022 3:45:00 PM 20.81 69.458 0.659 7.83 89.53 0.59
8/14/2022 4:00:00 PM 20.91 69.638 0.658 7.82 89.7 0.42
8/14/2022 4:15:00 PM 20.98 69.764 0.657 7.82 89.73 0.31
8/14/2022 4:30:00 PM 21.03 69.854 0.657 7.81 90.31 0.32
8/14/2022 4:45:00 PM 21.07 69.926 0.657 7.79 90.15 0.32
8/14/2022 5:00:00 PM 21.09 69.962 0.657 7.77 89.81 0.57
8/14/2022 5:15:00 PM 21.1 69.98 0.657 7.71 90.49 0.52
8/14/2022 5:30:00 PM 21.11 69.998 0.657 7.73 89.8 0.43
8/14/2022 5:45:00 PM 21.13 70.034 0.656 7.77 90.16 0.31
8/14/2022 6:00:00 PM 21.14 70.052 0.656 7.8 92.24 0.34
8/14/2022 6:15:00 PM 21.16 70.088 0.659 7.83 85.7 0.46
8/14/2022 6:30:00 PM 21.16 70.088 0.659 7.78 84.78 0.63
8/14/2022 6:45:00 PM 21.15 70.07 0.661 7.73 84.59 0.87
8/14/2022 7:00:00 PM 21.14 70.052 0.661 7.7 98.54 0.95
8/14/2022 7:15:00 PM 21.11 69.998 0.661 7.91 144.77 4.54
8/14/2022 7:30:00 PM 21.08 69.944 0.659 7.8 143.76 5.17
8/14/2022 7:45:00 PM 21.05 69.89 0.655 7.72 141.33 3.84
8/14/2022 8:00:00 PM 21.01 69.818 0.652 7.81 140.66 5.27
8/14/2022 8:15:00 PM 20.97 69.746 0.648 7.75 142.67 5.26
8/14/2022 8:30:00 PM 20.93 69.674 0.646 7.72 149.84 5.95
8/14/2022 8:45:00 PM 20.89 69.602 0.644 7.66 135.75 4.85
8/14/2022 9:00:00 PM 20.85 69.53 0.642 7.68 126.87 5.54
8/14/2022 9:15:00 PM 20.8 69.44 0.641 7.67 135.25 5.97
8/14/2022 9:30:00 PM 20.76 69.368 0.641 7.7 134.69 5.2
8/14/2022 9:45:00 PM 20.72 69.296 0.642 7.75 105.25 6.02
8/14/2022 10:00:00 PM 20.68 69.224 0.642 7.72 104.04 3.17
8/14/2022 10:15:00 PM 20.64 69.152 0.642 7.74 102.43 4.35
8/14/2022 10:30:00 PM 20.6 69.08 0.642 7.79 116.26 5.29
8/14/2022 10:45:00 PM 20.57 69.026 0.642 7.78 112.5 5.73
8/14/2022 11:00:00 PM 20.53 68.954 0.641 7.73 109.25 5.85
8/14/2022 11:15:00 PM 20.5 68.9 0.64 7.75 108.28 5.5
8/14/2022 11:30:00 PM 20.47 68.846 0.64 7.71 106.45 5.38
8/14/2022 11:45:00 PM 20.43 68.774 0.64 7.67 105.94 3.31
8/15/2022 12:00:00 AM 20.4 68.72 0.638 7.75 105.11 2.13
8/15/2022 12:15:00 AM 20.37 68.666 0.638 7.76 107.4 3.93
8/15/2022 12:30:00 AM 20.33 68.594 0.638 7.76 106.76 2.57
8/15/2022 12:45:00 AM 20.3 68.54 0.638 7.73 105.72 1.93
8/15/2022 1:00:00 AM 20.27 68.486 0.638 7.72 106.14 1.32
8/15/2022 1:15:00 AM 20.24 68.432 0.638 7.72 102.81 1.42
8/15/2022 1:30:00 AM 20.21 68.378 0.639 7.64 100.53 2.79
8/15/2022 1:45:00 AM 20.17 68.306 0.639 7.63 99.68 2.87
8/15/2022 2:00:00 AM 20.15 68.27 0.64 7.6 100.57 1.27
8/15/2022 2:15:00 AM 20.12 68.216 0.64 7.67 98.57 2.4
8/15/2022 2:30:00 AM 20.09 68.162 0.64 7.64 104.3 2.75
8/15/2022 2:45:00 AM 20.06 68.108 0.641 7.59 103.39 2.8
8/15/2022 3:00:00 AM 20.04 68.07201 0.642 7.56 103.21 2.69
8/15/2022 3:15:00 AM 20.01 68.018 0.642 7.59 102.99 3.05
8/15/2022 3:30:00 AM 19.99 67.982 0.644 7.62 103.57 2.84
8/15/2022 3:45:00 AM 19.97 67.946 0.645 7.55 124.64 1.4
8/15/2022 4:00:00 AM 19.95 67.91 0.645 7.59 117.68 0.75
8/15/2022 4:15:00 AM 19.93 67.874 0.646 7.59 119.75 1.86
8/15/2022 4:30:00 AM 19.9 67.82 0.647 7.61 136.53 2.6
8/15/2022 4:45:00 AM 19.88 67.784 0.647 7.53 133.33 2.32
8/15/2022 5:00:00 AM 19.86 67.748 0.647 7.56 129.55 1.96
8/15/2022 5:15:00 AM 19.83 67.694 0.647 7.57 129.36 1.85
8/15/2022 5:30:00 AM 19.81 67.658 0.648 7.55 127.87 1.91
8/15/2022 5:45:00 AM 19.78 67.604 0.648 7.56 129.02 1.38
8/15/2022 6:00:00 AM 19.75 67.55 0.649 7.56 125.92 1.88
8/15/2022 6:15:00 AM 19.73 67.514 0.649 7.56 132.32 2.3
8/15/2022 6:30:00 AM 19.7 67.46 0.65 7.56 129.94 2.62
8/15/2022 6:45:00 AM 19.66 67.388 0.65 7.59 127.23 2.93
8/15/2022 7:00:00 AM 19.62 67.316 0.651 7.56 127.5 3.15
8/15/2022 7:15:00 AM 19.58 67.244 0.653 7.57 127.13 2.95
8/15/2022 7:30:00 AM 19.53 67.154 0.654 7.56 127.41 2.54
8/15/2022 7:45:00 AM 19.49 67.082 0.655 7.57 125.2 1.79
8/15/2022 8:00:00 AM 19.45 67.01 0.659 7.57 125.01 2.49
8/15/2022 8:15:00 AM 19.4 66.92 0.66 7.56 123.41 2.88
8/15/2022 8:30:00 AM 19.36 66.848 0.66 7.58 121.86 2.92
8/15/2022 8:45:00 AM 19.32 66.776 0.66 7.58 119.18 2.81
8/15/2022 9:00:00 AM 19.28 66.704 0.661 7.61 118.5 2.79
8/15/2022 9:15:00 AM 19.25 66.65 0.663 7.58 117.43 2.3
8/15/2022 9:30:00 AM 19.22 66.596 0.664 7.56 116.8 1.75
8/15/2022 9:45:00 AM 19.21 66.578 0.665 7.54 115.8 1.2
8/15/2022 10:00:00 AM 19.2 66.56 0.665 7.55 115.69 0.98
8/15/2022 10:15:00 AM 19.19 66.542 0.667 7.56 115.32 1.14
8/15/2022 10:30:00 AM 19.19 66.542 0.668 7.55 114.45 0.89
8/15/2022 10:45:00 AM 19.23 66.614 0.669 7.55 114.57 0.36
8/15/2022 11:00:00 AM 19.29 66.722 0.669 7.59 113.07 0.34
8/15/2022 11:15:00 AM 19.36 66.848 0.67 7.61 112.29 0.34
8/15/2022 11:30:00 AM 19.43 66.974 0.67 7.64 111.65 0.33
8/15/2022 11:45:00 AM 19.53 67.154 0.668 7.67 112.07 0.4
8/15/2022 12:00:00 PM 19.62 67.316 0.668 7.69 111.29 0.81
8/15/2022 12:15:00 PM 19.69 67.442 0.669 7.71 110.79 1.68
8/15/2022 12:30:00 PM 19.77 67.586 0.669 7.73 110.17 0.56
8/15/2022 12:45:00 PM 19.87 67.766 0.67 7.75 110.59 1.33
8/15/2022 1:00:00 PM 19.99 67.982 0.668 7.78 109.99 1.66
8/15/2022 1:15:00 PM 20.1 68.18 0.665 7.8 110.02 1.51
8/15/2022 1:30:00 PM 20.21 68.378 0.662 7.83 109.64 1.65
8/15/2022 1:45:00 PM 20.31 68.558 0.661 7.84 110.19 0.71
8/15/2022 2:00:00 PM 20.41 68.738 0.659 7.86 109.96 2.3
8/15/2022 2:15:00 PM 20.54 68.972 0.66 7.88 109.19 2.65
8/15/2022 2:30:00 PM 20.64 69.152 0.659 7.87 109.19 2.15
8/15/2022 2:45:00 PM 20.73 69.314 0.657 7.89 108.87 0.82
8/15/2022 3:00:00 PM 20.81 69.458 0.656 7.9 108.56 2.38
8/15/2022 3:15:00 PM 20.85 69.53 0.655 7.9 108.14 4.84
8/15/2022 3:30:00 PM 20.88 69.584 0.655 7.9 108.26 5.37
8/15/2022 3:45:00 PM 20.9 69.62 0.653 7.92 108.44 5.3
8/15/2022 4:00:00 PM 20.92 69.656 0.651 7.91 108.42 4.78
8/15/2022 4:15:00 PM 20.93 69.674 0.65 7.95 109.12 5.49
8/15/2022 4:30:00 PM 20.95 69.71 0.649 7.92 109.11 5.22
8/15/2022 4:45:00 PM 20.96 69.728 0.649 7.92 108.95 4.09
8/15/2022 5:00:00 PM 20.98 69.764 0.649 7.89 108.54 4.03
8/15/2022 5:15:00 PM 21.01 69.818 0.649 7.86 108.9 4
8/15/2022 5:30:00 PM 21.03 69.854 0.648 7.91 108.75 4.58
8/15/2022 5:45:00 PM 21.06 69.908 0.649 7.91 109.59 6.03
8/15/2022 6:00:00 PM 21.07 69.926 0.651 7.92 109.13 6.76
8/15/2022 6:15:00 PM 21.08 69.944 0.653 7.9 109.07 7.44
8/15/2022 6:30:00 PM 21.08 69.944 0.654 7.94 110 6.62
8/15/2022 6:45:00 PM 21.08 69.944 0.655 7.94 109.03 7.23
8/15/2022 7:00:00 PM 21.07 69.926 0.654 7.93 109.64 7.59
8/15/2022 7:15:00 PM 21.06 69.908 0.654 7.94 108.66 7.07
8/15/2022 7:30:00 PM 21.04 69.872 0.653 7.92 108.86 6.99
8/15/2022 7:45:00 PM 21.02 69.836 0.654 7.9 109.18 7.4
8/15/2022 8:00:00 PM 20.99 69.782 0.653 7.9 109.01 6.22
8/15/2022 8:15:00 PM 20.95 69.71 0.651 7.87 108.47 7.29
8/15/2022 8:30:00 PM 20.92 69.656 0.65 7.86 109.18 8.05
8/15/2022 8:45:00 PM 20.88 69.584 0.649 7.85 114.01 7.78
8/15/2022 9:00:00 PM 20.84 69.512 0.67 7.87 122.09 6.53
8/15/2022 9:15:00 PM 20.8 69.44 0.667 7.79 1066.03 6.2
8/15/2022 9:30:00 PM 20.77 69.386 0.676 7.83 1710.85 5.68
8/15/2022 9:45:00 PM 20.74 69.332 0.677 7.84 1429.7 4.65
8/15/2022 10:00:00 PM 20.71 69.278 0.675 7.85 1117.9 5.08
8/15/2022 10:15:00 PM 20.67 69.206 0.681 7.83 1059.41 4.36
8/15/2022 10:30:00 PM 20.64 69.152 0.681 7.83 1014.67 3.97
8/15/2022 10:45:00 PM 20.61 69.098 0.681 7.79 962.69 3.19
8/15/2022 11:00:00 PM 20.58 69.044 0.679 7.82 648.64 3.64
8/15/2022 11:15:00 PM 20.55 68.99 0.676 7.8 643.64 3.57
8/15/2022 11:30:00 PM 20.52 68.936 0.676 7.8 827.82 3.03
8/15/2022 11:45:00 PM 20.49 68.882 0.678 7.78 777.44 3.06
8/16/2022 12:00:00 AM 20.46 68.828 0.679 7.78 754.37 3.47
8/16/2022 12:15:00 AM 20.43 68.774 0.68 7.76 738 3.17
8/16/2022 12:30:00 AM 20.41 68.738 0.68 7.73 722.73 3.55
8/16/2022 12:45:00 AM 20.38 68.684 0.679 7.75 715.3 3.72
8/16/2022 1:00:00 AM 20.36 68.648 0.679 7.72 679.37 3.01
8/16/2022 1:15:00 AM 20.33 68.594 0.679 7.69 663.88 3.15
8/16/2022 1:30:00 AM 20.31 68.558 0.679 7.7 649.32 2.56
8/16/2022 1:45:00 AM 20.28 68.504 0.677 7.69 648.85 2.95
8/16/2022 2:00:00 AM 20.26 68.468 0.677 7.7 620.16 2.74
8/16/2022 2:15:00 AM 20.23 68.414 0.672 7.64 592.72 2.82
8/16/2022 2:30:00 AM 20.2 68.36 0.672 7.67 596.11 4.44
8/16/2022 2:45:00 AM 20.18 68.324 0.672 7.66 588.99 3.34
8/16/2022 3:00:00 AM 20.15 68.27 0.673 7.66 574.04 1.96
8/16/2022 3:15:00 AM 20.13 68.234 0.674 7.69 594.07 2.87
8/16/2022 3:30:00 AM 20.1 68.18 0.674 7.67 574.75 3.12
8/16/2022 3:45:00 AM 20.07 68.126 0.674 7.67 552.33 2.78
8/16/2022 4:00:00 AM 20.04 68.07201 0.675 7.68 553.59 2.79
8/16/2022 4:15:00 AM 20.02 68.036 0.677 7.69 543.85 3.42
8/16/2022 4:30:00 AM 19.99 67.982 0.677 7.65 533.97 4.12
8/16/2022 4:45:00 AM 19.96 67.92799 0.678 7.68 290.18 1.71
8/16/2022 5:00:00 AM 19.93 67.874 0.678 7.7 274.45 0.55
8/16/2022 5:15:00 AM 19.9 67.82 0.677 7.68 391.22 2.33
8/16/2022 5:30:00 AM 19.87 67.766 0.677 7.68 439.88 1.33
8/16/2022 5:45:00 AM 19.85 67.73 0.677 7.62 191.77 1.48
8/16/2022 6:00:00 AM 19.82 67.676 0.677 7.56 188.53 1.04
8/16/2022 6:15:00 AM 19.79 67.622 0.677 7.61 187.25 1.42
8/16/2022 6:30:00 AM 19.76 67.568 0.679 7.62 184.52 1.64
8/16/2022 6:45:00 AM 19.73 67.514 0.676 7.63 182.66 1.43
8/16/2022 7:00:00 AM 19.7 67.46 0.677 7.61 198.58 2.13
8/16/2022 7:15:00 AM 19.67 67.406 0.678 7.62 136.77 2.4
8/16/2022 7:30:00 AM 19.64 67.352 0.678 7.61 182.79 1.73
8/16/2022 7:45:00 AM 19.62 67.316 0.679 7.63 103.77 0.96
8/16/2022 8:00:00 AM 19.59 67.262 0.679 7.6 103.04 0.63
8/16/2022 8:15:00 AM 19.57 67.226 0.68 7.58 105.18 0.53
8/16/2022 8:30:00 AM 19.56 67.208 0.68 7.58 105.07 0.79
8/16/2022 8:45:00 AM 19.54 67.172 0.68 7.56 109.27 1.06
8/16/2022 9:00:00 AM 19.53 67.154 0.68 7.58 105.23 0.88
8/16/2022 9:15:00 AM 19.51 67.118 0.681 7.59 106.51 0.82
8/16/2022 9:30:00 AM 19.5 67.1 0.681 7.58 103.21 1.11
8/16/2022 9:45:00 AM 19.49 67.082 0.678 7.56 104.71 0.77
8/16/2022 10:00:00 AM 19.49 67.082 0.677 7.57 103.88 0.94
8/16/2022 10:15:00 AM 19.49 67.082 0.678 7.57 104.68 1.13
8/16/2022 10:30:00 AM 19.51 67.118 0.678 7.57 119.28 1.19
8/16/2022 10:45:00 AM 19.54 67.172 0.677 7.6 104.04 1.3
8/16/2022 11:00:00 AM 19.57 67.226 0.677 7.61 120.67 1.18
8/16/2022 11:15:00 AM 19.62 67.316 0.677 7.65 215.94 1.09
8/16/2022 11:30:00 AM 19.66 67.388 0.677 7.67 218.03 0.85
8/16/2022 11:45:00 AM 19.72 67.496 0.677 7.68 215.33 0.8
8/16/2022 12:00:00 PM 19.8 67.64 0.677 7.7 210.61 0.34
8/16/2022 12:15:00 PM 19.9 67.82 0.677 7.71 208.08 0.33
8/16/2022 12:30:00 PM 20.02 68.036 0.677 7.73 206.79 1.73
8/16/2022 12:45:00 PM 20.2 68.36 0.676 7.78 204.18 2.67
8/16/2022 1:00:00 PM 20.4 68.72 0.674 7.8 204.71 1.36
8/16/2022 1:15:00 PM 20.6 69.08 0.673 7.83 202.72 2.07
8/16/2022 1:30:00 PM 20.81 69.458 0.672 7.87 201.68 2.76
8/16/2022 1:45:00 PM 21.04 69.872 0.67 7.88 196.05 2.54
8/16/2022 2:00:00 PM 21.29 70.32201 0.669 7.92 192.88 2.45
8/16/2022 2:15:00 PM 21.54 70.772 0.672 7.93 190.46 1.75
8/16/2022 2:30:00 PM 21.72 71.096 0.672 7.9 190.95 2.09
8/16/2022 2:45:00 PM 21.82 71.276 0.673 7.93 192.72 3.9
8/16/2022 3:00:00 PM 21.87 71.366 0.673 7.89 193.47 5.33
8/16/2022 3:15:00 PM 21.86 71.348 0.674 7.85 194.18 5.48
8/16/2022 3:30:00 PM 21.86 71.348 0.674 7.82 203.03 5.97
8/16/2022 3:45:00 PM 21.73 71.114 0.675 7.83 210.23 6.95
8/16/2022 4:00:00 PM 21.66 70.988 0.675 7.8 197.33 7
8/16/2022 4:15:00 PM 21.57 70.826 0.675 7.76 197.18 7.32
8/16/2022 4:30:00 PM 21.47 70.646 0.675 7.61 197.98 7.21
8/16/2022 4:45:00 PM 21.4 70.52 0.676 7.61 198.91 6.94
8/16/2022 5:00:00 PM 21.35 70.43 0.676 7.66 199.42 5.99
8/16/2022 5:15:00 PM 21.32 70.376 0.676 7.74 200.42 5.66
8/16/2022 5:30:00 PM 21.31 70.358 0.676 7.78 196.97 4.68
8/16/2022 5:45:00 PM 21.29 70.32201 0.664 7.76 198.76 4.92
8/16/2022 6:00:00 PM 21.27 70.286 0.665 7.79 186.59 4.53
8/16/2022 6:15:00 PM 21.25 70.25 0.668 7.79 187.94 4.29
8/16/2022 6:30:00 PM 21.23 70.214 0.671 7.76 185.75 5.48
8/16/2022 6:45:00 PM 21.2 70.16 0.672 7.76 185.95 5.34
8/16/2022 7:00:00 PM 21.18 70.124 0.673 7.78 184.47 5.69
8/16/2022 7:15:00 PM 21.16 70.088 0.675 7.77 184.85 5.83
8/16/2022 7:30:00 PM 21.13 70.034 0.676 7.8 186.04 7.17
8/16/2022 7:45:00 PM 21.1 69.98 0.676 7.79 186.56 7.64
8/16/2022 8:00:00 PM 21.05 69.89 0.678 7.82 189.64 6.61
8/16/2022 8:15:00 PM 21 69.8 0.68 7.83 187.86 6.32
8/16/2022 8:30:00 PM 20.95 69.71 0.681 7.82 186.27 6.37
8/16/2022 8:45:00 PM 20.89 69.602 0.682 7.8 186.4 5.81
8/16/2022 9:00:00 PM 20.84 69.512 0.684 7.77 280.01 5.26
8/16/2022 9:15:00 PM 20.79 69.422 0.685 7.8 414.33 4.53
8/16/2022 9:30:00 PM 20.73 69.314 0.685 7.76 361.71 4.07
8/16/2022 9:45:00 PM 20.68 69.224 0.685 7.73 357.72 3.93
8/16/2022 10:00:00 PM 20.63 69.134 0.687 7.7 352.87 4.25
8/16/2022 10:15:00 PM 20.58 69.044 0.688 7.69 352.67 3.65
8/16/2022 10:30:00 PM 20.54 68.972 0.687 7.7 348.51 3.52
8/16/2022 10:45:00 PM 20.49 68.882 0.689 7.67 347.51 2.81
8/16/2022 11:00:00 PM 20.44 68.792 0.69 7.63 345.16 2.07
8/16/2022 11:15:00 PM 20.4 68.72 0.69 7.64 350.47 1.98
8/16/2022 11:30:00 PM 20.36 68.648 0.691 7.64 344.46 2.71
8/16/2022 11:45:00 PM 20.31 68.558 0.691 7.66 342.45 3.49
8/17/2022 12:00:00 AM 20.26 68.468 0.69 7.65 344.66 3.69
8/17/2022 12:15:00 AM 20.22 68.396 0.69 7.67 345.36 3.86
8/17/2022 12:30:00 AM 20.17 68.306 0.69 7.67 371.52 2.6
8/17/2022 12:45:00 AM 20.12 68.216 0.691 7.67 340.68 2.65
8/17/2022 1:00:00 AM 20.08 68.144 0.691 7.65 341.14 2.96
8/17/2022 1:15:00 AM 20.03 68.054 0.691 7.64 341.69 2.94
8/17/2022 1:30:00 AM 19.99 67.982 0.691 7.64 339.05 2.45
8/17/2022 1:45:00 AM 19.94 67.892 0.691 7.65 337.36 1.51
8/17/2022 2:00:00 AM 19.9 67.82 0.691 7.65 351.65 0.98
8/17/2022 2:15:00 AM 19.86 67.748 0.692 7.65 328.31 0.86
8/17/2022 2:30:00 AM 19.83 67.694 0.692 7.62 327.06 0.98
8/17/2022 2:45:00 AM 19.8 67.64 0.691 7.64 329.55 1.21
8/17/2022 3:00:00 AM 19.77 67.586 0.691 7.61 328 0.52
8/17/2022 3:15:00 AM 19.73 67.514 0.691 7.59 324.65 0.96
8/17/2022 3:30:00 AM 19.7 67.46 0.691 7.61 324.71 0.77
8/17/2022 3:45:00 AM 19.66 67.388 0.691 7.62 332.24 1.66
8/17/2022 4:00:00 AM 19.63 67.334 0.691 7.62 331.43 1.3
8/17/2022 4:15:00 AM 19.59 67.262 0.691 7.63 333.69 1.6
8/17/2022 4:30:00 AM 19.55 67.19 0.69 7.61 333.51 1.75
8/17/2022 4:45:00 AM 19.5 67.1 0.69 7.6 334.35 2.15
8/17/2022 5:00:00 AM 19.46 67.028 0.689 7.6 333.97 1.57
8/17/2022 5:15:00 AM 19.41 66.938 0.689 7.57 335.39 1.68
8/17/2022 5:30:00 AM 19.37 66.866 0.689 7.59 335.3 1.95
8/17/2022 5:45:00 AM 19.32 66.776 0.689 7.59 335.38 1.26
8/17/2022 6:00:00 AM 19.28 66.704 0.689 7.58 336.59 2.61
8/17/2022 6:15:00 AM 19.22 66.596 0.689 7.59 333.72 1.25
8/17/2022 6:30:00 AM 19.17 66.506 0.688 7.6 333.77 0.96
8/17/2022 6:45:00 AM 19.12 66.416 0.689 7.58 333.1 0.84
8/17/2022 7:00:00 AM 19.07 66.326 0.689 7.54 333.22 0.76
8/17/2022 7:15:00 AM 19.02 66.236 0.69 7.53 333.51 0.56
8/17/2022 7:30:00 AM 18.98 66.164 0.69 7.51 333.59 0.48
8/17/2022 7:45:00 AM 18.94 66.092 0.69 7.5 331.01 0.75
8/17/2022 8:00:00 AM 18.9 66.02 0.691 7.51 329.22 0.9
8/17/2022 8:15:00 AM 18.87 65.966 0.69 7.42 325.53 0.95
8/17/2022 8:30:00 AM 18.84 65.912 0.69 7.4 328.86 0.49
8/17/2022 8:45:00 AM 18.82 65.876 0.69 7.41 324.62 0.39
8/17/2022 9:00:00 AM 18.8 65.84 0.689 7.4 323.23 0.38
8/17/2022 9:15:00 AM 18.79 65.82201 0.688 7.4 322.19 0.38
8/17/2022 9:30:00 AM 18.79 65.82201 0.688 7.4 321.16 0.82
8/17/2022 9:45:00 AM 18.79 65.82201 0.687 7.39 317.16 1.51
8/17/2022 10:00:00 AM 18.81 65.858 0.685 7.45 319.32 2.33
8/17/2022 10:15:00 AM 18.82 65.876 0.684 7.45 326.91 2.46
8/17/2022 10:30:00 AM 18.84 65.912 0.684 7.44 315.78 2.41
8/17/2022 10:45:00 AM 18.87 65.966 0.684 7.56 305.88 1.73
8/17/2022 11:00:00 AM 18.92 66.056 0.687 7.5 307.21 0.62
8/17/2022 11:15:00 AM 18.97 66.146 0.687 7.51 305.64 0.51
8/17/2022 11:30:00 AM 19.03 66.254 0.688 7.5 305.44 0.38
8/17/2022 11:45:00 AM 19.1 66.38 0.689 7.5 322.2 0.37
8/17/2022 12:00:00 PM 19.18 66.524 0.69 7.51 303.61 0.34
8/17/2022 12:15:00 PM 19.27 66.686 0.687 7.54 306.73 0.33
8/17/2022 12:30:00 PM 19.35 66.83 0.689 7.55 313.99 0.57
8/17/2022 12:45:00 PM 19.42 66.956 0.687 7.54 311.82 1.04
8/17/2022 1:00:00 PM 19.46 67.028 0.69 7.61 326.32 2.62
8/17/2022 1:15:00 PM 19.5 67.1 0.689 7.65 316.01 2.02
8/17/2022 1:30:00 PM 19.55 67.19 0.689 7.63 324.62 1.06
8/17/2022 1:45:00 PM 19.65 67.37 0.688 7.64 319.13 1.26
8/17/2022 2:00:00 PM 19.83 67.694 0.685 7.81 306.49 1.55
8/17/2022 2:15:00 PM 20.09 68.162 0.683 7.9 320.86 1.54
8/17/2022 2:30:00 PM 20.37 68.666 0.681 7.96 305.01 1.23
8/17/2022 2:45:00 PM 20.65 69.17 0.677 7.99 305.58 0.81
8/17/2022 3:00:00 PM 20.89 69.602 0.676 7.99 319.16 0.79
8/17/2022 3:15:00 PM 21.1 69.98 0.671 8.04 328.61 2.38
8/17/2022 3:30:00 PM 21.26 70.268 0.671 8.01 320.66 2.72
8/17/2022 3:45:00 PM 21.38 70.484 0.67 7.97 321.75 4.11
8/17/2022 4:00:00 PM 21.42 70.556 0.669 7.9 311.16 4.91
8/17/2022 4:15:00 PM 21.42 70.556 0.668 7.82 307.36 7.85
8/17/2022 4:30:00 PM 21.34 70.412 0.669 7.76 305.63 8.53
8/17/2022 4:45:00 PM 21.26 70.268 0.669 7.72 307.28 8.24
8/17/2022 5:00:00 PM 21.19 70.142 0.675 7.66 328.52 6.87
8/17/2022 5:15:00 PM 21.15 70.07 0.677 7.74 296.3 6.32
8/17/2022 5:30:00 PM 21.13 70.034 0.678 7.84 312.37 6.39
8/17/2022 5:45:00 PM 21.13 70.034 0.681 7.82 310.71 2.63
8/17/2022 6:00:00 PM 21.16 70.088 0.68 7.78 312.35 4.2
8/17/2022 6:15:00 PM 21.19 70.142 0.681 7.79 308.87 3.12
8/17/2022 6:30:00 PM 21.19 70.142 0.681 7.77 308.83 2.73
8/17/2022 6:45:00 PM 21.18 70.124 0.684 7.78 303.31 5.84
8/17/2022 7:00:00 PM 21.16 70.088 0.685 7.76 296.97 6.89
8/17/2022 7:15:00 PM 21.12 70.016 0.684 7.75 275.19 7.34
8/17/2022 7:30:00 PM 21.08 69.944 0.685 7.76 309.73 7.79
8/17/2022 7:45:00 PM 21.04 69.872 0.685 7.77 294.62 7.95
8/17/2022 8:00:00 PM 20.99 69.782 0.686 7.75 295.13 7.11
8/17/2022 8:15:00 PM 20.94 69.692 0.685 7.82 312.73 7.2
8/17/2022 8:30:00 PM 20.9 69.62 0.685 7.81 293.55 7.45
8/17/2022 8:45:00 PM 20.85 69.53 0.686 7.79 281.28 5.73
8/17/2022 9:00:00 PM 20.81 69.458 0.686 7.75 262.89 5.9
8/17/2022 9:15:00 PM 20.77 69.386 0.686 7.76 257.47 4.91
8/17/2022 9:30:00 PM 20.73 69.314 0.686 7.71 253.93 5.26
8/17/2022 9:45:00 PM 20.69 69.242 0.685 7.71 251.74 4.59
8/17/2022 10:00:00 PM 20.65 69.17 0.686 7.65 249.63 4.21
8/17/2022 10:15:00 PM 20.6 69.08 0.686 7.65 243.22 3.93
8/17/2022 10:30:00 PM 20.55 68.99 0.686 7.66 242.87 4.53
8/17/2022 10:45:00 PM 20.51 68.918 0.686 7.66 243.36 5.04
8/17/2022 11:00:00 PM 20.46 68.828 0.686 7.67 240.91 5.59
8/17/2022 11:15:00 PM 20.41 68.738 0.686 7.69 242.25 4.6
8/17/2022 11:30:00 PM 20.37 68.666 0.686 7.7 241.58 4.27
8/17/2022 11:45:00 PM 20.32 68.576 0.687 7.71 239.28 3.94
8/18/2022 12:00:00 AM 20.27 68.486 0.687 7.67 237.31 3.22
8/18/2022 12:15:00 AM 20.22 68.396 0.686 7.62 235.78 3.54
8/18/2022 12:30:00 AM 20.17 68.306 0.686 7.64 234.86 1.77
8/18/2022 12:45:00 AM 20.13 68.234 0.685 7.62 233.36 2.23
8/18/2022 1:00:00 AM 20.09 68.162 0.686 7.65 232.84 1.39
8/18/2022 1:15:00 AM 20.06 68.108 0.686 7.64 231.13 1.01
8/18/2022 1:30:00 AM 20.02 68.036 0.685 7.67 234.06 1.16
8/18/2022 1:45:00 AM 19.99 67.982 0.685 7.66 230.88 2.01
8/18/2022 2:00:00 AM 19.96 67.92799 0.686 7.67 227.8 2.17
8/18/2022 2:15:00 AM 19.92 67.856 0.686 7.63 213.22 1.56
8/18/2022 2:30:00 AM 19.89 67.802 0.684 7.67 231.37 2.9
8/18/2022 2:45:00 AM 19.85 67.73 0.685 7.63 213.88 3.03
8/18/2022 3:00:00 AM 19.82 67.676 0.685 7.63 211.47 2.08
8/18/2022 3:15:00 AM 19.79 67.622 0.685 7.64 213.58 2.16
8/18/2022 3:30:00 AM 19.75 67.55 0.685 7.62 211.84 1.69
8/18/2022 3:45:00 AM 19.72 67.496 0.684 7.6 209.78 0.82
8/18/2022 4:00:00 AM 19.68 67.424 0.685 7.59 212.4 1.04
8/18/2022 4:15:00 AM 19.65 67.37 0.685 7.6 212.38 0.45
8/18/2022 4:30:00 AM 19.61 67.298 0.685 7.67 224.59 3.05
8/18/2022 4:45:00 AM 19.57 67.226 0.685 7.62 218.14 0.43
8/18/2022 5:00:00 AM 19.53 67.154 0.685 7.6 210.07 0.92
8/18/2022 5:15:00 AM 19.49 67.082 0.684 7.57 209.34 1.61
8/18/2022 5:30:00 AM 19.45 67.01 0.684 7.56 209.32 1.59
8/18/2022 5:45:00 AM 19.4 66.92 0.684 7.55 206.76 1.11
8/18/2022 6:00:00 AM 19.35 66.83 0.683 7.56 208.71 2.28
8/18/2022 6:15:00 AM 19.3 66.74 0.683 7.64 205.21 2.18
8/18/2022 6:30:00 AM 19.24 66.632 0.683 7.65 205.79 1.85
8/18/2022 6:45:00 AM 19.19 66.542 0.682 7.65 205.16 2.73
8/18/2022 7:00:00 AM 19.13 66.434 0.683 7.65 206.57 2.31
8/18/2022 7:15:00 AM 19.08 66.344 0.682 7.64 203.65 2.39
8/18/2022 7:30:00 AM 19.02 66.236 0.682 7.65 202.4 2.08
8/18/2022 7:45:00 AM 18.97 66.146 0.681 7.64 200.33 2.38
8/18/2022 8:00:00 AM 18.92 66.056 0.68 7.64 200.97 1.79
8/18/2022 8:15:00 AM 18.87 65.966 0.68 7.64 218.89 1.24
8/18/2022 8:30:00 AM 18.83 65.894 0.679 7.63 202.02 1.1
8/18/2022 8:45:00 AM 18.8 65.84 0.679 7.6 202.96 1.7
8/18/2022 9:00:00 AM 18.77 65.786 0.678 7.6 214.98 1.57
8/18/2022 9:15:00 AM 18.75 65.75 0.677 7.59 201.5 2.22
8/18/2022 9:30:00 AM 18.73 65.714 0.676 7.58 219.67 3.06
8/18/2022 9:45:00 AM 18.71 65.67799 0.675 7.59 202.03 2.33
8/18/2022 10:00:00 AM 18.7 65.66 0.675 7.59 207.5 2.16
8/18/2022 10:15:00 AM 18.69 65.642 0.674 7.57 203.93 3.19
8/18/2022 10:30:00 AM 18.69 65.642 0.674 7.54 201.25 2.69
8/18/2022 10:45:00 AM 18.71 65.67799 0.674 7.54 200.24 3.24
8/18/2022 11:00:00 AM 18.76 65.768 0.673 7.56 199.34 2.83
8/18/2022 11:15:00 AM 18.84 65.912 0.672 7.59 209.04 1.1
8/18/2022 11:30:00 AM 18.95 66.11 0.671 7.66 216.27 0.55
8/18/2022 11:45:00 AM 19.09 66.362 0.67 7.7 195.6 0.55
8/18/2022 12:00:00 PM 19.25 66.65 0.669 7.74 195.35 0.84
8/18/2022 12:15:00 PM 19.42 66.956 0.668 7.79 194.76 0.94
8/18/2022 12:30:00 PM 19.6 67.28 0.666 7.81 192.45 0.97
8/18/2022 12:45:00 PM 19.8 67.64 0.663 7.86 192.52 0.8
8/18/2022 1:00:00 PM 20.01 68.018 0.663 7.88 201.49 0.52
8/18/2022 1:15:00 PM 20.24 68.432 0.663 7.91 200.66 0.68
8/18/2022 1:30:00 PM 20.49 68.882 0.661 7.94 199.36 0.54
8/18/2022 1:45:00 PM 20.72 69.296 0.661 7.97 202.16 0.56
8/18/2022 2:00:00 PM 20.93 69.674 0.659 7.98 212.75 0.76
8/18/2022 2:15:00 PM 21.11 69.998 0.658 7.99 210.21 3.7
8/18/2022 2:30:00 PM 21.26 70.268 0.657 7.99 208.08 4.6
8/18/2022 2:45:00 PM 21.36 70.448 0.657 8 209.36 6.38
8/18/2022 3:00:00 PM 21.39 70.502 0.657 7.99 209.37 7.56
8/18/2022 3:15:00 PM 21.37 70.466 0.657 7.95 206.87 9.12
8/18/2022 3:30:00 PM 21.34 70.412 0.656 7.92 206.03 8.75
8/18/2022 3:45:00 PM 21.32 70.376 0.656 7.93 203.51 6.39
8/18/2022 4:00:00 PM 21.34 70.412 0.656 7.95 205.45 5.21
8/18/2022 4:15:00 PM 21.39 70.502 0.655 8 200.43 3.4
8/18/2022 4:30:00 PM 21.47 70.646 0.655 8.06 198.28 3.7
8/18/2022 4:45:00 PM 21.56 70.808 0.654 8.08 196.47 5.93
8/18/2022 5:00:00 PM 21.63 70.934 0.653 8.06 195.32 6.39
8/18/2022 5:15:00 PM 21.67 71.006 0.654 8.01 197.09 6.91
8/18/2022 5:30:00 PM 21.69 71.042 0.655 8.01 195.96 7.32
8/18/2022 5:45:00 PM 21.69 71.042 0.656 8.01 195.94 7.47
8/18/2022 6:00:00 PM 21.69 71.042 0.656 8.01 212.03 7.39
8/18/2022 6:15:00 PM 21.71 71.078 0.656 8.07 209.58 7.43
8/18/2022 6:30:00 PM 21.71 71.078 0.655 8.05 214.31 7.89
8/18/2022 6:45:00 PM 21.71 71.078 0.654 8.06 237.14 9.12
8/18/2022 7:00:00 PM 21.69 71.042 0.657 8.04 224.27 8.97
8/18/2022 7:15:00 PM 21.67 71.006 0.657 8.06 289.27 9.73
8/18/2022 7:30:00 PM 21.65 70.97 0.657 7.98 276.48 9.2
8/18/2022 7:45:00 PM 21.61 70.898 0.658 7.91 268.3 8.74
8/18/2022 8:00:00 PM 21.56 70.808 0.66 7.88 264.07 7.66
8/18/2022 8:15:00 PM 21.5 70.7 0.66 7.88 258.64 4.71
8/18/2022 8:30:00 PM 21.44 70.592 0.66 7.87 258.26 3.73
8/18/2022 8:45:00 PM 21.38 70.484 0.66 7.86 260.12 3.99
8/18/2022 9:00:00 PM 21.32 70.376 0.66 7.74 243.66 3.44
8/18/2022 9:15:00 PM 21.26 70.268 0.66 7.73 241.93 4.35
8/18/2022 9:30:00 PM 21.2 70.16 0.661 7.66 240.11 6.44
8/18/2022 9:45:00 PM 21.13 70.034 0.661 7.72 249.65 5.78
8/18/2022 10:00:00 PM 21.07 69.926 0.662 7.83 245.99 7.44
8/18/2022 10:15:00 PM 21.01 69.818 0.662 7.79 246.26 7.66
8/18/2022 10:30:00 PM 20.95 69.71 0.662 7.88 243.26 7.82
8/18/2022 10:45:00 PM 20.9 69.62 0.663 7.83 243.82 7.75
8/18/2022 11:00:00 PM 20.84 69.512 0.663 7.81 241.19 7.65
8/18/2022 11:15:00 PM 20.79 69.422 0.663 7.83 255.72 7.4
8/18/2022 11:30:00 PM 20.74 69.332 0.663 7.75 254.15 6.74
8/18/2022 11:45:00 PM 20.7 69.26 0.663 7.77 249.22 7.03
8/19/2022 12:00:00 AM 20.65 69.17 0.664 7.79 245.78 7.01
8/19/2022 12:15:00 AM 20.61 69.098 0.664 7.78 246.28 6.93
8/19/2022 12:30:00 AM 20.56 69.008 0.664 7.76 249.21 6.68
8/19/2022 12:45:00 AM 20.51 68.918 0.664 7.74 247.94 5.95
8/19/2022 1:00:00 AM 20.47 68.846 0.664 7.77 249.08 6.4
8/19/2022 1:15:00 AM 20.42 68.756 0.663 7.77 246.45 6.49
8/19/2022 1:30:00 AM 20.38 68.684 0.664 7.77 246.09 6.17
8/19/2022 1:45:00 AM 20.33 68.594 0.664 7.77 243.04 5.95
8/19/2022 2:00:00 AM 20.29 68.522 0.664 7.77 245.1 5.91
8/19/2022 2:15:00 AM 20.25 68.45 0.665 7.77 244.85 5.48
8/19/2022 2:30:00 AM 20.2 68.36 0.664 7.75 242.09 5.74
8/19/2022 2:45:00 AM 20.15 68.27 0.664 7.69 246.49 5.93
8/19/2022 3:00:00 AM 20.11 68.198 0.664 7.7 260.62 6.04
8/19/2022 3:15:00 AM 20.06 68.108 0.664 7.69 255.05 5.55
8/19/2022 3:30:00 AM 20.01 68.018 0.664 7.69 264.35 5.65
8/19/2022 3:45:00 AM 19.96 67.92799 0.664 7.68 268.05 5.62
8/19/2022 4:00:00 AM 19.91 67.838 0.663 7.65 275.67 5.04
8/19/2022 4:15:00 AM 19.86 67.748 0.663 7.7 255.37 5.36
8/19/2022 4:30:00 AM 19.82 67.676 0.662 7.7 239.86 4.95
8/19/2022 4:45:00 AM 19.77 67.586 0.662 7.68 250.62 4.62
8/19/2022 5:00:00 AM 19.73 67.514 0.661 7.7 254.34 4.96
8/19/2022 5:15:00 AM 19.68 67.424 0.661 7.69 303.02 3.64
8/19/2022 5:30:00 AM 19.64 67.352 0.66 7.67 308.13 3.59
8/19/2022 5:45:00 AM 19.59 67.262 0.662 7.67 317.71 4.03
8/19/2022 6:00:00 AM 19.55 67.19 0.661 7.65 488.16 2.42
8/19/2022 6:15:00 AM 19.5 67.1 0.661 7.62 445.44 1.87
8/19/2022 6:30:00 AM 19.45 67.01 0.661 7.66 435.4 2.82
8/19/2022 6:45:00 AM 19.41 66.938 0.661 7.61 443.18 3.71
8/19/2022 7:00:00 AM 19.36 66.848 0.661 7.6 440.99 3.17
8/19/2022 7:15:00 AM 19.32 66.776 0.661 7.63 427.35 2.99
8/19/2022 7:30:00 AM 19.27 66.686 0.66 7.61 408.69 3.14
8/19/2022 7:45:00 AM 19.24 66.632 0.648 7.64 421.61 2.71
8/19/2022 8:00:00 AM 19.21 66.578 0.648 7.65 376.84 3.13
8/19/2022 8:15:00 AM 19.17 66.506 0.65 7.66 484.31 3.3
8/19/2022 8:30:00 AM 19.13 66.434 0.654 7.67 528.19 2.41
8/19/2022 8:45:00 AM 19.11 66.398 0.646 7.66 485.2 1.76
8/19/2022 9:00:00 AM 19.09 66.362 0.644 7.66 470.25 3.06
8/19/2022 9:15:00 AM 19.06 66.308 0.646 7.67 455.67 3.69
8/19/2022 9:30:00 AM 19.05 66.29 0.645 7.6 396.94 2.64
8/19/2022 9:45:00 AM 19.03 66.254 0.644 7.68 439.21 2.35
8/19/2022 10:00:00 AM 19.02 66.236 0.644 7.66 433.77 3.08
8/19/2022 10:15:00 AM 19 66.2 0.643 7.6 425.38 2.43
8/19/2022 10:30:00 AM 19 66.2 0.643 7.48 424.19 1.34
8/19/2022 10:45:00 AM 19.02 66.236 0.643 7.59 417.04 1.61
8/19/2022 11:00:00 AM 19.07 66.326 0.655 7.64 410.53 0.75
8/19/2022 11:15:00 AM 19.15 66.47 0.658 7.68 406.87 0.4
8/19/2022 11:30:00 AM 19.27 66.686 0.655 7.7 401.52 0.43
8/19/2022 11:45:00 AM 19.41 66.938 0.654 7.73 407.2 0.49
8/19/2022 12:00:00 PM 19.58 67.244 0.652 7.75 404.23 0.54
8/19/2022 12:15:00 PM 19.76 67.568 0.65 7.79 402.55 0.44
8/19/2022 12:30:00 PM 19.95 67.91 0.649 7.81 397.47 0.42
8/19/2022 12:45:00 PM 20.13 68.234 0.649 7.83 395.81 0.42
8/19/2022 1:00:00 PM 20.34 68.612 0.647 7.85 391.38 0.47
8/19/2022 1:15:00 PM 20.55 68.99 0.647 7.87 388.99 0.47
8/19/2022 1:30:00 PM 20.78 69.404 0.647 7.89 382.14 0.39
8/19/2022 1:45:00 PM 21.04 69.872 0.646 7.92 386.4 0.73
8/19/2022 2:00:00 PM 21.25 70.25 0.643 7.94 381.16 1.44
8/19/2022 2:15:00 PM 21.4 70.52 0.645 7.95 362.21 2.09
8/19/2022 2:30:00 PM 21.55 70.79 0.644 7.95 349.89 0.75
8/19/2022 2:45:00 PM 21.69 71.042 0.644 7.97 345.02 1.43
8/19/2022 3:00:00 PM 21.82 71.276 0.643 7.98 341.48 2.93
8/19/2022 3:15:00 PM 21.98 71.564 0.642 7.98 337.32 2.53
8/19/2022 3:30:00 PM 22.13 71.834 0.642 7.99 333.27 3.67
8/19/2022 3:45:00 PM 22.26 72.068 0.641 8 330.16 5.56
8/19/2022 4:00:00 PM 22.36 72.248 0.643 8 326.33 5.32
8/19/2022 4:15:00 PM 22.45 72.41 0.643 8 323.17 5.52
8/19/2022 4:30:00 PM 22.51 72.518 0.645 8.01 333.36 6.64
8/19/2022 4:45:00 PM 22.54 72.57201 0.644 8.01 328.32 6.16
8/19/2022 5:00:00 PM 22.6 72.68 0.644 8 328.27 6.33
8/19/2022 5:15:00 PM 22.62 72.716 0.644 8.01 328.7 8.39
8/19/2022 5:30:00 PM 22.64 72.752 0.646 7.93 323.65 7.34
8/19/2022 5:45:00 PM 22.67 72.806 0.645 7.83 321.38 6.67
8/19/2022 6:00:00 PM 22.67 72.806 0.645 7.85 318.94 7.07
8/19/2022 6:15:00 PM 22.66 72.788 0.646 7.85 316.91 6.61
8/19/2022 6:30:00 PM 22.65 72.77 0.646 7.83 312.89 7.23
8/19/2022 6:45:00 PM 22.63 72.734 0.646 7.84 308.21 7.33
8/19/2022 7:00:00 PM 22.59 72.662 0.646 7.82 308.03 7.97
8/19/2022 7:15:00 PM 22.55 72.59 0.644 7.79 301.16 7.27
8/19/2022 7:30:00 PM 22.51 72.518 0.645 7.78 302.25 6.03
8/19/2022 7:45:00 PM 22.45 72.41 0.644 7.77 300.7 7.07
8/19/2022 8:00:00 PM 22.4 72.32 0.642 7.76 299.88 6.11
8/19/2022 8:15:00 PM 22.34 72.212 0.643 7.76 298.87 5.94
8/19/2022 8:30:00 PM 22.28 72.104 0.644 7.7 295.36 6.8
8/19/2022 8:45:00 PM 22.22 71.996 0.645 7.78 295.13 6.58
8/19/2022 9:00:00 PM 22.15 71.87 0.643 7.84 302.47 7.41
8/19/2022 9:15:00 PM 22.08 71.744 0.645 7.77 301.11 7.03
8/19/2022 9:30:00 PM 22.01 71.618 0.646 7.78 300.69 7.02
8/19/2022 9:45:00 PM 21.95 71.51 0.646 7.76 298.32 6.98
8/19/2022 10:00:00 PM 21.88 71.384 0.647 7.72 296.72 6.66
8/19/2022 10:15:00 PM 21.82 71.276 0.644 7.74 295.7 6.04
8/19/2022 10:30:00 PM 21.76 71.168 0.645 7.72 292.54 6.34
8/19/2022 10:45:00 PM 21.71 71.078 0.645 7.73 291.99 6.28
8/19/2022 11:00:00 PM 21.65 70.97 0.646 7.73 290.23 6.58
8/19/2022 11:15:00 PM 21.6 70.88 0.647 7.73 289.62 6.47
8/19/2022 11:30:00 PM 21.54 70.772 0.646 7.6 287.42 6.38
8/19/2022 11:45:00 PM 21.49 70.682 0.647 7.65 285.12 6.39
8/20/2022 12:00:00 AM 21.44 70.592 0.648 7.65 284.87 6.68
8/20/2022 12:15:00 AM 21.39 70.502 0.648 7.56 283.23 6.09
8/20/2022 12:30:00 AM 21.34 70.412 0.653 7.49 281.27 6.49
8/20/2022 12:45:00 AM 21.3 70.34 0.649 7.5 273.51 4.05
8/20/2022 1:00:00 AM 21.25 70.25 0.653 7.45 272.63 4.38
8/20/2022 1:15:00 AM 21.21 70.17799 0.65 7.39 266.34 3.06
8/20/2022 1:30:00 AM 21.17 70.106 0.649 7.55 265.48 3.23
8/20/2022 1:45:00 AM 21.14 70.052 0.647 7.42 264.82 4.7
8/20/2022 2:00:00 AM 21.1 69.98 0.649 7.46 268.47 5.35
8/20/2022 2:15:00 AM 21.06 69.908 0.649 7.39 266.14 5.17
8/20/2022 2:30:00 AM 21.03 69.854 0.65 7.46 267.89 4.86
8/20/2022 2:45:00 AM 20.99 69.782 0.648 7.47 267.4 4.83
8/20/2022 3:00:00 AM 20.94 69.692 0.652 7.46 274.03 5.37
8/20/2022 3:15:00 AM 20.9 69.62 0.649 7.55 275.57 4.2
8/20/2022 3:30:00 AM 20.86 69.548 0.652 7.57 273.58 5.69
8/20/2022 3:45:00 AM 20.81 69.458 0.653 7.59 274.53 5.65
8/20/2022 4:00:00 AM 20.76 69.368 0.655 7.61 272.05 5.72
8/20/2022 4:15:00 AM 20.72 69.296 0.647 7.6 272.54 5.51
8/20/2022 4:30:00 AM 20.67 69.206 0.647 7.6 272.58 5.11
8/20/2022 4:45:00 AM 20.62 69.116 0.648 7.59 272.59 5.28
8/20/2022 5:00:00 AM 20.57 69.026 0.648 7.6 273.27 5.53
8/20/2022 5:15:00 AM 20.51 68.918 0.647 7.59 285.78 4.88
8/20/2022 5:30:00 AM 20.46 68.828 0.646 7.59 276.03 5.46
8/20/2022 5:45:00 AM 20.41 68.738 0.645 7.59 282.98 4.75
8/20/2022 6:00:00 AM 20.35 68.63 0.645 7.59 282.36 5.37
8/20/2022 6:15:00 AM 20.29 68.522 0.647 7.59 336.05 5.13
8/20/2022 6:30:00 AM 20.23 68.414 0.644 7.59 319.49 5.21
8/20/2022 6:45:00 AM 20.16 68.288 0.645 7.6 315.94 5.26
8/20/2022 7:00:00 AM 20.1 68.18 0.644 7.59 316.49 5.16
8/20/2022 7:15:00 AM 20.04 68.07201 0.644 7.59 315.06 5.09
8/20/2022 7:30:00 AM 19.98 67.964 0.646 7.59 390.75 4.87
8/20/2022 7:45:00 AM 19.93 67.874 0.645 7.59 374.52 4.85
8/20/2022 8:00:00 AM 19.88 67.784 0.645 7.58 675.77 4.78
8/20/2022 8:15:00 AM 19.83 67.694 0.646 7.57 1411.7 4.46
8/20/2022 8:30:00 AM 19.79 67.622 0.646 7.57 1474.26 4.85
8/20/2022 8:45:00 AM 19.75 67.55 0.645 7.56 1458.53 4.25
8/20/2022 9:00:00 AM 19.71 67.478 0.645 7.55 1426.2 4.21
8/20/2022 9:15:00 AM 19.69 67.442 0.646 7.55 1246.14 3.66
8/20/2022 9:30:00 AM 19.68 67.424 0.645 7.56 1360.28 2.49
8/20/2022 9:45:00 AM 19.67 67.406 0.646 7.55 1345.4 1.93
8/20/2022 10:00:00 AM 19.67 67.406 0.645 7.54 1342.5 1.45
8/20/2022 10:15:00 AM 19.67 67.406 0.647 7.53 1334.9 1.46
8/20/2022 10:30:00 AM 19.68 67.424 0.649 7.53 5155.26 2.59
8/20/2022 10:45:00 AM 19.71 67.478 0.65 7.52 5144.39 0.95
8/20/2022 11:00:00 AM 19.75 67.55 0.65 7.54 3811.48 1.05
8/20/2022 11:15:00 AM 19.82 67.676 0.649 7.55 4654.33 0.45
8/20/2022 11:30:00 AM 19.93 67.874 0.648 7.57 4403.76 0.37
8/20/2022 11:45:00 AM 20.07 68.126 0.65 7.59 4243.07 0.49
8/20/2022 12:00:00 PM 20.21 68.378 0.651 7.63 4145.05 3.34
8/20/2022 12:15:00 PM 20.32 68.576 0.65 7.63 4172.64 4.4
8/20/2022 12:30:00 PM 20.41 68.738 0.65 7.64 4207.44 4.74
8/20/2022 12:45:00 PM 20.47 68.846 0.648 7.64 4252.44 4.7
8/20/2022 1:00:00 PM 20.56 69.008 0.648 7.64 4246.1 4.07
8/20/2022 1:15:00 PM 20.64 69.152 0.649 7.67 4263.1 4.58
8/20/2022 1:30:00 PM 20.74 69.332 0.65 7.69 3585.47 4.59
8/20/2022 1:45:00 PM 20.89 69.602 0.65 7.73 3622.23 5.19
8/20/2022 2:00:00 PM 21.08 69.944 0.649 7.78 3658.29 6.58
8/20/2022 2:15:00 PM 21.31 70.358 0.649 7.82 3622.25 6.9
8/20/2022 2:30:00 PM 21.53 70.754 0.651 7.85 3569.79 7.34
8/20/2022 2:45:00 PM 21.73 71.114 0.652 7.87 3598.11 7.94
8/20/2022 3:00:00 PM 21.92 71.456 0.653 7.88 3691.22 8.93
8/20/2022 3:15:00 PM 22.04 71.672 0.653 7.9 3756.48 8.21
8/20/2022 3:30:00 PM 22.15 71.87 0.653 7.91 3855.48 7.98
8/20/2022 3:45:00 PM 22.23 72.014 0.654 7.9 3945.45 7.96
8/20/2022 4:00:00 PM 22.27 72.086 0.655 7.9 4041.61 8.18
8/20/2022 4:15:00 PM 22.32 72.176 0.658 7.88 4135.96 8.18
8/20/2022 4:30:00 PM 22.36 72.248 0.658 7.89 4219.76 7.79
8/20/2022 4:45:00 PM 22.41 72.338 0.659 7.87 4295.08 7.05
8/20/2022 5:00:00 PM 22.45 72.41 0.661 7.88 4403.88 7.24
8/20/2022 5:15:00 PM 22.5 72.5 0.662 7.89 4493.34 6.94
8/20/2022 5:30:00 PM 22.54 72.57201 0.663 7.89 4385.56 7.7
8/20/2022 5:45:00 PM 22.55 72.59 0.661 7.88 4576.2 7.42
8/20/2022 6:00:00 PM 22.57 72.626 0.66 7.94 4730.37 7.28
8/20/2022 6:15:00 PM 22.57 72.626 0.659 7.87 4848.8 7.32
8/20/2022 6:30:00 PM 22.57 72.626 0.658 7.84 4882.52 7.08
8/20/2022 6:45:00 PM 22.55 72.59 0.659 7.84 4975.59 7.14
8/20/2022 7:00:00 PM 22.53 72.554 0.66 7.78 5078.24 6.91
8/20/2022 7:15:00 PM 22.5 72.5 0.66 7.74 5150.21 6.44
8/20/2022 7:30:00 PM 22.47 72.446 0.661 7.86 5236.38 5.67
8/20/2022 7:45:00 PM 22.44 72.392 0.66 7.83 5263.3 5.88
8/20/2022 8:00:00 PM 22.41 72.338 0.662 7.87 5269.27 5.81
8/20/2022 8:15:00 PM 22.37 72.266 0.664 7.85 5291.3 5.71
8/20/2022 8:30:00 PM 22.34 72.212 0.664 7.74 5376.21 5.22
8/20/2022 8:45:00 PM 22.3 72.14 0.664 7.73 5661.97 5.75
8/20/2022 9:00:00 PM 22.26 72.068 0.664 7.75 4906.05 6.57
8/20/2022 9:15:00 PM 22.21 71.978 0.664 7.69 5461.26 6.27
8/20/2022 9:30:00 PM 22.16 71.888 0.664 7.72 5699.86 6.17
8/20/2022 9:45:00 PM 22.12 71.816 0.664 7.75 5977.28 6.58
8/20/2022 10:00:00 PM 22.07 71.726 0.664 7.67 5904.51 4.97
8/20/2022 10:15:00 PM 22.03 71.654 0.663 7.66 5970.48 4.72
8/20/2022 10:30:00 PM 21.99 71.582 0.662 7.64 5936.62 4.08
8/20/2022 10:45:00 PM 21.95 71.51 0.662 7.66 6082.98 3.65
8/20/2022 11:00:00 PM 21.9 71.42 0.662 7.63 6159.61 3.59
8/20/2022 11:15:00 PM 21.86 71.348 0.662 7.62 6219.38 3.07
8/20/2022 11:30:00 PM 21.82 71.276 0.662 7.62 6321.49 2.73
8/20/2022 11:45:00 PM 21.78 71.204 0.662 7.6 6256.59 2.42
8/21/2022 12:00:00 AM 21.74 71.132 0.662 7.62 6176.76 4.24
8/21/2022 12:15:00 AM 21.7 71.06 0.662 7.67 5997.3 3.76
8/21/2022 12:30:00 AM 21.66 70.988 0.662 7.66 6101.62 3.14
8/21/2022 12:45:00 AM 21.61 70.898 0.662 7.64 6178.97 3.44
8/21/2022 1:00:00 AM 21.57 70.826 0.661 7.62 6273.81 3.43
8/21/2022 1:15:00 AM 21.53 70.754 0.66 7.64 6293.61 3.71
8/21/2022 1:30:00 AM 21.49 70.682 0.659 7.64 6343.99 3.48
8/21/2022 1:45:00 AM 21.45 70.61 0.657 7.64 6436.35 3.33
8/21/2022 2:00:00 AM 21.41 70.538 0.657 7.62 6479.44 3.12
8/21/2022 2:15:00 AM 21.37 70.466 0.657 7.63 5737.01 3.73
8/21/2022 2:30:00 AM 21.33 70.394 0.656 7.62 4908.7 4.33
8/21/2022 2:45:00 AM 21.29 70.32201 0.656 7.61 5628.32 4.11
8/21/2022 3:00:00 AM 21.26 70.268 0.656 7.59 5679.75 3.41
8/21/2022 3:15:00 AM 21.22 70.196 0.656 7.59 5807.37 3.16
8/21/2022 3:30:00 AM 21.19 70.142 0.656 7.58 5925.49 2.68
8/21/2022 3:45:00 AM 21.15 70.07 0.656 7.59 5809.06 3.67
8/21/2022 4:00:00 AM 21.12 70.016 0.657 7.58 5974.38 3.51
8/21/2022 4:15:00 AM 21.08 69.944 0.657 7.61 6152.21 3.21
8/21/2022 4:30:00 AM 21.05 69.89 0.656 7.55 6202.13 3.48
8/21/2022 4:45:00 AM 21.02 69.836 0.656 7.6 6302.35 3.28
8/21/2022 5:00:00 AM 20.98 69.764 0.656 7.55 6319.23 3
8/21/2022 5:15:00 AM 20.95 69.71 0.656 7.54 6280.34 2.77
8/21/2022 5:30:00 AM 20.91 69.638 0.656 7.53 6339.12 2.75
8/21/2022 5:45:00 AM 20.88 69.584 0.656 7.53 6277.53 2.66
8/21/2022 6:00:00 AM 20.84 69.512 0.656 7.52 6209.94 2.16
8/21/2022 6:15:00 AM 20.82 69.476 0.656 7.52 6237.82 2.18
8/21/2022 6:30:00 AM 20.79 69.422 0.656 7.51 6333.6 1.15
8/21/2022 6:45:00 AM 20.76 69.368 0.656 7.51 6239.98 1.34
8/21/2022 7:00:00 AM 20.74 69.332 0.657 7.51 6145.92 1.16
8/21/2022 7:15:00 AM 20.71 69.278 0.657 7.5 5995.17 1.43
8/21/2022 7:30:00 AM 20.69 69.242 0.657 7.5 5964.36 1.18
8/21/2022 7:45:00 AM 20.66 69.188 0.657 7.52 5951.85 1.2
8/21/2022 8:00:00 AM 20.63 69.134 0.657 7.52 5946.74 1.15
8/21/2022 8:15:00 AM 20.61 69.098 0.658 7.51 6073.03 1.57
8/21/2022 8:30:00 AM 20.59 69.062 0.658 7.52 6155.51 2.3
8/21/2022 8:45:00 AM 20.57 69.026 0.658 7.52 6110.46 1.22
8/21/2022 9:00:00 AM 20.55 68.99 0.659 7.54 6100.69 1.73
8/21/2022 9:15:00 AM 20.53 68.954 0.659 7.53 6141.73 2.19
8/21/2022 9:30:00 AM 20.52 68.936 0.659 7.52 6107.32 0.77
8/21/2022 9:45:00 AM 20.51 68.918 0.659 7.54 6128.03 1.13
8/21/2022 10:00:00 AM 20.51 68.918 0.659 7.56 6162.15 1.89
8/21/2022 10:15:00 AM 20.52 68.936 0.66 7.56 6661.96 2.04
8/21/2022 10:30:00 AM 20.53 68.954 0.66 7.56 6689.93 2.57
8/21/2022 10:45:00 AM 20.57 69.026 0.66 7.61 6186.3 3.33
8/21/2022 11:00:00 AM 20.63 69.134 0.661 7.59 6187.67 0.89
8/21/2022 11:15:00 AM 20.7 69.26 0.661 7.61 6287.18 0.54
8/21/2022 11:30:00 AM 20.77 69.386 0.661 7.61 6258.24 1.19
8/21/2022 11:45:00 AM 20.83 69.494 0.662 7.62 5752.44 1.92
8/21/2022 12:00:00 PM 20.89 69.602 0.66 7.64 6189.75 1.95
8/21/2022 12:15:00 PM 20.96 69.728 0.657 7.66 6413.65 1.83
8/21/2022 12:30:00 PM 21.05 69.89 0.656 7.71 6437.72 1.48
8/21/2022 12:45:00 PM 21.15 70.07 0.655 7.72 6462 2.66
8/21/2022 1:00:00 PM 21.27 70.286 0.655 7.75 6404.59 2.93
8/21/2022 1:15:00 PM 21.4 70.52 0.655 7.78 6467.67 3.52
8/21/2022 1:30:00 PM 21.53 70.754 0.656 7.81 6489.93 4.56
8/21/2022 1:45:00 PM 21.67 71.006 0.656 7.82 6561.66 4.66
8/21/2022 2:00:00 PM 21.78 71.204 0.655 7.85 6560.32 5.92
8/21/2022 2:15:00 PM 21.88 71.384 0.654 7.85 6486.72 5.99
8/21/2022 2:30:00 PM 21.94 71.492 0.654 7.84 6833.73 5.87
8/21/2022 2:45:00 PM 21.97 71.546 0.654 7.84 6958.22 6.7
8/21/2022 3:00:00 PM 21.95 71.51 0.654 7.76 6769.14 6.85
8/21/2022 3:15:00 PM 21.91 71.438 0.655 7.74 6942.31 6.73
8/21/2022 3:30:00 PM 21.86 71.348 0.655 7.71 7187.69 6.53
8/21/2022 3:45:00 PM 21.8 71.24 0.656 7.71 6959.71 6.39
8/21/2022 4:00:00 PM 21.75 71.15 0.656 7.72 7061.99 5.47
8/21/2022 4:15:00 PM 21.69 71.042 0.657 7.74 6119.69 6.61
8/21/2022 4:30:00 PM 21.64 70.952 0.657 7.67 5767.5 5.2
8/21/2022 4:45:00 PM 21.6 70.88 0.658 7.7 5628.95 5.21
8/21/2022 5:00:00 PM 21.59 70.862 0.658 7.74 5976.54 4.79
8/21/2022 5:15:00 PM 21.6 70.88 0.658 7.77 5941.11 5.11
8/21/2022 5:30:00 PM 21.63 70.934 0.659 7.78 5946.81 4.59
8/21/2022 5:45:00 PM 21.67 71.006 0.659 7.8 5984.02 5.09
8/21/2022 6:00:00 PM 21.69 71.042 0.659 7.81 5701.61 6.08
8/21/2022 6:15:00 PM 21.71 71.078 0.658 7.8 2149.13 5.87
8/21/2022 6:30:00 PM 21.73 71.114 0.658 7.81 3206.53 5.88
8/21/2022 6:45:00 PM 21.73 71.114 0.658 7.8 3417.78 5.36
8/21/2022 7:00:00 PM 21.72 71.096 0.658 7.78 3819.22 5.49
8/21/2022 7:15:00 PM 21.71 71.078 0.658 7.76 3948.61 4.87
8/21/2022 7:30:00 PM 21.69 71.042 0.659 7.82 3690.78 5
8/21/2022 7:45:00 PM 21.66 70.988 0.657 7.74 4048.45 5.26
8/21/2022 8:00:00 PM 21.63 70.934 0.658 7.72 4155.65 5.21
8/21/2022 8:15:00 PM 21.6 70.88 0.658 7.74 4263.23 5.07
8/21/2022 8:30:00 PM 21.56 70.808 0.658 7.72 4225.29 5.34
8/21/2022 8:45:00 PM 21.53 70.754 0.658 7.7 4307.19 4.79
8/21/2022 9:00:00 PM 21.49 70.682 0.658 7.67 4340.87 4.67
8/21/2022 9:15:00 PM 21.46 70.628 0.658 7.67 4506.34 3.83
8/21/2022 9:30:00 PM 21.42 70.556 0.658 7.69 4512.22 4.33
8/21/2022 9:45:00 PM 21.39 70.502 0.658 7.75 4395.19 4.27
8/21/2022 10:00:00 PM 21.36 70.448 0.658 7.68 4738.8 4.03
8/21/2022 10:15:00 PM 21.33 70.394 0.658 7.66 4914.34 3.49
8/21/2022 10:30:00 PM 21.3 70.34 0.658 7.65 4805.28 3.6
8/21/2022 10:45:00 PM 21.27 70.286 0.658 7.66 4852.11 3.52
8/21/2022 11:00:00 PM 21.25 70.25 0.656 7.65 5125.76 3.13
8/21/2022 11:15:00 PM 21.22 70.196 0.654 7.63 4964.82 2.68
8/21/2022 11:30:00 PM 21.2 70.16 0.654 7.64 4907.17 2.53
8/21/2022 11:45:00 PM 21.18 70.124 0.653 7.63 5247.42 2.55
8/22/2022 12:00:00 AM 21.17 70.106 0.654 7.61 5304.71 1.44
8/22/2022 12:15:00 AM 21.15 70.07 0.654 7.65 5331.23 1.46
8/22/2022 12:30:00 AM 21.13 70.034 0.653 7.65 5238.14 3.19
8/22/2022 12:45:00 AM 21.12 70.016 0.654 7.6 5532.17 2.79
8/22/2022 1:00:00 AM 21.11 69.998 0.654 7.61 5361.69 2.76
8/22/2022 1:15:00 AM 21.1 69.98 0.655 7.58 5299.65 3.59
8/22/2022 1:30:00 AM 21.09 69.962 0.656 7.56 3976.81 2.94
8/22/2022 1:45:00 AM 21.08 69.944 0.656 7.57 3737.61 1.9
8/22/2022 2:00:00 AM 21.06 69.908 0.657 7.55 3886.97 1.64
8/22/2022 2:15:00 AM 21.05 69.89 0.657 7.54 3920.49 2.2
8/22/2022 2:30:00 AM 21.04 69.872 0.658 7.55 4135.42 2.06
8/22/2022 2:45:00 AM 21.02 69.836 0.659 7.58 4348.17 2.12
8/22/2022 3:00:00 AM 21.01 69.818 0.659 7.56 4368.9 1.83
8/22/2022 3:15:00 AM 20.99 69.782 0.66 7.57 4666.29 1.71
8/22/2022 3:30:00 AM 20.97 69.746 0.661 7.55 4634.56 1.91
8/22/2022 3:45:00 AM 20.95 69.71 0.662 7.54 4653.92 1.49
8/22/2022 4:00:00 AM 20.92 69.656 0.663 7.53 4601.32 1.25
8/22/2022 4:15:00 AM 20.9 69.62 0.663 7.54 4679.8 1.64
8/22/2022 4:30:00 AM 20.87 69.566 0.665 7.55 4839.39 1.13
8/22/2022 4:45:00 AM 20.84 69.512 0.665 7.55 4697.93 1.41
8/22/2022 5:00:00 AM 20.81 69.458 0.666 7.58 4968.17 1.08
8/22/2022 5:15:00 AM 20.78 69.404 0.667 7.57 5030.18 1.01
8/22/2022 5:30:00 AM 20.75 69.35 0.667 7.54 4643.46 1.16
8/22/2022 5:45:00 AM 20.71 69.278 0.667 7.56 4440.08 0.48
8/22/2022 6:00:00 AM 20.67 69.206 0.668 7.56 4456.57 0.53
8/22/2022 6:15:00 AM 20.64 69.152 0.669 7.56 3945.22 0.85
8/22/2022 6:30:00 AM 20.6 69.08 0.669 7.6 4062.56 1.21
8/22/2022 6:45:00 AM 20.56 69.008 0.671 7.6 4292.02 2.77
8/22/2022 7:00:00 AM 20.51 68.918 0.671 7.58 4456.54 2.41
8/22/2022 7:15:00 AM 20.47 68.846 0.671 7.56 4259.08 2.25
8/22/2022 7:30:00 AM 20.43 68.774 0.671 7.57 4295.77 2.49
8/22/2022 7:45:00 AM 20.39 68.702 0.672 7.56 4335.6 3.14
8/22/2022 8:00:00 AM 20.36 68.648 0.672 7.58 3900.33 2.89
8/22/2022 8:15:00 AM 20.34 68.612 0.672 7.62 4042.57 3.37
8/22/2022 8:30:00 AM 20.32 68.576 0.673 7.58 4063.8 3.55
8/22/2022 8:45:00 AM 20.31 68.558 0.672 7.57 4055.4 3.93
8/22/2022 9:00:00 AM 20.31 68.558 0.672 7.57 3967.17 4.33
8/22/2022 9:15:00 AM 20.31 68.558 0.673 7.59 4441.86 3.84
8/22/2022 9:30:00 AM 20.32 68.576 0.673 7.64 2914.54 4.21
8/22/2022 9:45:00 AM 20.33 68.594 0.673 7.58 3204.4 4.42
8/22/2022 10:00:00 AM 20.34 68.612 0.674 7.59 3283.13 4.32
8/22/2022 10:15:00 AM 20.36 68.648 0.673 7.57 3196.75 4.1
8/22/2022 10:30:00 AM 20.39 68.702 0.673 7.56 3390.97 4.66
8/22/2022 10:45:00 AM 20.43 68.774 0.671 7.56 3775.87 4.54
8/22/2022 11:00:00 AM 20.49 68.882 0.672 7.58 3895.53 4.86
8/22/2022 11:15:00 AM 20.56 69.008 0.671 7.58 4028.15 4.99
8/22/2022 11:30:00 AM 20.64 69.152 0.67 7.6 4028.29 5.38
8/22/2022 11:45:00 AM 20.72 69.296 0.67 7.64 3759.13 5.61
8/22/2022 12:00:00 PM 20.81 69.458 0.671 7.66 3914.33 5.76
8/22/2022 12:15:00 PM 20.91 69.638 0.67 7.69 3975.44 5.95
8/22/2022 12:30:00 PM 20.98 69.764 0.669 7.7 4064.4 6.36
8/22/2022 12:45:00 PM 21.04 69.872 0.668 7.68 4213.9 6.19
8/22/2022 1:00:00 PM 21.08 69.944 0.668 7.65 4284.57 5.72
8/22/2022 1:15:00 PM 21.1 69.98 0.667 7.64 4084.01 5.98
8/22/2022 1:30:00 PM 21.1 69.98 0.667 7.64 4421.73 6.48
8/22/2022 1:45:00 PM 21.11 69.998 0.669 7.66 4877.49 6.44
8/22/2022 2:00:00 PM 21.14 70.052 0.669 7.69 4874.44 5.63
8/22/2022 2:15:00 PM 21.18 70.124 0.667 7.71 4918.55 6.51
8/22/2022 2:30:00 PM 21.22 70.196 0.667 7.7 4839.15 6.91
8/22/2022 2:45:00 PM 21.29 70.32201 0.667 7.76 4954.41 7.54
8/22/2022 3:00:00 PM 21.44 70.592 0.667 7.82 4908.93 8
8/22/2022 3:15:00 PM 21.64 70.952 0.667 7.83 5030.21 8.41
8/22/2022 3:30:00 PM 21.8 71.24 0.666 7.87 4784.94 8.49
8/22/2022 3:45:00 PM 21.95 71.51 0.665 7.89 5045.12 8.65
8/22/2022 4:00:00 PM 22.06 71.708 0.664 7.86 4944.85 8.74
8/22/2022 4:15:00 PM 22.17 71.906 0.667 7.92 5037.43 9.36
8/22/2022 4:30:00 PM 22.2 71.96 0.675 7.99 5034.59 9.42
8/22/2022 4:45:00 PM 22.26 72.068 0.695 8.02 4074.66 9.34
8/22/2022 5:00:00 PM 22.22 71.996 0.702 7.96 3617.53 9
8/22/2022 5:15:00 PM 22.1 71.78 0.704 7.95 3006.94 8.82
8/22/2022 5:30:00 PM 21.92 71.456 0.7 7.87 2772.9 8.62
8/22/2022 5:45:00 PM 21.72 71.096 0.693 7.89 2751.88 8.56
8/22/2022 6:00:00 PM 21.56 70.808 0.684 7.89 2780.09 8.5
8/22/2022 6:15:00 PM 21.46 70.628 0.674 7.89 2698.66 8.63
8/22/2022 6:30:00 PM 21.41 70.538 0.671 7.89 2695.51 8.65
8/22/2022 6:45:00 PM 21.37 70.466 0.67 7.88 2753.47 8.61
8/22/2022 7:00:00 PM 21.32 70.376 0.67 7.89 2715.98 8.47
8/22/2022 7:15:00 PM 21.27 70.286 0.668 7.89 2168.48 8.16
8/22/2022 7:30:00 PM 21.2 70.16 0.661 7.88 2203.82 7.97
8/22/2022 7:45:00 PM 21.11 69.998 0.658 7.85 2194.83 7.81
8/22/2022 8:00:00 PM 21.02 69.836 0.656 7.85 1515.82 7.63
8/22/2022 8:15:00 PM 20.94 69.692 0.654 7.82 1434.13 7.52
8/22/2022 8:30:00 PM 20.85 69.53 0.652 7.8 1335.43 7.33
8/22/2022 8:45:00 PM 20.77 69.386 0.648 7.78 1216.9 7.28
8/22/2022 9:00:00 PM 20.7 69.26 0.645 7.77 1183.22 7.11
8/22/2022 9:15:00 PM 20.64 69.152 0.642 7.76 1221.24 7.11
8/22/2022 9:30:00 PM 20.59 69.062 0.639 7.75 1229.71 6.92
8/22/2022 9:45:00 PM 20.55 68.99 0.635 7.75 1217.62 6.92
8/22/2022 10:00:00 PM 20.5 68.9 0.632 7.74 1241.32 6.8
8/22/2022 10:15:00 PM 20.47 68.846 0.63 7.72 1209.04 6.67
8/22/2022 10:30:00 PM 20.43 68.774 0.627 7.7 1237.01 6.56
8/22/2022 10:45:00 PM 20.4 68.72 0.624 7.68 1262.55 6.49
8/22/2022 11:00:00 PM 20.37 68.666 0.621 7.65 1267.8 6.06
8/22/2022 11:15:00 PM 20.34 68.612 0.617 7.63 1315.26 5.78
8/22/2022 11:30:00 PM 20.32 68.576 0.612 7.61 1299.18 5.58
8/22/2022 11:45:00 PM 20.29 68.522 0.607 7.59 1187.52 5.42
8/23/2022 12:00:00 AM 20.26 68.468 0.603 7.58 733.46 3.56
8/23/2022 12:15:00 AM 20.22 68.396 0.601 7.57 764.91 3.97
8/23/2022 12:30:00 AM 20.2 68.36 0.598 7.56 805.04 4.05
8/23/2022 12:45:00 AM 20.17 68.306 0.596 7.54 796.78 4.32
8/23/2022 1:00:00 AM 20.15 68.27 0.593 7.53 803.1 2.56
8/23/2022 1:15:00 AM 20.12 68.216 0.592 7.52 818 2.79
8/23/2022 1:30:00 AM 20.09 68.162 0.59 7.51 805.07 1.43
8/23/2022 1:45:00 AM 20.07 68.126 0.588 7.5 834.95 2.58
8/23/2022 2:00:00 AM 20.05 68.09 0.587 7.48 853.84 3.06
8/23/2022 2:15:00 AM 20.03 68.054 0.586 7.48 865.55 2.67
8/23/2022 2:30:00 AM 20.01 68.018 0.587 7.47 862.06 3.13
8/23/2022 2:45:00 AM 19.99 67.982 0.587 7.46 808.84 2.86
8/23/2022 3:00:00 AM 19.98 67.964 0.587 7.46 847.64 1.41
8/23/2022 3:15:00 AM 19.96 67.92799 0.587 7.45 891.58 0.81
8/23/2022 3:30:00 AM 19.94 67.892 0.587 7.45 869.69 2.72
8/23/2022 3:45:00 AM 19.93 67.874 0.587 7.45 856.24 2.43
8/23/2022 4:00:00 AM 19.92 67.856 0.587 7.44 924.32 0.98
8/23/2022 4:15:00 AM 19.9 67.82 0.588 7.44 920.13 1.2
8/23/2022 4:30:00 AM 19.88 67.784 0.588 7.45 918.92 0.83
8/23/2022 4:45:00 AM 19.86 67.748 0.588 7.45 936.77 1
8/23/2022 5:00:00 AM 19.84 67.712 0.588 7.45 765.03 1.12
8/23/2022 5:15:00 AM 19.83 67.694 0.586 7.46 775.14 1.87
8/23/2022 5:30:00 AM 19.81 67.658 0.586 7.45 797.94 2.54
8/23/2022 5:45:00 AM 19.78 67.604 0.586 7.46 794.79 2.6
8/23/2022 6:00:00 AM 19.77 67.586 0.586 7.44 825.46 2.6
8/23/2022 6:15:00 AM 19.74 67.532 0.587 7.44 831.06 2.92
8/23/2022 6:30:00 AM 19.73 67.514 0.586 7.45 860.84 2.56
8/23/2022 6:45:00 AM 19.71 67.478 0.585 7.44 904.01 2.14
8/23/2022 7:00:00 AM 19.71 67.478 0.584 7.44 911.03 2.2
8/23/2022 7:15:00 AM 19.7 67.46 0.584 7.44 919.9 2.38
8/23/2022 7:30:00 AM 19.69 67.442 0.583 7.44 936.56 1.91
8/23/2022 7:45:00 AM 19.69 67.442 0.583 7.44 958.85 1.27
8/23/2022 8:00:00 AM 19.69 67.442 0.583 7.44 983.03 1.35
8/23/2022 8:15:00 AM 19.7 67.46 0.582 7.44 1008.9 1.34
8/23/2022 8:30:00 AM 19.7 67.46 0.581 7.45 1016.43 1.27
8/23/2022 8:45:00 AM 19.71 67.478 0.58 7.44 1024.11 1.05
8/23/2022 9:00:00 AM 19.72 67.496 0.579 7.43 1033.19 1.28
8/23/2022 9:15:00 AM 19.72 67.496 0.578 7.43 1037.31 0.78
8/23/2022 9:30:00 AM 19.74 67.532 0.578 7.44 1039.53 1.1
8/23/2022 9:45:00 AM 19.77 67.586 0.577 7.45 1056.7 1.94
8/23/2022 10:00:00 AM 19.8 67.64 0.577 7.46 1072.23 0.96
8/23/2022 10:15:00 AM 19.84 67.712 0.575 7.46 1076.08 1.03
8/23/2022 10:30:00 AM 19.9 67.82 0.573 7.47 1075.15 1.36
8/23/2022 10:45:00 AM 19.98 67.964 0.573 7.48 1083.23 1.8
8/23/2022 11:00:00 AM 20.05 68.09 0.571 7.48 1095.5 1.82
8/23/2022 11:15:00 AM 20.13 68.234 0.571 7.48 1115.4 2.22
8/23/2022 11:30:00 AM 20.26 68.468 0.57 7.48 1124.82 2.99
8/23/2022 11:45:00 AM 20.41 68.738 0.569 7.49 1126.39 2.82
8/23/2022 12:00:00 PM 20.52 68.936 0.571 7.49 1137 2.36
8/23/2022 12:15:00 PM 20.57 69.026 0.568 7.5 1145.05 2.66
8/23/2022 12:30:00 PM 20.64 69.152 0.567 7.5 1152.78 3.17
8/23/2022 12:45:00 PM 20.79 69.422 0.566 7.5 1164.18 3.67
8/23/2022 1:00:00 PM 20.98 69.764 0.564 7.5 1194.8 3.79
8/23/2022 1:15:00 PM 21.2 70.16 0.562 7.51 1225.03 4.43
8/23/2022 1:30:00 PM 21.39 70.502 0.562 7.51 1247.18 4.6
8/23/2022 1:45:00 PM 21.45 70.61 0.562 7.52 1277.97 4.72
8/23/2022 2:00:00 PM 21.46 70.628 0.562 7.52 1292.49 4.33
8/23/2022 2:15:00 PM 21.51 70.718 0.56 7.51 1324.38 4.5
8/23/2022 2:30:00 PM 21.64 70.952 0.56 7.5 1349.15 4.97
8/23/2022 2:45:00 PM 21.77 71.186 0.558 7.52 1387.15 5.19
8/23/2022 3:00:00 PM 21.92 71.456 0.557 7.52 1418.33 5.48
8/23/2022 3:15:00 PM 22.08 71.744 0.555 7.52 1440.92 5.63
8/23/2022 3:30:00 PM 22.19 71.942 0.556 7.5 1462.73 5.5
8/23/2022 3:45:00 PM 22.29 72.122 0.552 7.5 1486.76 4.21
8/23/2022 4:00:00 PM 22.39 72.302 0.552 7.51 1342.87 3.38
8/23/2022 4:15:00 PM 22.49 72.482 0.548 7.5 1449.28 4.57
8/23/2022 4:30:00 PM 22.57 72.626 0.545 7.5 1448.85 4.62
8/23/2022 4:45:00 PM 22.64 72.752 0.546 7.51 1453.43 3.95
8/23/2022 5:00:00 PM 22.68 72.824 0.545 7.52 1468.78 3.72
8/23/2022 5:15:00 PM 22.7 72.86 0.547 7.51 1477.85 3.68
8/23/2022 5:30:00 PM 22.72 72.896 0.548 7.51 1507.71 2.67
8/23/2022 5:45:00 PM 22.74 72.932 0.549 7.53 1509.03 2.28
8/23/2022 6:00:00 PM 22.75 72.95 0.549 7.53 1474.86 3.51
8/23/2022 6:15:00 PM 22.75 72.95 0.549 7.54 1547.92 2.47
8/23/2022 6:30:00 PM 22.74 72.932 0.551 7.55 1564.37 2.92
8/23/2022 6:45:00 PM 22.72 72.896 0.552 7.56 1442.23 3.09
8/23/2022 7:00:00 PM 22.71 72.878 0.554 7.56 1471.23 3.48
8/23/2022 7:15:00 PM 22.7 72.86 0.556 7.57 1592.51 3.11
8/23/2022 7:30:00 PM 22.67 72.806 0.557 7.57 1562.82 3.73
8/23/2022 7:45:00 PM 22.65 72.77 0.558 7.58 1596.16 4.91
8/23/2022 8:00:00 PM 22.63 72.734 0.556 7.56 1607.94 4.72
8/23/2022 8:15:00 PM 22.61 72.698 0.555 7.55 1556.2 3.88
8/23/2022 8:30:00 PM 22.58 72.644 0.551 7.55 1588.74 2.4
8/23/2022 8:45:00 PM 22.56 72.608 0.553 7.53 1662.74 3.94
8/23/2022 9:00:00 PM 22.53 72.554 0.554 7.54 1475.28 4.03
8/23/2022 9:15:00 PM 22.51 72.518 0.553 7.54 1458.99 2.34
8/23/2022 9:30:00 PM 22.48 72.464 0.555 7.55 1671.91 1.47
8/23/2022 9:45:00 PM 22.45 72.41 0.555 7.57 1668.7 2.84
8/23/2022 10:00:00 PM 22.42 72.356 0.557 7.57 1683.33 3.36
8/23/2022 10:15:00 PM 22.38 72.284 0.554 7.57 1679.78 2.52
8/23/2022 10:30:00 PM 22.35 72.23 0.554 7.57 1681.47 1.98
8/23/2022 10:45:00 PM 22.31 72.158 0.553 7.57 1671.64 1.28
8/23/2022 11:00:00 PM 22.27 72.086 0.554 7.58 1649.53 2.7
8/23/2022 11:15:00 PM 22.23 72.014 0.555 7.57 1657.55 0.79
8/23/2022 11:30:00 PM 22.18 71.924 0.556 7.57 1637.64 1.16
8/23/2022 11:45:00 PM 22.13 71.834 0.556 7.57 1636.93 2.29
8/24/2022 12:00:00 AM 22.08 71.744 0.556 7.57 1653.2 0.56
8/24/2022 12:15:00 AM 22.03 71.654 0.555 7.57 1642.1 0.42
8/24/2022 12:30:00 AM 21.97 71.546 0.556 7.57 1635.51 2.02
8/24/2022 12:45:00 AM 21.92 71.456 0.557 7.57 1653.41 1.39
8/24/2022 1:00:00 AM 21.87 71.366 0.557 7.56 1675.74 0.45
8/24/2022 1:15:00 AM 21.82 71.276 0.558 7.57 1666.7 0.38
8/24/2022 1:30:00 AM 21.76 71.168 0.558 7.57 1684.02 0.44
8/24/2022 1:45:00 AM 21.71 71.078 0.558 7.58 1668.76 0.33
8/24/2022 2:00:00 AM 21.65 70.97 0.558 7.59 1646.28 0.33
8/24/2022 2:15:00 AM 21.6 70.88 0.559 7.59 1616.2 0.31
8/24/2022 2:30:00 AM 21.54 70.772 0.562 7.59 1654.48 0.88
8/24/2022 2:45:00 AM 21.48 70.664 0.562 7.59 1669.54 0.32
8/24/2022 3:00:00 AM 21.42 70.556 0.562 7.6 1690.27 0.32
8/24/2022 3:15:00 AM 21.37 70.466 0.562 7.59 1679.04 0.35
8/24/2022 3:30:00 AM 21.3 70.34 0.56 7.59 1680.77 0.31
8/24/2022 3:45:00 AM 21.24 70.232 0.562 7.59 1653.03 0.31
8/24/2022 4:00:00 AM 21.18 70.124 0.563 7.58 1655.53 0.31
8/24/2022 4:15:00 AM 21.12 70.016 0.563 7.58 1659.34 0.31
8/24/2022 4:30:00 AM 21.06 69.908 0.565 7.58 1667.46 0.3
8/24/2022 4:45:00 AM 20.99 69.782 0.564 7.57 1556.76 0.3
8/24/2022 5:00:00 AM 20.93 69.674 0.565 7.57 1536.59 0.32
8/24/2022 5:15:00 AM 20.86 69.548 0.565 7.58 1493.1 0.31
8/24/2022 5:30:00 AM 20.8 69.44 0.565 7.58 1504.37 0.31
8/24/2022 5:45:00 AM 20.73 69.314 0.565 7.57 1434.7 0.31
8/24/2022 6:00:00 AM 20.67 69.206 0.565 7.57 1355.25 0.31
8/24/2022 6:15:00 AM 20.6 69.08 0.565 7.57 1521.28 0.31
8/24/2022 6:30:00 AM 20.54 68.972 0.566 7.55 1526.14 0.31
8/24/2022 6:45:00 AM 20.48 68.864 0.566 7.53 1537.83 0.31
8/24/2022 7:00:00 AM 20.42 68.756 0.568 7.53 1387.74 0.31
8/24/2022 7:15:00 AM 20.35 68.63 0.569 7.53 1387.7 0.31
8/24/2022 7:30:00 AM 20.29 68.522 0.568 7.53 1392.62 0.31
8/24/2022 7:45:00 AM 20.23 68.414 0.568 7.53 1470.26 0.31
8/24/2022 8:00:00 AM 20.18 68.324 0.568 7.52 1516.79 0.31
8/24/2022 8:15:00 AM 20.13 68.234 0.568 7.52 1494.7 0.31
8/24/2022 8:30:00 AM 20.08 68.144 0.567 7.52 1465.73 0.31
8/24/2022 8:45:00 AM 20.05 68.09 0.567 7.52 1495.57 0.31
8/24/2022 9:00:00 AM 20.03 68.054 0.567 7.52 1500.57 0.31
8/24/2022 9:15:00 AM 20.02 68.036 0.566 7.52 1516.38 0.31
8/24/2022 9:30:00 AM 20.01 68.018 0.566 7.52 1488.6 0.31
8/24/2022 9:45:00 AM 20.01 68.018 0.565 7.51 1475.46 0.34
8/24/2022 10:00:00 AM 20.01 68.018 0.566 7.51 1473.38 0.31
8/24/2022 10:15:00 AM 20.02 68.036 0.565 7.51 1499.61 0.38
8/24/2022 10:30:00 AM 20.06 68.108 0.565 7.51 1469.05 0.75
8/24/2022 10:45:00 AM 20.12 68.216 0.564 7.53 1471.41 0.39
8/24/2022 11:00:00 AM 20.19 68.342 0.563 7.54 1486.23 0.91
8/24/2022 11:15:00 AM 20.29 68.522 0.563 7.54 1499.22 0.85
8/24/2022 11:30:00 AM 20.4 68.72 0.564 7.55 1512.11 0.9
8/24/2022 11:45:00 AM 20.51 68.918 0.567 7.57 1499.73 1.07
8/24/2022 12:00:00 PM 20.65 69.17 0.569 7.57 1497.37 2.59
8/24/2022 12:15:00 PM 20.8 69.44 0.567 7.58 1524.7 3.6
8/24/2022 12:30:00 PM 20.95 69.71 0.571 7.58 1567.83 3.17
8/24/2022 12:45:00 PM 21.14 70.052 0.569 7.57 1588.69 2.94
8/24/2022 1:00:00 PM 21.32 70.376 0.565 7.57 1600.67 3.11
8/24/2022 1:15:00 PM 21.53 70.754 0.564 7.58 1609.99 2
8/24/2022 1:30:00 PM 21.75 71.15 0.565 7.58 1566.22 3.59
8/24/2022 1:45:00 PM 21.93 71.474 0.564 7.58 1590.48 3.93
8/24/2022 2:00:00 PM 22.07 71.726 0.565 7.6 1620.06 4.09
8/24/2022 2:15:00 PM 22.22 71.996 0.565 7.58 1641.46 3.71
8/24/2022 2:30:00 PM 22.35 72.23 0.563 7.56 1660.36 4.11
8/24/2022 2:45:00 PM 22.45 72.41 0.566 7.57 1639.78 2.35
8/24/2022 3:00:00 PM 22.52 72.536 0.566 7.6 1682.01 4.24
8/24/2022 3:15:00 PM 22.58 72.644 0.565 7.57 1688.94 4.23
8/24/2022 3:30:00 PM 22.66 72.788 0.567 7.55 1665.07 2.59
8/24/2022 3:45:00 PM 22.76 72.968 0.566 7.54 1709.03 3.52
8/24/2022 4:00:00 PM 22.86 73.148 0.565 7.54 1656.02 2.97
8/24/2022 4:15:00 PM 22.93 73.274 0.566 7.54 1666.97 3.94
8/24/2022 4:30:00 PM 22.99 73.382 0.568 7.54 1654.2 1.75
8/24/2022 4:45:00 PM 23.06 73.508 0.569 7.56 1660.04 0.88
8/24/2022 5:00:00 PM 23.13 73.634 0.568 7.54 1636.63 0.87
8/24/2022 5:15:00 PM 23.19 73.742 0.566 7.55 1671.37 4.08
8/24/2022 5:30:00 PM 23.22 73.796 0.564 7.57 1654.64 1.05
8/24/2022 5:45:00 PM 23.24 73.832 0.564 7.58 1634.78 3.46
8/24/2022 6:00:00 PM 23.23 73.814 0.565 7.58 1664.64 1.09
8/24/2022 6:15:00 PM 23.21 73.778 0.565 7.58 1651.63 2.14
8/24/2022 6:30:00 PM 23.18 73.724 0.566 7.57 1650.55 2.38
8/24/2022 6:45:00 PM 23.14 73.652 0.568 7.58 1709.37 3.35
8/24/2022 7:00:00 PM 23.09 73.562 0.569 7.58 1719.14 2.88
8/24/2022 7:15:00 PM 23.05 73.49 0.569 7.58 1713.19 0.67
8/24/2022 7:30:00 PM 22.99 73.382 0.57 7.58 1734.22 1.57
8/24/2022 7:45:00 PM 22.94 73.292 0.569 7.58 1747.51 0.9
8/24/2022 8:00:00 PM 22.88 73.184 0.569 7.61 1768.68 0.55
8/24/2022 8:15:00 PM 22.82 73.076 0.569 7.61 1645.67 1.8
8/24/2022 8:30:00 PM 22.76 72.968 0.569 7.61 1681.41 0.65
8/24/2022 8:45:00 PM 22.7 72.86 0.569 7.6 1721.3 1.19
8/24/2022 9:00:00 PM 22.65 72.77 0.569 7.6 1741.41 0.63
8/24/2022 9:15:00 PM 22.6 72.68 0.57 7.59 1738.73 0.53
8/24/2022 9:30:00 PM 22.54 72.57201 0.57 7.6 1749.94 0.68
8/24/2022 9:45:00 PM 22.5 72.5 0.571 7.6 1799.94 2.18
8/24/2022 10:00:00 PM 22.45 72.41 0.571 7.61 1831.36 2.28
8/24/2022 10:15:00 PM 22.4 72.32 0.572 7.61 1850.79 2.12
8/24/2022 10:30:00 PM 22.36 72.248 0.571 7.61 1860.91 0.75
8/24/2022 10:45:00 PM 22.32 72.176 0.572 7.61 1857.48 0.36
8/24/2022 11:00:00 PM 22.29 72.122 0.572 7.62 1871.3 0.53
8/24/2022 11:15:00 PM 22.25 72.05 0.573 7.62 1824.6 0.36
8/24/2022 11:30:00 PM 22.21 71.978 0.574 7.63 1877.3 1.14
8/24/2022 11:45:00 PM 22.17 71.906 0.574 7.64 1737.64 0.36
8/25/2022 12:00:00 AM 22.14 71.852 0.574 7.62 1719.35 0.72
8/25/2022 12:15:00 AM 22.1 71.78 0.574 7.62 1805.24 0.64
8/25/2022 12:30:00 AM 22.06 71.708 0.574 7.61 1768.13 0.38
8/25/2022 12:45:00 AM 22.02 71.636 0.575 7.6 1764.14 0.3
8/25/2022 1:00:00 AM 21.98 71.564 0.576 7.6 1778.41 0.3
8/25/2022 1:15:00 AM 21.93 71.474 0.576 7.59 1706.42 0.31
8/25/2022 1:30:00 AM 21.88 71.384 0.575 7.59 1774.61 0.75
8/25/2022 1:45:00 AM 21.84 71.312 0.577 7.59 1675.44 0.7
8/25/2022 2:00:00 AM 21.79 71.222 0.577 7.6 1640.48 0.41
8/25/2022 2:15:00 AM 21.74 71.132 0.578 7.59 1616.05 1.11
8/25/2022 2:30:00 AM 21.69 71.042 0.579 7.59 1826.6 0.58
8/25/2022 2:45:00 AM 21.63 70.934 0.579 7.59 1872.48 0.33
8/25/2022 3:00:00 AM 21.56 70.808 0.58 7.59 1874.73 0.7
8/25/2022 3:15:00 AM 21.5 70.7 0.582 7.59 1832.78 0.34
8/25/2022 3:30:00 AM 21.43 70.574 0.584 7.59 1802.29 0.53
8/25/2022 3:45:00 AM 21.36 70.448 0.584 7.6 1549.23 0.39
8/25/2022 4:00:00 AM 21.28 70.304 0.585 7.6 1607.34 0.6
8/25/2022 4:15:00 AM 21.21 70.17799 0.585 7.6 1628.53 0.34
8/25/2022 4:30:00 AM 21.14 70.052 0.585 7.6 1627.94 0.35
8/25/2022 4:45:00 AM 21.07 69.926 0.584 7.6 1615.75 0.32
8/25/2022 5:00:00 AM 20.99 69.782 0.585 7.6 1623.15 0.31
8/25/2022 5:15:00 AM 20.93 69.674 0.586 7.6 1614.9 0.3
8/25/2022 5:30:00 AM 20.86 69.548 0.587 7.6 1628.31 0.31
8/25/2022 5:45:00 AM 20.8 69.44 0.587 7.6 1610.69 0.3
8/25/2022 6:00:00 AM 20.73 69.314 0.588 7.59 1584.69 0.31
8/25/2022 6:15:00 AM 20.67 69.206 0.589 7.58 1531.74 0.5
8/25/2022 6:30:00 AM 20.6 69.08 0.589 7.58 1641.94 0.34
8/25/2022 6:45:00 AM 20.53 68.954 0.589 7.58 1662.56 0.4
8/25/2022 7:00:00 AM 20.47 68.846 0.59 7.58 1673.23 0.35
8/25/2022 7:15:00 AM 20.41 68.738 0.592 7.58 1653.37 0.3
8/25/2022 7:30:00 AM 20.35 68.63 0.594 7.57 1677.45 0.32
8/25/2022 7:45:00 AM 20.3 68.54 0.595 7.57 1683.91 0.32
8/25/2022 8:00:00 AM 20.25 68.45 0.595 7.57 1718.35 0.4
8/25/2022 8:15:00 AM 20.19 68.342 0.596 7.56 1700.63 0.34
8/25/2022 8:30:00 AM 20.14 68.252 0.596 7.58 1435.71 0.31
8/25/2022 8:45:00 AM